<?xml version="1.0" encoding="utf-8"?>
<gpx xmlns:xsi="http://www.w3.org/2001/XMLSchema-instance" xmlns:xsd="http://www.w3.org/2001/XMLSchema" version="1.1" creator="Shapelink.com" xmlns="http://www.topografix.com/GPX/1/1" xmlns:gpxtpx="http://www.garmin.com/xmlschemas/TrackPointExtension/v1">
  <metadata>
    <name>Cykling - Mtb 16.63 km, 2013-08-17</name>
    <desc></desc>
    <author><name>Alexander Engvall</name></author> 
    <time>2013-08-17T11:17:25Z</time>
  </metadata>
  <trk>
    <name>Cykling - Mtb 16.63 km, 2013-08-17</name>
    <trkseg>
      <trkpt lat="59.51406408149" lon="17.927554563022">
        <ele>12.2</ele>
        <time>2013-08-17T11:17:25Z</time>
      </trkpt>
      <trkpt lat="59.514043797292" lon="17.927531764254">
        <ele>12.2</ele>
        <time>2013-08-17T11:17:26Z</time>
      </trkpt>
      <trkpt lat="59.514012532805" lon="17.92751952668">
        <ele>11.2</ele>
        <time>2013-08-17T11:17:27Z</time>
      </trkpt>
      <trkpt lat="59.513923014113" lon="17.927518353214">
        <ele>11.2</ele>
        <time>2013-08-17T11:17:29Z</time>
      </trkpt>
      <trkpt lat="59.513872303618" lon="17.927528495313">
        <ele>11.2</ele>
        <time>2013-08-17T11:17:30Z</time>
      </trkpt>
      <trkpt lat="59.513825951711" lon="17.927535536109">
        <ele>11.2</ele>
        <time>2013-08-17T11:17:31Z</time>
      </trkpt>
      <trkpt lat="59.513625540482" lon="17.927581636559">
        <ele>11.2</ele>
        <time>2013-08-17T11:17:36Z</time>
      </trkpt>
      <trkpt lat="59.513541386206" lon="17.927574344306">
        <ele>11.6</ele>
        <time>2013-08-17T11:17:38Z</time>
      </trkpt>
      <trkpt lat="59.51350081781" lon="17.927590102278">
        <ele>12</ele>
        <time>2013-08-17T11:17:39Z</time>
      </trkpt>
      <trkpt lat="59.513460836147" lon="17.927625641534">
        <ele>12.4</ele>
        <time>2013-08-17T11:17:40Z</time>
      </trkpt>
      <trkpt lat="59.513424039606" lon="17.9276771064">
        <ele>12.8</ele>
        <time>2013-08-17T11:17:41Z</time>
      </trkpt>
      <trkpt lat="59.513390595825" lon="17.927733097492">
        <ele>13.2</ele>
        <time>2013-08-17T11:17:42Z</time>
      </trkpt>
      <trkpt lat="59.513325384643" lon="17.927844660581">
        <ele>13.2</ele>
        <time>2013-08-17T11:17:44Z</time>
      </trkpt>
      <trkpt lat="59.513196303383" lon="17.927892605049">
        <ele>13.2</ele>
        <time>2013-08-17T11:17:47Z</time>
      </trkpt>
      <trkpt lat="59.513086416674" lon="17.927734270958">
        <ele>13.2</ele>
        <time>2013-08-17T11:17:50Z</time>
      </trkpt>
      <trkpt lat="59.513065629562" lon="17.927442580838">
        <ele>12.8</ele>
        <time>2013-08-17T11:17:53Z</time>
      </trkpt>
      <trkpt lat="59.513105108311" lon="17.926758366341">
        <ele>11</ele>
        <time>2013-08-17T11:18:19Z</time>
      </trkpt>
      <trkpt lat="59.513087757778" lon="17.926760210359">
        <ele>11</ele>
        <time>2013-08-17T11:18:22Z</time>
      </trkpt>
      <trkpt lat="59.513096474954" lon="17.92650615497">
        <ele>11</ele>
        <time>2013-08-17T11:18:26Z</time>
      </trkpt>
      <trkpt lat="59.513099492438" lon="17.926223601121">
        <ele>11.4</ele>
        <time>2013-08-17T11:18:29Z</time>
      </trkpt>
      <trkpt lat="59.513094379479" lon="17.926018831304">
        <ele>12.2</ele>
        <time>2013-08-17T11:18:30Z</time>
      </trkpt>
      <trkpt lat="59.513094379479" lon="17.926018831304">
        <ele>12.2</ele>
        <time>2013-08-17T11:18:31Z</time>
      </trkpt>
      <trkpt lat="59.513090272348" lon="17.925925959852">
        <ele>12.6</ele>
        <time>2013-08-17T11:18:32Z</time>
      </trkpt>
      <trkpt lat="59.513088847425" lon="17.925831914934">
        <ele>13</ele>
        <time>2013-08-17T11:18:33Z</time>
      </trkpt>
      <trkpt lat="59.513086668131" lon="17.925535698588">
        <ele>13</ele>
        <time>2013-08-17T11:18:36Z</time>
      </trkpt>
      <trkpt lat="59.513088009235" lon="17.925330342038">
        <ele>14</ele>
        <time>2013-08-17T11:18:38Z</time>
      </trkpt>
      <trkpt lat="59.513091194357" lon="17.925234285464">
        <ele>14.6</ele>
        <time>2013-08-17T11:18:39Z</time>
      </trkpt>
      <trkpt lat="59.513093708927" lon="17.925141330193">
        <ele>15</ele>
        <time>2013-08-17T11:18:40Z</time>
      </trkpt>
      <trkpt lat="59.51310016299" lon="17.925046447085">
        <ele>15.6</ele>
        <time>2013-08-17T11:18:41Z</time>
      </trkpt>
      <trkpt lat="59.513107874338" lon="17.924951396339">
        <ele>16</ele>
        <time>2013-08-17T11:18:42Z</time>
      </trkpt>
      <trkpt lat="59.513114998953" lon="17.924860285086">
        <ele>16.6</ele>
        <time>2013-08-17T11:18:43Z</time>
      </trkpt>
      <trkpt lat="59.513124135224" lon="17.924772861869">
        <ele>17</ele>
        <time>2013-08-17T11:18:44Z</time>
      </trkpt>
      <trkpt lat="59.513133858228" lon="17.924684265186">
        <ele>17.4</ele>
        <time>2013-08-17T11:18:45Z</time>
      </trkpt>
      <trkpt lat="59.513142156309" lon="17.924608241353">
        <ele>18</ele>
        <time>2013-08-17T11:18:46Z</time>
      </trkpt>
      <trkpt lat="59.513169648941" lon="17.924362735502">
        <ele>18.4</ele>
        <time>2013-08-17T11:18:49Z</time>
      </trkpt>
      <trkpt lat="59.513179204307" lon="17.924281682529">
        <ele>18.8</ele>
        <time>2013-08-17T11:18:50Z</time>
      </trkpt>
      <trkpt lat="59.513187250931" lon="17.924198114986">
        <ele>19.2</ele>
        <time>2013-08-17T11:18:51Z</time>
      </trkpt>
      <trkpt lat="59.513196722478" lon="17.924113206339">
        <ele>19.6</ele>
        <time>2013-08-17T11:18:52Z</time>
      </trkpt>
      <trkpt lat="59.513204852921" lon="17.924024609656">
        <ele>20</ele>
        <time>2013-08-17T11:18:53Z</time>
      </trkpt>
      <trkpt lat="59.51322756787" lon="17.923663182128">
        <ele>20</ele>
        <time>2013-08-17T11:18:57Z</time>
      </trkpt>
      <trkpt lat="59.513264364411" lon="17.923054572369">
        <ele>20</ele>
        <time>2013-08-17T11:19:03Z</time>
      </trkpt>
      <trkpt lat="59.51328288841" lon="17.922976872156">
        <ele>20</ele>
        <time>2013-08-17T11:19:04Z</time>
      </trkpt>
      <trkpt lat="59.513314991087" lon="17.922947116411">
        <ele>19.6</ele>
        <time>2013-08-17T11:19:05Z</time>
      </trkpt>
      <trkpt lat="59.513358157872" lon="17.922954576302">
        <ele>19.2</ele>
        <time>2013-08-17T11:19:06Z</time>
      </trkpt>
      <trkpt lat="59.513416412077" lon="17.922978464717">
        <ele>18.6</ele>
        <time>2013-08-17T11:19:07Z</time>
      </trkpt>
      <trkpt lat="59.513482629087" lon="17.923008891014">
        <ele>18.2</ele>
        <time>2013-08-17T11:19:08Z</time>
      </trkpt>
      <trkpt lat="59.51355027102" lon="17.923031186868">
        <ele>17.8</ele>
        <time>2013-08-17T11:19:09Z</time>
      </trkpt>
      <trkpt lat="59.513626294853" lon="17.923028085565">
        <ele>17.8</ele>
        <time>2013-08-17T11:19:10Z</time>
      </trkpt>
      <trkpt lat="59.51376736223" lon="17.922945272393">
        <ele>17.8</ele>
        <time>2013-08-17T11:19:12Z</time>
      </trkpt>
      <trkpt lat="59.513882529536" lon="17.922792051261">
        <ele>17.8</ele>
        <time>2013-08-17T11:19:14Z</time>
      </trkpt>
      <trkpt lat="59.513996104281" lon="17.922634890636">
        <ele>17.8</ele>
        <time>2013-08-17T11:19:16Z</time>
      </trkpt>
      <trkpt lat="59.514044132568" lon="17.922545623401">
        <ele>17.8</ele>
        <time>2013-08-17T11:19:17Z</time>
      </trkpt>
      <trkpt lat="59.514160221883" lon="17.922215795636">
        <ele>17.8</ele>
        <time>2013-08-17T11:19:20Z</time>
      </trkpt>
      <trkpt lat="59.514189055619" lon="17.922092078792">
        <ele>17.8</ele>
        <time>2013-08-17T11:19:21Z</time>
      </trkpt>
      <trkpt lat="59.514260385588" lon="17.921696369293">
        <ele>17.8</ele>
        <time>2013-08-17T11:19:24Z</time>
      </trkpt>
      <trkpt lat="59.514264241262" lon="17.921563851454">
        <ele>17.8</ele>
        <time>2013-08-17T11:19:25Z</time>
      </trkpt>
      <trkpt lat="59.514268348393" lon="17.921295211559">
        <ele>17.4</ele>
        <time>2013-08-17T11:19:27Z</time>
      </trkpt>
      <trkpt lat="59.514272204067" lon="17.921151881069">
        <ele>17</ele>
        <time>2013-08-17T11:19:28Z</time>
      </trkpt>
      <trkpt lat="59.514276897931" lon="17.921007963846">
        <ele>16.4</ele>
        <time>2013-08-17T11:19:29Z</time>
      </trkpt>
      <trkpt lat="59.514280585967" lon="17.920858263112">
        <ele>16</ele>
        <time>2013-08-17T11:19:30Z</time>
      </trkpt>
      <trkpt lat="59.514282597623" lon="17.920719375029">
        <ele>15.6</ele>
        <time>2013-08-17T11:19:31Z</time>
      </trkpt>
      <trkpt lat="59.514273964266" lon="17.920138341721">
        <ele>15.2</ele>
        <time>2013-08-17T11:19:35Z</time>
      </trkpt>
      <trkpt lat="59.514276311198" lon="17.919988054254">
        <ele>14.8</ele>
        <time>2013-08-17T11:19:36Z</time>
      </trkpt>
      <trkpt lat="59.514273545171" lon="17.919834246389">
        <ele>14.2</ele>
        <time>2013-08-17T11:19:37Z</time>
      </trkpt>
      <trkpt lat="59.514268013117" lon="17.919671469891">
        <ele>13.8</ele>
        <time>2013-08-17T11:19:38Z</time>
      </trkpt>
      <trkpt lat="59.514255691724" lon="17.919519757501">
        <ele>13.4</ele>
        <time>2013-08-17T11:19:39Z</time>
      </trkpt>
      <trkpt lat="59.51423591044" lon="17.91936729074">
        <ele>13</ele>
        <time>2013-08-17T11:19:40Z</time>
      </trkpt>
      <trkpt lat="59.514208082532" lon="17.919216165083">
        <ele>12.4</ele>
        <time>2013-08-17T11:19:41Z</time>
      </trkpt>
      <trkpt lat="59.514171872724" lon="17.919073337507">
        <ele>12</ele>
        <time>2013-08-17T11:19:42Z</time>
      </trkpt>
      <trkpt lat="59.51414035678" lon="17.918933862691">
        <ele>11.6</ele>
        <time>2013-08-17T11:19:43Z</time>
      </trkpt>
      <trkpt lat="59.514111187768" lon="17.918789023459">
        <ele>11.2</ele>
        <time>2013-08-17T11:19:44Z</time>
      </trkpt>
      <trkpt lat="59.514037510867" lon="17.918324330923">
        <ele>11.2</ele>
        <time>2013-08-17T11:19:47Z</time>
      </trkpt>
      <trkpt lat="59.514026782035" lon="17.917763749451">
        <ele>11.2</ele>
        <time>2013-08-17T11:19:51Z</time>
      </trkpt>
      <trkpt lat="59.514015550289" lon="17.917007534433">
        <ele>11.2</ele>
        <time>2013-08-17T11:19:57Z</time>
      </trkpt>
      <trkpt lat="59.514017059031" lon="17.916441504726">
        <ele>11.2</ele>
        <time>2013-08-17T11:20:02Z</time>
      </trkpt>
      <trkpt lat="59.514038181419" lon="17.915443136617">
        <ele>11.2</ele>
        <time>2013-08-17T11:20:10Z</time>
      </trkpt>
      <trkpt lat="59.514068188621" lon="17.914788510227">
        <ele>11.2</ele>
        <time>2013-08-17T11:20:15Z</time>
      </trkpt>
      <trkpt lat="59.514082354032" lon="17.913892736574">
        <ele>11.2</ele>
        <time>2013-08-17T11:20:22Z</time>
      </trkpt>
      <trkpt lat="59.51409844728" lon="17.913638345909">
        <ele>11.2</ele>
        <time>2013-08-17T11:20:24Z</time>
      </trkpt>
      <trkpt lat="59.514169441973" lon="17.913274739087">
        <ele>11.2</ele>
        <time>2013-08-17T11:20:27Z</time>
      </trkpt>
      <trkpt lat="59.514192995112" lon="17.913010290142">
        <ele>11.2</ele>
        <time>2013-08-17T11:20:29Z</time>
      </trkpt>
      <trkpt lat="59.514197605157" lon="17.912739051858">
        <ele>11.2</ele>
        <time>2013-08-17T11:20:31Z</time>
      </trkpt>
      <trkpt lat="59.514236329535" lon="17.911979148804">
        <ele>11.6</ele>
        <time>2013-08-17T11:20:37Z</time>
      </trkpt>
      <trkpt lat="59.514239766114" lon="17.911863059489">
        <ele>12</ele>
        <time>2013-08-17T11:20:38Z</time>
      </trkpt>
      <trkpt lat="59.514242699779" lon="17.911751077305">
        <ele>12.4</ele>
        <time>2013-08-17T11:20:39Z</time>
      </trkpt>
      <trkpt lat="59.514243705607" lon="17.911641442053">
        <ele>12.8</ele>
        <time>2013-08-17T11:20:40Z</time>
      </trkpt>
      <trkpt lat="59.514242364503" lon="17.911536752122">
        <ele>13.2</ele>
        <time>2013-08-17T11:20:41Z</time>
      </trkpt>
      <trkpt lat="59.514224678694" lon="17.911231231867">
        <ele>13.2</ele>
        <time>2013-08-17T11:20:44Z</time>
      </trkpt>
      <trkpt lat="59.514179332615" lon="17.910763773304">
        <ele>13.2</ele>
        <time>2013-08-17T11:20:49Z</time>
      </trkpt>
      <trkpt lat="59.514176566588" lon="17.91058892687">
        <ele>13.2</ele>
        <time>2013-08-17T11:20:51Z</time>
      </trkpt>
      <trkpt lat="59.514171285991" lon="17.910499408178">
        <ele>13.2</ele>
        <time>2013-08-17T11:20:52Z</time>
      </trkpt>
      <trkpt lat="59.514146391748" lon="17.909962212207">
        <ele>13.6</ele>
        <time>2013-08-17T11:20:58Z</time>
      </trkpt>
      <trkpt lat="59.514146307929" lon="17.909881075415">
        <ele>14</ele>
        <time>2013-08-17T11:20:59Z</time>
      </trkpt>
      <trkpt lat="59.514146475567" lon="17.909809074894">
        <ele>14.6</ele>
        <time>2013-08-17T11:21:00Z</time>
      </trkpt>
      <trkpt lat="59.514144296273" lon="17.909737661106">
        <ele>15</ele>
        <time>2013-08-17T11:21:01Z</time>
      </trkpt>
      <trkpt lat="59.51414454773" lon="17.909676892331">
        <ele>15.4</ele>
        <time>2013-08-17T11:21:02Z</time>
      </trkpt>
      <trkpt lat="59.514143541902" lon="17.909622912895">
        <ele>15.4</ele>
        <time>2013-08-17T11:21:03Z</time>
      </trkpt>
      <trkpt lat="59.514133735079" lon="17.909539848266">
        <ele>15.4</ele>
        <time>2013-08-17T11:21:05Z</time>
      </trkpt>
      <trkpt lat="59.514143290445" lon="17.909275566959">
        <ele>15.4</ele>
        <time>2013-08-17T11:21:20Z</time>
      </trkpt>
      <trkpt lat="59.514138093667" lon="17.909201387144">
        <ele>15.4</ele>
        <time>2013-08-17T11:21:21Z</time>
      </trkpt>
      <trkpt lat="59.514117809469" lon="17.909042047225">
        <ele>15.4</ele>
        <time>2013-08-17T11:21:23Z</time>
      </trkpt>
      <trkpt lat="59.514086628801" lon="17.908785644904">
        <ele>15.8</ele>
        <time>2013-08-17T11:21:26Z</time>
      </trkpt>
      <trkpt lat="59.514101632402" lon="17.908697551135">
        <ele>16.2</ele>
        <time>2013-08-17T11:21:27Z</time>
      </trkpt>
      <trkpt lat="59.514119737306" lon="17.90861163666">
        <ele>16.8</ele>
        <time>2013-08-17T11:21:28Z</time>
      </trkpt>
      <trkpt lat="59.514136417287" lon="17.90853033223">
        <ele>17.2</ele>
        <time>2013-08-17T11:21:29Z</time>
      </trkpt>
      <trkpt lat="59.514148068128" lon="17.908443495746">
        <ele>17.6</ele>
        <time>2013-08-17T11:21:30Z</time>
      </trkpt>
      <trkpt lat="59.514163993738" lon="17.908257166109">
        <ele>17.6</ele>
        <time>2013-08-17T11:21:32Z</time>
      </trkpt>
      <trkpt lat="59.51416969343" lon="17.908081397666">
        <ele>17.6</ele>
        <time>2013-08-17T11:21:34Z</time>
      </trkpt>
      <trkpt lat="59.514174387294" lon="17.907719634862">
        <ele>18</ele>
        <time>2013-08-17T11:21:38Z</time>
      </trkpt>
      <trkpt lat="59.514176147493" lon="17.907622153365">
        <ele>18.4</ele>
        <time>2013-08-17T11:21:39Z</time>
      </trkpt>
      <trkpt lat="59.514180338443" lon="17.907524336592">
        <ele>18.8</ele>
        <time>2013-08-17T11:21:40Z</time>
      </trkpt>
      <trkpt lat="59.514185870497" lon="17.907428280018">
        <ele>19.2</ele>
        <time>2013-08-17T11:21:41Z</time>
      </trkpt>
      <trkpt lat="59.514189307076" lon="17.907331636711">
        <ele>19.6</ele>
        <time>2013-08-17T11:21:42Z</time>
      </trkpt>
      <trkpt lat="59.514190983456" lon="17.907235412499">
        <ele>19.6</ele>
        <time>2013-08-17T11:21:43Z</time>
      </trkpt>
      <trkpt lat="59.514171956543" lon="17.906636777201">
        <ele>19.6</ele>
        <time>2013-08-17T11:21:49Z</time>
      </trkpt>
      <trkpt lat="59.514144296273" lon="17.905894308499">
        <ele>20.6</ele>
        <time>2013-08-17T11:21:57Z</time>
      </trkpt>
      <trkpt lat="59.514139015676" lon="17.905808896938">
        <ele>21</ele>
        <time>2013-08-17T11:21:58Z</time>
      </trkpt>
      <trkpt lat="59.514153432544" lon="17.90572993944">
        <ele>21.6</ele>
        <time>2013-08-17T11:21:59Z</time>
      </trkpt>
      <trkpt lat="59.514181344271" lon="17.905655424349">
        <ele>22</ele>
        <time>2013-08-17T11:22:00Z</time>
      </trkpt>
      <trkpt lat="59.514241358675" lon="17.905504550149">
        <ele>22</ele>
        <time>2013-08-17T11:22:02Z</time>
      </trkpt>
      <trkpt lat="59.514348479357" lon="17.905174638565">
        <ele>22</ele>
        <time>2013-08-17T11:22:06Z</time>
      </trkpt>
      <trkpt lat="59.514402207336" lon="17.904660241362">
        <ele>22</ele>
        <time>2013-08-17T11:22:11Z</time>
      </trkpt>
      <trkpt lat="59.514434645289" lon="17.90406110315">
        <ele>21.6</ele>
        <time>2013-08-17T11:22:16Z</time>
      </trkpt>
      <trkpt lat="59.514443278646" lon="17.903923053257">
        <ele>21.2</ele>
        <time>2013-08-17T11:22:17Z</time>
      </trkpt>
      <trkpt lat="59.514455180944" lon="17.903787182658">
        <ele>20.8</ele>
        <time>2013-08-17T11:22:18Z</time>
      </trkpt>
      <trkpt lat="59.51447060364" lon="17.903647121109">
        <ele>20.4</ele>
        <time>2013-08-17T11:22:19Z</time>
      </trkpt>
      <trkpt lat="59.514483511766" lon="17.903502198058">
        <ele>20</ele>
        <time>2013-08-17T11:22:20Z</time>
      </trkpt>
      <trkpt lat="59.514488121811" lon="17.9033528326">
        <ele>19.6</ele>
        <time>2013-08-17T11:22:21Z</time>
      </trkpt>
      <trkpt lat="59.514490552562" lon="17.903198438002">
        <ele>19.2</ele>
        <time>2013-08-17T11:22:22Z</time>
      </trkpt>
      <trkpt lat="59.514499856471" lon="17.903045887422">
        <ele>18.6</ele>
        <time>2013-08-17T11:22:23Z</time>
      </trkpt>
      <trkpt lat="59.514512261683" lon="17.902882859467">
        <ele>18.2</ele>
        <time>2013-08-17T11:22:24Z</time>
      </trkpt>
      <trkpt lat="59.51452592418" lon="17.902743636108">
        <ele>17.8</ele>
        <time>2013-08-17T11:22:25Z</time>
      </trkpt>
      <trkpt lat="59.514548220034" lon="17.902515983704">
        <ele>17.8</ele>
        <time>2013-08-17T11:22:27Z</time>
      </trkpt>
      <trkpt lat="59.514566660214" lon="17.902440965699">
        <ele>17.4</ele>
        <time>2013-08-17T11:22:28Z</time>
      </trkpt>
      <trkpt lat="59.514592560285" lon="17.902399140018">
        <ele>16.8</ele>
        <time>2013-08-17T11:22:29Z</time>
      </trkpt>
      <trkpt lat="59.514619633822" lon="17.902362427296">
        <ele>16.4</ele>
        <time>2013-08-17T11:22:30Z</time>
      </trkpt>
      <trkpt lat="59.514646958816" lon="17.902326217488">
        <ele>15.8</ele>
        <time>2013-08-17T11:22:31Z</time>
      </trkpt>
      <trkpt lat="59.514680570235" lon="17.902288415119">
        <ele>15.4</ele>
        <time>2013-08-17T11:22:32Z</time>
      </trkpt>
      <trkpt lat="59.514736645146" lon="17.902293025164">
        <ele>15.4</ele>
        <time>2013-08-17T11:22:33Z</time>
      </trkpt>
      <trkpt lat="59.514790289306" lon="17.902271483681">
        <ele>15.4</ele>
        <time>2013-08-17T11:22:34Z</time>
      </trkpt>
      <trkpt lat="59.514980893712" lon="17.902027738029">
        <ele>15.4</ele>
        <time>2013-08-17T11:22:38Z</time>
      </trkpt>
      <trkpt lat="59.51503470551" lon="17.901789356793">
        <ele>15.4</ele>
        <time>2013-08-17T11:22:40Z</time>
      </trkpt>
      <trkpt lat="59.515113327732" lon="17.901436059708">
        <ele>14.8</ele>
        <time>2013-08-17T11:22:43Z</time>
      </trkpt>
      <trkpt lat="59.515133360473" lon="17.901322065868">
        <ele>14.4</ele>
        <time>2013-08-17T11:22:44Z</time>
      </trkpt>
      <trkpt lat="59.515142999658" lon="17.901212262978">
        <ele>14</ele>
        <time>2013-08-17T11:22:45Z</time>
      </trkpt>
      <trkpt lat="59.515129756256" lon="17.901118804793">
        <ele>13</ele>
        <time>2013-08-17T11:22:46Z</time>
      </trkpt>
      <trkpt lat="59.51512355365" lon="17.900728794986">
        <ele>13</ele>
        <time>2013-08-17T11:22:50Z</time>
      </trkpt>
      <trkpt lat="59.515140820364" lon="17.900639695389">
        <ele>13</ele>
        <time>2013-08-17T11:22:51Z</time>
      </trkpt>
      <trkpt lat="59.515216089826" lon="17.900155808302">
        <ele>13</ele>
        <time>2013-08-17T11:22:55Z</time>
      </trkpt>
      <trkpt lat="59.515240313517" lon="17.900010214699">
        <ele>12.4</ele>
        <time>2013-08-17T11:22:56Z</time>
      </trkpt>
      <trkpt lat="59.515259591887" lon="17.899867051847">
        <ele>11.8</ele>
        <time>2013-08-17T11:22:57Z</time>
      </trkpt>
      <trkpt lat="59.515262777009" lon="17.899731181248">
        <ele>11.2</ele>
        <time>2013-08-17T11:22:58Z</time>
      </trkpt>
      <trkpt lat="59.515256155308" lon="17.899617522684">
        <ele>10.6</ele>
        <time>2013-08-17T11:22:59Z</time>
      </trkpt>
      <trkpt lat="59.515252802548" lon="17.899527249621">
        <ele>10</ele>
        <time>2013-08-17T11:23:00Z</time>
      </trkpt>
      <trkpt lat="59.515265878312" lon="17.899455919652">
        <ele>9.2</ele>
        <time>2013-08-17T11:23:01Z</time>
      </trkpt>
      <trkpt lat="59.515291107831" lon="17.89942004512">
        <ele>8.6</ele>
        <time>2013-08-17T11:23:02Z</time>
      </trkpt>
      <trkpt lat="59.515333687883" lon="17.899419123111">
        <ele>8</ele>
        <time>2013-08-17T11:23:03Z</time>
      </trkpt>
      <trkpt lat="59.515378195772" lon="17.899444855544">
        <ele>7.2</ele>
        <time>2013-08-17T11:23:04Z</time>
      </trkpt>
      <trkpt lat="59.515421446376" lon="17.89948793851">
        <ele>7.2</ele>
        <time>2013-08-17T11:23:05Z</time>
      </trkpt>
      <trkpt lat="59.515629904229" lon="17.899691702499">
        <ele>7.2</ele>
        <time>2013-08-17T11:23:09Z</time>
      </trkpt>
      <trkpt lat="59.515962749478" lon="17.899887000769">
        <ele>7.2</ele>
        <time>2013-08-17T11:23:14Z</time>
      </trkpt>
      <trkpt lat="59.516265922801" lon="17.899995127279">
        <ele>7.2</ele>
        <time>2013-08-17T11:23:18Z</time>
      </trkpt>
      <trkpt lat="59.516410762033" lon="17.900102750875">
        <ele>7.2</ele>
        <time>2013-08-17T11:23:20Z</time>
      </trkpt>
      <trkpt lat="59.516929769281" lon="17.90050214841">
        <ele>6.8</ele>
        <time>2013-08-17T11:23:27Z</time>
      </trkpt>
      <trkpt lat="59.51700445201" lon="17.900559815882">
        <ele>6.4</ele>
        <time>2013-08-17T11:23:28Z</time>
      </trkpt>
      <trkpt lat="59.517077961273" lon="17.900613879137">
        <ele>6</ele>
        <time>2013-08-17T11:23:29Z</time>
      </trkpt>
      <trkpt lat="59.51715281164" lon="17.900662997071">
        <ele>5.6</ele>
        <time>2013-08-17T11:23:30Z</time>
      </trkpt>
      <trkpt lat="59.51722657236" lon="17.900708510788">
        <ele>5.2</ele>
        <time>2013-08-17T11:23:31Z</time>
      </trkpt>
      <trkpt lat="59.51751993886" lon="17.900881345566">
        <ele>5.2</ele>
        <time>2013-08-17T11:23:35Z</time>
      </trkpt>
      <trkpt lat="59.517804001451" lon="17.901029872834">
        <ele>5.2</ele>
        <time>2013-08-17T11:23:39Z</time>
      </trkpt>
      <trkpt lat="59.517875247601" lon="17.901003972763">
        <ele>5.2</ele>
        <time>2013-08-17T11:23:40Z</time>
      </trkpt>
      <trkpt lat="59.518035509529" lon="17.900739104723">
        <ele>5.2</ele>
        <time>2013-08-17T11:23:43Z</time>
      </trkpt>
      <trkpt lat="59.518115808131" lon="17.900349346373">
        <ele>5.2</ele>
        <time>2013-08-17T11:23:46Z</time>
      </trkpt>
      <trkpt lat="59.518135505596" lon="17.900216409439">
        <ele>5.2</ele>
        <time>2013-08-17T11:23:47Z</time>
      </trkpt>
      <trkpt lat="59.518260563544" lon="17.899462960448">
        <ele>5.2</ele>
        <time>2013-08-17T11:23:53Z</time>
      </trkpt>
      <trkpt lat="59.518304736157" lon="17.89938484114">
        <ele>5.2</ele>
        <time>2013-08-17T11:23:54Z</time>
      </trkpt>
      <trkpt lat="59.518421915119" lon="17.899352738463">
        <ele>4.6</ele>
        <time>2013-08-17T11:23:56Z</time>
      </trkpt>
      <trkpt lat="59.518485785197" lon="17.899385930787">
        <ele>4.2</ele>
        <time>2013-08-17T11:23:57Z</time>
      </trkpt>
      <trkpt lat="59.518553762406" lon="17.899429181391">
        <ele>3.8</ele>
        <time>2013-08-17T11:23:58Z</time>
      </trkpt>
      <trkpt lat="59.518616542837" lon="17.899469163054">
        <ele>3.4</ele>
        <time>2013-08-17T11:23:59Z</time>
      </trkpt>
      <trkpt lat="59.518680077639" lon="17.899507971251">
        <ele>3</ele>
        <time>2013-08-17T11:24:00Z</time>
      </trkpt>
      <trkpt lat="59.519094646413" lon="17.899678291459">
        <ele>3</ele>
        <time>2013-08-17T11:24:06Z</time>
      </trkpt>
      <trkpt lat="59.51928600519" lon="17.899659432184">
        <ele>3</ele>
        <time>2013-08-17T11:24:09Z</time>
      </trkpt>
      <trkpt lat="59.519464120565" lon="17.899762110459">
        <ele>3</ele>
        <time>2013-08-17T11:24:12Z</time>
      </trkpt>
      <trkpt lat="59.519584233192" lon="17.899834278618">
        <ele>3</ele>
        <time>2013-08-17T11:24:14Z</time>
      </trkpt>
      <trkpt lat="59.52002696515" lon="17.900163771107">
        <ele>3</ele>
        <time>2013-08-17T11:24:22Z</time>
      </trkpt>
      <trkpt lat="59.520176079151" lon="17.900288661417">
        <ele>3</ele>
        <time>2013-08-17T11:24:25Z</time>
      </trkpt>
      <trkpt lat="59.520263250911" lon="17.90048454642">
        <ele>3</ele>
        <time>2013-08-17T11:24:27Z</time>
      </trkpt>
      <trkpt lat="59.520262831816" lon="17.900745726424">
        <ele>3.4</ele>
        <time>2013-08-17T11:24:30Z</time>
      </trkpt>
      <trkpt lat="59.52023483627" lon="17.900776907092">
        <ele>3.8</ele>
        <time>2013-08-17T11:24:31Z</time>
      </trkpt>
      <trkpt lat="59.520193848779" lon="17.900762993138">
        <ele>4.2</ele>
        <time>2013-08-17T11:24:32Z</time>
      </trkpt>
      <trkpt lat="59.520150598175" lon="17.900758131636">
        <ele>4.6</ele>
        <time>2013-08-17T11:24:33Z</time>
      </trkpt>
      <trkpt lat="59.52010910777" lon="17.900741200198">
        <ele>5</ele>
        <time>2013-08-17T11:24:34Z</time>
      </trkpt>
      <trkpt lat="59.520064096967" lon="17.900705409485">
        <ele>5</ele>
        <time>2013-08-17T11:24:35Z</time>
      </trkpt>
      <trkpt lat="59.519930238024" lon="17.900604910504">
        <ele>5</ele>
        <time>2013-08-17T11:24:38Z</time>
      </trkpt>
      <trkpt lat="59.519746925871" lon="17.900310789633">
        <ele>5</ele>
        <time>2013-08-17T11:24:42Z</time>
      </trkpt>
      <trkpt lat="59.519751033002" lon="17.900303245923">
        <ele>5</ele>
        <time>2013-08-17T11:24:43Z</time>
      </trkpt>
      <trkpt lat="59.519845329377" lon="17.900189335902">
        <ele>5</ele>
        <time>2013-08-17T11:24:46Z</time>
      </trkpt>
      <trkpt lat="59.519894112035" lon="17.900166537134">
        <ele>5</ele>
        <time>2013-08-17T11:24:47Z</time>
      </trkpt>
      <trkpt lat="59.519940128666" lon="17.90014927042">
        <ele>5.4</ele>
        <time>2013-08-17T11:24:48Z</time>
      </trkpt>
      <trkpt lat="59.519988240772" lon="17.900156143578">
        <ele>6</ele>
        <time>2013-08-17T11:24:49Z</time>
      </trkpt>
      <trkpt lat="59.520028306254" lon="17.900133177172">
        <ele>6.8</ele>
        <time>2013-08-17T11:24:50Z</time>
      </trkpt>
      <trkpt lat="59.520045489149" lon="17.900005353197">
        <ele>7.2</ele>
        <time>2013-08-17T11:24:51Z</time>
      </trkpt>
      <trkpt lat="59.520059151646" lon="17.8998659622">
        <ele>7.8</ele>
        <time>2013-08-17T11:24:52Z</time>
      </trkpt>
      <trkpt lat="59.520067449727" lon="17.899750459618">
        <ele>8.2</ele>
        <time>2013-08-17T11:24:53Z</time>
      </trkpt>
      <trkpt lat="59.520079184387" lon="17.899643255117">
        <ele>8.8</ele>
        <time>2013-08-17T11:24:54Z</time>
      </trkpt>
      <trkpt lat="59.520091421961" lon="17.899535882978">
        <ele>9.2</ele>
        <time>2013-08-17T11:24:55Z</time>
      </trkpt>
      <trkpt lat="59.520107599028" lon="17.899431695961">
        <ele>9.8</ele>
        <time>2013-08-17T11:24:56Z</time>
      </trkpt>
      <trkpt lat="59.520242799075" lon="17.898494850998">
        <ele>9.8</ele>
        <time>2013-08-17T11:25:05Z</time>
      </trkpt>
      <trkpt lat="59.520325276971" lon="17.897922283409">
        <ele>10.2</ele>
        <time>2013-08-17T11:25:10Z</time>
      </trkpt>
      <trkpt lat="59.520339861477" lon="17.897808541026">
        <ele>10.6</ele>
        <time>2013-08-17T11:25:11Z</time>
      </trkpt>
      <trkpt lat="59.520350422671" lon="17.897692703168">
        <ele>11</ele>
        <time>2013-08-17T11:25:12Z</time>
      </trkpt>
      <trkpt lat="59.520365761548" lon="17.897580972441">
        <ele>11.4</ele>
        <time>2013-08-17T11:25:13Z</time>
      </trkpt>
      <trkpt lat="59.520381351882" lon="17.897475695777">
        <ele>11.8</ele>
        <time>2013-08-17T11:25:14Z</time>
      </trkpt>
      <trkpt lat="59.52039828332" lon="17.897367820724">
        <ele>11.8</ele>
        <time>2013-08-17T11:25:15Z</time>
      </trkpt>
      <trkpt lat="59.520454777326" lon="17.89696833937">
        <ele>11.8</ele>
        <time>2013-08-17T11:25:19Z</time>
      </trkpt>
      <trkpt lat="59.520492831152" lon="17.896665417504">
        <ele>11.8</ele>
        <time>2013-08-17T11:25:22Z</time>
      </trkpt>
      <trkpt lat="59.520525017648" lon="17.896173148517">
        <ele>11.8</ele>
        <time>2013-08-17T11:25:27Z</time>
      </trkpt>
      <trkpt lat="59.520526861666" lon="17.896104333118">
        <ele>12.2</ele>
        <time>2013-08-17T11:25:28Z</time>
      </trkpt>
      <trkpt lat="59.520528705684" lon="17.896036691185">
        <ele>12.8</ele>
        <time>2013-08-17T11:25:29Z</time>
      </trkpt>
      <trkpt lat="59.520531220254" lon="17.895968127243">
        <ele>13.2</ele>
        <time>2013-08-17T11:25:30Z</time>
      </trkpt>
      <trkpt lat="59.520535495023" lon="17.895890846125">
        <ele>13.8</ele>
        <time>2013-08-17T11:25:31Z</time>
      </trkpt>
      <trkpt lat="59.520541949086" lon="17.895813229731">
        <ele>14.2</ele>
        <time>2013-08-17T11:25:32Z</time>
      </trkpt>
      <trkpt lat="59.520554521936" lon="17.895654728002">
        <ele>14.2</ele>
        <time>2013-08-17T11:25:34Z</time>
      </trkpt>
      <trkpt lat="59.520606489716" lon="17.895094649444">
        <ele>14.2</ele>
        <time>2013-08-17T11:25:41Z</time>
      </trkpt>
      <trkpt lat="59.520639430583" lon="17.894694832814">
        <ele>14.6</ele>
        <time>2013-08-17T11:25:46Z</time>
      </trkpt>
      <trkpt lat="59.520647644845" lon="17.894616294411">
        <ele>15</ele>
        <time>2013-08-17T11:25:47Z</time>
      </trkpt>
      <trkpt lat="59.520651668157" lon="17.89453842656">
        <ele>15.6</ele>
        <time>2013-08-17T11:25:48Z</time>
      </trkpt>
      <trkpt lat="59.520652757804" lon="17.894462570365">
        <ele>16</ele>
        <time>2013-08-17T11:25:49Z</time>
      </trkpt>
      <trkpt lat="59.520657703125" lon="17.894394509337">
        <ele>16.4</ele>
        <time>2013-08-17T11:25:50Z</time>
      </trkpt>
      <trkpt lat="59.520683938472" lon="17.89434145191">
        <ele>16.4</ele>
        <time>2013-08-17T11:25:52Z</time>
      </trkpt>
      <trkpt lat="59.520787287299" lon="17.894402891237">
        <ele>16.4</ele>
        <time>2013-08-17T11:25:55Z</time>
      </trkpt>
      <trkpt lat="59.520824754392" lon="17.894446728574">
        <ele>16.4</ele>
        <time>2013-08-17T11:25:56Z</time>
      </trkpt>
      <trkpt lat="59.521049724588" lon="17.894734311563">
        <ele>16.4</ele>
        <time>2013-08-17T11:26:01Z</time>
      </trkpt>
      <trkpt lat="59.521368739702" lon="17.895066821536">
        <ele>16.4</ele>
        <time>2013-08-17T11:26:07Z</time>
      </trkpt>
      <trkpt lat="59.521827900184" lon="17.895310231912">
        <ele>16.4</ele>
        <time>2013-08-17T11:26:15Z</time>
      </trkpt>
      <trkpt lat="59.522223525864" lon="17.895340239114">
        <ele>16.4</ele>
        <time>2013-08-17T11:26:22Z</time>
      </trkpt>
      <trkpt lat="59.522623510132" lon="17.895237141744">
        <ele>16.4</ele>
        <time>2013-08-17T11:26:29Z</time>
      </trkpt>
      <trkpt lat="59.522679249767" lon="17.895207553637">
        <ele>16.8</ele>
        <time>2013-08-17T11:26:30Z</time>
      </trkpt>
      <trkpt lat="59.522734235031" lon="17.89517377458">
        <ele>17.2</ele>
        <time>2013-08-17T11:26:31Z</time>
      </trkpt>
      <trkpt lat="59.522789471752" lon="17.895141336627">
        <ele>17.6</ele>
        <time>2013-08-17T11:26:32Z</time>
      </trkpt>
      <trkpt lat="59.522839511695" lon="17.895105462095">
        <ele>18</ele>
        <time>2013-08-17T11:26:33Z</time>
      </trkpt>
      <trkpt lat="59.522889132543" lon="17.895070341934">
        <ele>18.4</ele>
        <time>2013-08-17T11:26:34Z</time>
      </trkpt>
      <trkpt lat="59.523036151069" lon="17.894946289814">
        <ele>18.4</ele>
        <time>2013-08-17T11:26:37Z</time>
      </trkpt>
      <trkpt lat="59.523191719133" lon="17.894811257405">
        <ele>18.4</ele>
        <time>2013-08-17T11:26:40Z</time>
      </trkpt>
      <trkpt lat="59.523333876157" lon="17.894624005759">
        <ele>18.8</ele>
        <time>2013-08-17T11:26:43Z</time>
      </trkpt>
      <trkpt lat="59.523377629675" lon="17.894553262523">
        <ele>19.2</ele>
        <time>2013-08-17T11:26:44Z</time>
      </trkpt>
      <trkpt lat="59.523417276062" lon="17.894480256174">
        <ele>19.8</ele>
        <time>2013-08-17T11:26:45Z</time>
      </trkpt>
      <trkpt lat="59.523458598829" lon="17.894405489626">
        <ele>20.2</ele>
        <time>2013-08-17T11:26:46Z</time>
      </trkpt>
      <trkpt lat="59.523500759786" lon="17.894330136345">
        <ele>20.6</ele>
        <time>2013-08-17T11:26:47Z</time>
      </trkpt>
      <trkpt lat="59.523580806931" lon="17.894160067594">
        <ele>20.6</ele>
        <time>2013-08-17T11:26:49Z</time>
      </trkpt>
      <trkpt lat="59.523671499089" lon="17.893907940042">
        <ele>20.6</ele>
        <time>2013-08-17T11:26:52Z</time>
      </trkpt>
      <trkpt lat="59.523706451612" lon="17.893722783871">
        <ele>20.6</ele>
        <time>2013-08-17T11:26:54Z</time>
      </trkpt>
      <trkpt lat="59.523786163481" lon="17.893557576622">
        <ele>20.6</ele>
        <time>2013-08-17T11:26:57Z</time>
      </trkpt>
      <trkpt lat="59.523829246447" lon="17.8935208639">
        <ele>20.6</ele>
        <time>2013-08-17T11:27:00Z</time>
      </trkpt>
      <trkpt lat="59.52383989146" lon="17.893506363213">
        <ele>21</ele>
        <time>2013-08-17T11:27:01Z</time>
      </trkpt>
      <trkpt lat="59.523848524817" lon="17.893483564445">
        <ele>21.4</ele>
        <time>2013-08-17T11:27:02Z</time>
      </trkpt>
      <trkpt lat="59.523860510934" lon="17.893453473424">
        <ele>21.8</ele>
        <time>2013-08-17T11:27:03Z</time>
      </trkpt>
      <trkpt lat="59.523873083784" lon="17.893407037698">
        <ele>22.2</ele>
        <time>2013-08-17T11:27:04Z</time>
      </trkpt>
      <trkpt lat="59.52388766829" lon="17.893354399366">
        <ele>22.6</ele>
        <time>2013-08-17T11:27:05Z</time>
      </trkpt>
      <trkpt lat="59.52396142901" lon="17.893088022584">
        <ele>22.6</ele>
        <time>2013-08-17T11:27:09Z</time>
      </trkpt>
      <trkpt lat="59.524083972388" lon="17.892572619553">
        <ele>22.6</ele>
        <time>2013-08-17T11:27:14Z</time>
      </trkpt>
      <trkpt lat="59.524136862177" lon="17.892431803633">
        <ele>22.6</ele>
        <time>2013-08-17T11:27:15Z</time>
      </trkpt>
      <trkpt lat="59.524186147749" lon="17.892274223913">
        <ele>22.2</ele>
        <time>2013-08-17T11:27:16Z</time>
      </trkpt>
      <trkpt lat="59.524234427493" lon="17.892128965586">
        <ele>21.8</ele>
        <time>2013-08-17T11:27:17Z</time>
      </trkpt>
      <trkpt lat="59.524278181011" lon="17.892000135783">
        <ele>20.6</ele>
        <time>2013-08-17T11:27:18Z</time>
      </trkpt>
      <trkpt lat="59.524317156846" lon="17.891896032585">
        <ele>20</ele>
        <time>2013-08-17T11:27:19Z</time>
      </trkpt>
      <trkpt lat="59.524349175704" lon="17.891789498636">
        <ele>19.2</ele>
        <time>2013-08-17T11:27:20Z</time>
      </trkpt>
      <trkpt lat="59.524385217874" lon="17.891690173121">
        <ele>18.4</ele>
        <time>2013-08-17T11:27:21Z</time>
      </trkpt>
      <trkpt lat="59.524421930596" lon="17.89158296862">
        <ele>17.8</ele>
        <time>2013-08-17T11:27:22Z</time>
      </trkpt>
      <trkpt lat="59.524577833936" lon="17.891079803163">
        <ele>17.8</ele>
        <time>2013-08-17T11:27:27Z</time>
      </trkpt>
      <trkpt lat="59.524755111121" lon="17.890546714323">
        <ele>17.8</ele>
        <time>2013-08-17T11:27:34Z</time>
      </trkpt>
      <trkpt lat="59.524848569306" lon="17.890438755451">
        <ele>18.2</ele>
        <time>2013-08-17T11:27:37Z</time>
      </trkpt>
      <trkpt lat="59.524878241232" lon="17.890417130149">
        <ele>18.6</ele>
        <time>2013-08-17T11:27:38Z</time>
      </trkpt>
      <trkpt lat="59.524905566226" lon="17.890407071869">
        <ele>19.2</ele>
        <time>2013-08-17T11:27:39Z</time>
      </trkpt>
      <trkpt lat="59.524936327799" lon="17.890401791272">
        <ele>19.6</ele>
        <time>2013-08-17T11:27:40Z</time>
      </trkpt>
      <trkpt lat="59.524967424648" lon="17.890394918114">
        <ele>20</ele>
        <time>2013-08-17T11:27:41Z</time>
      </trkpt>
      <trkpt lat="59.525027941966" lon="17.890389050784">
        <ele>20</ele>
        <time>2013-08-17T11:27:43Z</time>
      </trkpt>
      <trkpt lat="59.525129446775" lon="17.890368263672">
        <ele>20.6</ele>
        <time>2013-08-17T11:27:46Z</time>
      </trkpt>
      <trkpt lat="59.525163561108" lon="17.890361809609">
        <ele>21</ele>
        <time>2013-08-17T11:27:47Z</time>
      </trkpt>
      <trkpt lat="59.525197172527" lon="17.890349236759">
        <ele>21.4</ele>
        <time>2013-08-17T11:27:48Z</time>
      </trkpt>
      <trkpt lat="59.525231538317" lon="17.890341106316">
        <ele>21.8</ele>
        <time>2013-08-17T11:27:49Z</time>
      </trkpt>
      <trkpt lat="59.52526649084" lon="17.890338591746">
        <ele>22.2</ele>
        <time>2013-08-17T11:27:50Z</time>
      </trkpt>
      <trkpt lat="59.525447036966" lon="17.890321660308">
        <ele>22.2</ele>
        <time>2013-08-17T11:27:55Z</time>
      </trkpt>
      <trkpt lat="59.525636803182" lon="17.890241696982">
        <ele>22.6</ele>
        <time>2013-08-17T11:28:00Z</time>
      </trkpt>
      <trkpt lat="59.52567301299" lon="17.890204481346">
        <ele>23</ele>
        <time>2013-08-17T11:28:01Z</time>
      </trkpt>
      <trkpt lat="59.525705367124" lon="17.890158632353">
        <ele>23.6</ele>
        <time>2013-08-17T11:28:02Z</time>
      </trkpt>
      <trkpt lat="59.525731853928" lon="17.890104150003">
        <ele>24</ele>
        <time>2013-08-17T11:28:03Z</time>
      </trkpt>
      <trkpt lat="59.525752557221" lon="17.890044722332">
        <ele>24.4</ele>
        <time>2013-08-17T11:28:04Z</time>
      </trkpt>
      <trkpt lat="59.525786084821" lon="17.889911114846">
        <ele>24.4</ele>
        <time>2013-08-17T11:28:06Z</time>
      </trkpt>
      <trkpt lat="59.525811062883" lon="17.889703662821">
        <ele>24.8</ele>
        <time>2013-08-17T11:28:09Z</time>
      </trkpt>
      <trkpt lat="59.525810392331" lon="17.889637445811">
        <ele>25.2</ele>
        <time>2013-08-17T11:28:10Z</time>
      </trkpt>
      <trkpt lat="59.525807793942" lon="17.889572821362">
        <ele>25.8</ele>
        <time>2013-08-17T11:28:11Z</time>
      </trkpt>
      <trkpt lat="59.525799244404" lon="17.88950844837">
        <ele>26.2</ele>
        <time>2013-08-17T11:28:12Z</time>
      </trkpt>
      <trkpt lat="59.525783989346" lon="17.889453211649">
        <ele>26.6</ele>
        <time>2013-08-17T11:28:13Z</time>
      </trkpt>
      <trkpt lat="59.525718861983" lon="17.889299236146">
        <ele>26.6</ele>
        <time>2013-08-17T11:28:16Z</time>
      </trkpt>
      <trkpt lat="59.525644179254" lon="17.889141404969">
        <ele>27</ele>
        <time>2013-08-17T11:28:19Z</time>
      </trkpt>
      <trkpt lat="59.525616518984" lon="17.889087928447">
        <ele>27.4</ele>
        <time>2013-08-17T11:28:20Z</time>
      </trkpt>
      <trkpt lat="59.525590618913" lon="17.889031602079">
        <ele>27.8</ele>
        <time>2013-08-17T11:28:21Z</time>
      </trkpt>
      <trkpt lat="59.525563964471" lon="17.888981394498">
        <ele>28.2</ele>
        <time>2013-08-17T11:28:22Z</time>
      </trkpt>
      <trkpt lat="59.525544686101" lon="17.888938311532">
        <ele>28.6</ele>
        <time>2013-08-17T11:28:23Z</time>
      </trkpt>
      <trkpt lat="59.525528676672" lon="17.888898581326">
        <ele>28.6</ele>
        <time>2013-08-17T11:28:24Z</time>
      </trkpt>
      <trkpt lat="59.525491712493" lon="17.888776624681">
        <ele>29.2</ele>
        <time>2013-08-17T11:28:27Z</time>
      </trkpt>
      <trkpt lat="59.525479977833" lon="17.888729686041">
        <ele>29.6</ele>
        <time>2013-08-17T11:28:28Z</time>
      </trkpt>
      <trkpt lat="59.525475116331" lon="17.888670928922">
        <ele>30</ele>
        <time>2013-08-17T11:28:29Z</time>
      </trkpt>
      <trkpt lat="59.525476541254" lon="17.888602448799">
        <ele>30.4</ele>
        <time>2013-08-17T11:28:30Z</time>
      </trkpt>
      <trkpt lat="59.525477798539" lon="17.888534974504">
        <ele>30.8</ele>
        <time>2013-08-17T11:28:31Z</time>
      </trkpt>
      <trkpt lat="59.525525407731" lon="17.888305980996">
        <ele>30.8</ele>
        <time>2013-08-17T11:28:35Z</time>
      </trkpt>
      <trkpt lat="59.525599755184" lon="17.888157118452">
        <ele>30.8</ele>
        <time>2013-08-17T11:28:40Z</time>
      </trkpt>
      <trkpt lat="59.525733697946" lon="17.88782201009">
        <ele>31.4</ele>
        <time>2013-08-17T11:28:45Z</time>
      </trkpt>
      <trkpt lat="59.525752305764" lon="17.887745650981">
        <ele>31.8</ele>
        <time>2013-08-17T11:28:46Z</time>
      </trkpt>
      <trkpt lat="59.525767141727" lon="17.887661580524">
        <ele>32.2</ele>
        <time>2013-08-17T11:28:47Z</time>
      </trkpt>
      <trkpt lat="59.525776780912" lon="17.887580695189">
        <ele>32.8</ele>
        <time>2013-08-17T11:28:48Z</time>
      </trkpt>
      <trkpt lat="59.525789102305" lon="17.88750517427">
        <ele>33.2</ele>
        <time>2013-08-17T11:28:49Z</time>
      </trkpt>
      <trkpt lat="59.525830760348" lon="17.887000667709">
        <ele>33.6</ele>
        <time>2013-08-17T11:28:55Z</time>
      </trkpt>
      <trkpt lat="59.525833526375" lon="17.886927158446">
        <ele>34.4</ele>
        <time>2013-08-17T11:28:56Z</time>
      </trkpt>
      <trkpt lat="59.525841572999" lon="17.886845937835">
        <ele>34.8</ele>
        <time>2013-08-17T11:28:57Z</time>
      </trkpt>
      <trkpt lat="59.525850541632" lon="17.886771925658">
        <ele>35.2</ele>
        <time>2013-08-17T11:28:58Z</time>
      </trkpt>
      <trkpt lat="59.525903347602" lon="17.886189299789">
        <ele>35.6</ele>
        <time>2013-08-17T11:29:06Z</time>
      </trkpt>
      <trkpt lat="59.525913322063" lon="17.886117047811">
        <ele>36</ele>
        <time>2013-08-17T11:29:07Z</time>
      </trkpt>
      <trkpt lat="59.525922458334" lon="17.886045634023">
        <ele>36.4</ele>
        <time>2013-08-17T11:29:08Z</time>
      </trkpt>
      <trkpt lat="59.525928158026" lon="17.885976734805">
        <ele>37</ele>
        <time>2013-08-17T11:29:09Z</time>
      </trkpt>
      <trkpt lat="59.525934192994" lon="17.885910350157">
        <ele>37.4</ele>
        <time>2013-08-17T11:29:10Z</time>
      </trkpt>
      <trkpt lat="59.525971911544" lon="17.885707089082">
        <ele>37.4</ele>
        <time>2013-08-17T11:29:13Z</time>
      </trkpt>
      <trkpt lat="59.526087414126" lon="17.885485890741">
        <ele>37.4</ele>
        <time>2013-08-17T11:29:18Z</time>
      </trkpt>
      <trkpt lat="59.526224122915" lon="17.88533426217">
        <ele>37.4</ele>
        <time>2013-08-17T11:29:22Z</time>
      </trkpt>
      <trkpt lat="59.526327890837" lon="17.885253712111">
        <ele>37.4</ele>
        <time>2013-08-17T11:29:24Z</time>
      </trkpt>
      <trkpt lat="59.526700298654" lon="17.88499144246">
        <ele>37.4</ele>
        <time>2013-08-17T11:29:31Z</time>
      </trkpt>
      <trkpt lat="59.526740112679" lon="17.884935367549">
        <ele>37.8</ele>
        <time>2013-08-17T11:29:32Z</time>
      </trkpt>
      <trkpt lat="59.526773807917" lon="17.884873844403">
        <ele>38.2</ele>
        <time>2013-08-17T11:29:33Z</time>
      </trkpt>
      <trkpt lat="59.526808089888" lon="17.884805699556">
        <ele>38.6</ele>
        <time>2013-08-17T11:29:34Z</time>
      </trkpt>
      <trkpt lat="59.526836755986" lon="17.884736045967">
        <ele>39</ele>
        <time>2013-08-17T11:29:35Z</time>
      </trkpt>
      <trkpt lat="59.52685989003" lon="17.884661949971">
        <ele>39.4</ele>
        <time>2013-08-17T11:29:36Z</time>
      </trkpt>
      <trkpt lat="59.526904817014" lon="17.884500849853">
        <ele>39.4</ele>
        <time>2013-08-17T11:29:38Z</time>
      </trkpt>
      <trkpt lat="59.526947397066" lon="17.884320974279">
        <ele>39.4</ele>
        <time>2013-08-17T11:29:40Z</time>
      </trkpt>
      <trkpt lat="59.526978829191" lon="17.884130034597">
        <ele>39.4</ele>
        <time>2013-08-17T11:29:42Z</time>
      </trkpt>
      <trkpt lat="59.527034987921" lon="17.883232249288">
        <ele>39.4</ele>
        <time>2013-08-17T11:29:51Z</time>
      </trkpt>
      <trkpt lat="59.527022163614" lon="17.883124374235">
        <ele>39.4</ele>
        <time>2013-08-17T11:29:52Z</time>
      </trkpt>
      <trkpt lat="59.526949911636" lon="17.882727407451">
        <ele>39.4</ele>
        <time>2013-08-17T11:29:56Z</time>
      </trkpt>
      <trkpt lat="59.526790823174" lon="17.882164395228">
        <ele>39.4</ele>
        <time>2013-08-17T11:30:02Z</time>
      </trkpt>
      <trkpt lat="59.526762240895" lon="17.882065991722">
        <ele>39.4</ele>
        <time>2013-08-17T11:30:03Z</time>
      </trkpt>
      <trkpt lat="59.526700131016" lon="17.881861976276">
        <ele>39</ele>
        <time>2013-08-17T11:30:05Z</time>
      </trkpt>
      <trkpt lat="59.526668363615" lon="17.881753430671">
        <ele>38.4</ele>
        <time>2013-08-17T11:30:06Z</time>
      </trkpt>
      <trkpt lat="59.526647576503" lon="17.881622002479">
        <ele>38</ele>
        <time>2013-08-17T11:30:07Z</time>
      </trkpt>
      <trkpt lat="59.52664363701" lon="17.881476325057">
        <ele>37.6</ele>
        <time>2013-08-17T11:30:08Z</time>
      </trkpt>
      <trkpt lat="59.526655539308" lon="17.881321343726">
        <ele>37.2</ele>
        <time>2013-08-17T11:30:09Z</time>
      </trkpt>
      <trkpt lat="59.526681271741" lon="17.88118522167">
        <ele>36.6</ele>
        <time>2013-08-17T11:30:10Z</time>
      </trkpt>
      <trkpt lat="59.526714464065" lon="17.881059325532">
        <ele>36.2</ele>
        <time>2013-08-17T11:30:11Z</time>
      </trkpt>
      <trkpt lat="59.526748913674" lon="17.880940805466">
        <ele>35.6</ele>
        <time>2013-08-17T11:30:12Z</time>
      </trkpt>
      <trkpt lat="59.526786213129" lon="17.880817340079">
        <ele>35.2</ele>
        <time>2013-08-17T11:30:13Z</time>
      </trkpt>
      <trkpt lat="59.526821752385" lon="17.880690941027">
        <ele>34.6</ele>
        <time>2013-08-17T11:30:14Z</time>
      </trkpt>
      <trkpt lat="59.526847400999" lon="17.880550544202">
        <ele>34.6</ele>
        <time>2013-08-17T11:30:15Z</time>
      </trkpt>
      <trkpt lat="59.526864416256" lon="17.880397239251">
        <ele>34.6</ele>
        <time>2013-08-17T11:30:16Z</time>
      </trkpt>
      <trkpt lat="59.526858297469" lon="17.880087360408">
        <ele>34.2</ele>
        <time>2013-08-17T11:30:18Z</time>
      </trkpt>
      <trkpt lat="59.526839102918" lon="17.879933720181">
        <ele>33.8</ele>
        <time>2013-08-17T11:30:19Z</time>
      </trkpt>
      <trkpt lat="59.526812280838" lon="17.879778571212">
        <ele>33.4</ele>
        <time>2013-08-17T11:30:20Z</time>
      </trkpt>
      <trkpt lat="59.526782189817" lon="17.879624930985">
        <ele>33</ele>
        <time>2013-08-17T11:30:21Z</time>
      </trkpt>
      <trkpt lat="59.526739106851" lon="17.879473302414">
        <ele>32.6</ele>
        <time>2013-08-17T11:30:22Z</time>
      </trkpt>
      <trkpt lat="59.526672470746" lon="17.879174068584">
        <ele>32.6</ele>
        <time>2013-08-17T11:30:24Z</time>
      </trkpt>
      <trkpt lat="59.52659166923" lon="17.878638884269">
        <ele>32.6</ele>
        <time>2013-08-17T11:30:28Z</time>
      </trkpt>
      <trkpt lat="59.52658831647" lon="17.878483483843">
        <ele>32.6</ele>
        <time>2013-08-17T11:30:29Z</time>
      </trkpt>
      <trkpt lat="59.526607846297" lon="17.878146699101">
        <ele>32</ele>
        <time>2013-08-17T11:30:31Z</time>
      </trkpt>
      <trkpt lat="59.526629303961" lon="17.877972355581">
        <ele>31.6</ele>
        <time>2013-08-17T11:30:32Z</time>
      </trkpt>
      <trkpt lat="59.526648414693" lon="17.877812931843">
        <ele>31</ele>
        <time>2013-08-17T11:30:33Z</time>
      </trkpt>
      <trkpt lat="59.52666291538" lon="17.877656190313">
        <ele>30.6</ele>
        <time>2013-08-17T11:30:34Z</time>
      </trkpt>
      <trkpt lat="59.526676074963" lon="17.877499784059">
        <ele>30</ele>
        <time>2013-08-17T11:30:35Z</time>
      </trkpt>
      <trkpt lat="59.526754194271" lon="17.876769972026">
        <ele>29.6</ele>
        <time>2013-08-17T11:30:40Z</time>
      </trkpt>
      <trkpt lat="59.526769114053" lon="17.876635945445">
        <ele>29.2</ele>
        <time>2013-08-17T11:30:41Z</time>
      </trkpt>
      <trkpt lat="59.526785542577" lon="17.876507870013">
        <ele>28.8</ele>
        <time>2013-08-17T11:30:42Z</time>
      </trkpt>
      <trkpt lat="59.526803228386" lon="17.876378872572">
        <ele>28.4</ele>
        <time>2013-08-17T11:30:43Z</time>
      </trkpt>
      <trkpt lat="59.526820578919" lon="17.876252138244">
        <ele>28</ele>
        <time>2013-08-17T11:30:44Z</time>
      </trkpt>
      <trkpt lat="59.526847903913" lon="17.875986348195">
        <ele>28</ele>
        <time>2013-08-17T11:30:46Z</time>
      </trkpt>
      <trkpt lat="59.526955778966" lon="17.875035673097">
        <ele>28</ele>
        <time>2013-08-17T11:30:53Z</time>
      </trkpt>
      <trkpt lat="59.52702836622" lon="17.874301586295">
        <ele>28</ele>
        <time>2013-08-17T11:30:59Z</time>
      </trkpt>
      <trkpt lat="59.527045213839" lon="17.873750308732">
        <ele>28</ele>
        <time>2013-08-17T11:31:04Z</time>
      </trkpt>
      <trkpt lat="59.527011183325" lon="17.873338841261">
        <ele>28</ele>
        <time>2013-08-17T11:31:09Z</time>
      </trkpt>
      <trkpt lat="59.526997520828" lon="17.873181093903">
        <ele>28.4</ele>
        <time>2013-08-17T11:31:11Z</time>
      </trkpt>
      <trkpt lat="59.526998778113" lon="17.873117810558">
        <ele>28.8</ele>
        <time>2013-08-17T11:31:12Z</time>
      </trkpt>
      <trkpt lat="59.527004813081" lon="17.873057544697">
        <ele>29.2</ele>
        <time>2013-08-17T11:31:13Z</time>
      </trkpt>
      <trkpt lat="59.527012356791" lon="17.87300113451">
        <ele>29.8</ele>
        <time>2013-08-17T11:31:14Z</time>
      </trkpt>
      <trkpt lat="59.527020403415" lon="17.872941958296">
        <ele>30.2</ele>
        <time>2013-08-17T11:31:15Z</time>
      </trkpt>
      <trkpt lat="59.527044962382" lon="17.872815978339">
        <ele>30.6</ele>
        <time>2013-08-17T11:31:17Z</time>
      </trkpt>
      <trkpt lat="59.527055439757" lon="17.872742888171">
        <ele>31</ele>
        <time>2013-08-17T11:31:18Z</time>
      </trkpt>
      <trkpt lat="59.527071365367" lon="17.872678934274">
        <ele>31.4</ele>
        <time>2013-08-17T11:31:19Z</time>
      </trkpt>
      <trkpt lat="59.527090476099" lon="17.872616656757">
        <ele>31.8</ele>
        <time>2013-08-17T11:31:20Z</time>
      </trkpt>
      <trkpt lat="59.527110676478" lon="17.8725493501">
        <ele>32.2</ele>
        <time>2013-08-17T11:31:21Z</time>
      </trkpt>
      <trkpt lat="59.527194746935" lon="17.872288421553">
        <ele>32.2</ele>
        <time>2013-08-17T11:31:26Z</time>
      </trkpt>
      <trkpt lat="59.527271357501" lon="17.872040317313">
        <ele>32.6</ele>
        <time>2013-08-17T11:31:30Z</time>
      </trkpt>
      <trkpt lat="59.527293485717" lon="17.871978794167">
        <ele>33</ele>
        <time>2013-08-17T11:31:31Z</time>
      </trkpt>
      <trkpt lat="59.527317374132" lon="17.871909056759">
        <ele>33.4</ele>
        <time>2013-08-17T11:31:32Z</time>
      </trkpt>
      <trkpt lat="59.527336317226" lon="17.871847868889">
        <ele>34</ele>
        <time>2013-08-17T11:31:33Z</time>
      </trkpt>
      <trkpt lat="59.527357188157" lon="17.871789530865">
        <ele>34.4</ele>
        <time>2013-08-17T11:31:34Z</time>
      </trkpt>
      <trkpt lat="59.527466069038" lon="17.871480322574">
        <ele>34.4</ele>
        <time>2013-08-17T11:31:39Z</time>
      </trkpt>
      <trkpt lat="59.527493477851" lon="17.871358198291">
        <ele>34.8</ele>
        <time>2013-08-17T11:31:41Z</time>
      </trkpt>
      <trkpt lat="59.527505799244" lon="17.871305979054">
        <ele>35.2</ele>
        <time>2013-08-17T11:31:42Z</time>
      </trkpt>
      <trkpt lat="59.527515689886" lon="17.871257028758">
        <ele>35.6</ele>
        <time>2013-08-17T11:31:43Z</time>
      </trkpt>
      <trkpt lat="59.527524490881" lon="17.871201792037">
        <ele>36</ele>
        <time>2013-08-17T11:31:44Z</time>
      </trkpt>
      <trkpt lat="59.527529855297" lon="17.871132892819">
        <ele>36.4</ele>
        <time>2013-08-17T11:31:45Z</time>
      </trkpt>
      <trkpt lat="59.527531950772" lon="17.870969864864">
        <ele>36.4</ele>
        <time>2013-08-17T11:31:47Z</time>
      </trkpt>
      <trkpt lat="59.527499512819" lon="17.87077322549">
        <ele>36.4</ele>
        <time>2013-08-17T11:31:49Z</time>
      </trkpt>
      <trkpt lat="59.527357691071" lon="17.870158329306">
        <ele>36.4</ele>
        <time>2013-08-17T11:31:56Z</time>
      </trkpt>
      <trkpt lat="59.527224251223" lon="17.869605962096">
        <ele>36.4</ele>
        <time>2013-08-17T11:32:01Z</time>
      </trkpt>
      <trkpt lat="59.527184688655" lon="17.869491130066">
        <ele>36.4</ele>
        <time>2013-08-17T11:32:02Z</time>
      </trkpt>
      <trkpt lat="59.527087961529" lon="17.869259286712">
        <ele>36</ele>
        <time>2013-08-17T11:32:04Z</time>
      </trkpt>
      <trkpt lat="59.527039178871" lon="17.869148477994">
        <ele>35.6</ele>
        <time>2013-08-17T11:32:05Z</time>
      </trkpt>
      <trkpt lat="59.526988300738" lon="17.869045464443">
        <ele>35.2</ele>
        <time>2013-08-17T11:32:06Z</time>
      </trkpt>
      <trkpt lat="59.526937338786" lon="17.868942953806">
        <ele>34.8</ele>
        <time>2013-08-17T11:32:07Z</time>
      </trkpt>
      <trkpt lat="59.526880258047" lon="17.868851842553">
        <ele>34.4</ele>
        <time>2013-08-17T11:32:08Z</time>
      </trkpt>
      <trkpt lat="59.526768443501" lon="17.868699208154">
        <ele>34.4</ele>
        <time>2013-08-17T11:32:10Z</time>
      </trkpt>
      <trkpt lat="59.526660316991" lon="17.868517488562">
        <ele>34</ele>
        <time>2013-08-17T11:32:12Z</time>
      </trkpt>
      <trkpt lat="59.526609941772" lon="17.868416319029">
        <ele>33.6</ele>
        <time>2013-08-17T11:32:13Z</time>
      </trkpt>
      <trkpt lat="59.526557806354" lon="17.868311880555">
        <ele>32.8</ele>
        <time>2013-08-17T11:32:14Z</time>
      </trkpt>
      <trkpt lat="59.526508101687" lon="17.868189588634">
        <ele>32.4</ele>
        <time>2013-08-17T11:32:15Z</time>
      </trkpt>
      <trkpt lat="59.526369800337" lon="17.867837465015">
        <ele>32</ele>
        <time>2013-08-17T11:32:18Z</time>
      </trkpt>
      <trkpt lat="59.526333255253" lon="17.867712826162">
        <ele>31.4</ele>
        <time>2013-08-17T11:32:19Z</time>
      </trkpt>
      <trkpt lat="59.526297380721" lon="17.867587935852">
        <ele>31</ele>
        <time>2013-08-17T11:32:20Z</time>
      </trkpt>
      <trkpt lat="59.526264272216" lon="17.867464302827">
        <ele>30.6</ele>
        <time>2013-08-17T11:32:21Z</time>
      </trkpt>
      <trkpt lat="59.526235103204" lon="17.86733161735">
        <ele>30.2</ele>
        <time>2013-08-17T11:32:22Z</time>
      </trkpt>
      <trkpt lat="59.526175675533" lon="17.866901793518">
        <ele>30.2</ele>
        <time>2013-08-17T11:32:25Z</time>
      </trkpt>
      <trkpt lat="59.526167880366" lon="17.866761396693">
        <ele>30.2</ele>
        <time>2013-08-17T11:32:26Z</time>
      </trkpt>
      <trkpt lat="59.526170311117" lon="17.866324867341">
        <ele>30.2</ele>
        <time>2013-08-17T11:32:29Z</time>
      </trkpt>
      <trkpt lat="59.526256896144" lon="17.865469410627">
        <ele>30.2</ele>
        <time>2013-08-17T11:32:35Z</time>
      </trkpt>
      <trkpt lat="59.526305678802" lon="17.864606410203">
        <ele>30.2</ele>
        <time>2013-08-17T11:32:41Z</time>
      </trkpt>
      <trkpt lat="59.526357059849" lon="17.863905515725">
        <ele>30.2</ele>
        <time>2013-08-17T11:32:47Z</time>
      </trkpt>
      <trkpt lat="59.526391760915" lon="17.863717090613">
        <ele>30.2</ele>
        <time>2013-08-17T11:32:49Z</time>
      </trkpt>
      <trkpt lat="59.526423612135" lon="17.863540903075">
        <ele>30.2</ele>
        <time>2013-08-17T11:32:51Z</time>
      </trkpt>
      <trkpt lat="59.526433670415" lon="17.863469321649">
        <ele>30.2</ele>
        <time>2013-08-17T11:32:52Z</time>
      </trkpt>
      <trkpt lat="59.526427803085" lon="17.863260444701">
        <ele>30.6</ele>
        <time>2013-08-17T11:32:56Z</time>
      </trkpt>
      <trkpt lat="59.526423276859" lon="17.863217445554">
        <ele>31.2</ele>
        <time>2013-08-17T11:32:57Z</time>
      </trkpt>
      <trkpt lat="59.526416571339" lon="17.863172686208">
        <ele>31.6</ele>
        <time>2013-08-17T11:32:58Z</time>
      </trkpt>
      <trkpt lat="59.526409195267" lon="17.863124322645">
        <ele>32</ele>
        <time>2013-08-17T11:32:59Z</time>
      </trkpt>
      <trkpt lat="59.526393940209" lon="17.863081574955">
        <ele>32.4</ele>
        <time>2013-08-17T11:33:00Z</time>
      </trkpt>
      <trkpt lat="59.526349599958" lon="17.862979148137">
        <ele>32.4</ele>
        <time>2013-08-17T11:33:02Z</time>
      </trkpt>
      <trkpt lat="59.526330573045" lon="17.86293195804">
        <ele>33.4</ele>
        <time>2013-08-17T11:33:03Z</time>
      </trkpt>
      <trkpt lat="59.526307606639" lon="17.862885941409">
        <ele>33.8</ele>
        <time>2013-08-17T11:33:04Z</time>
      </trkpt>
      <trkpt lat="59.526284472595" lon="17.862845289194">
        <ele>34.4</ele>
        <time>2013-08-17T11:33:05Z</time>
      </trkpt>
      <trkpt lat="59.526257901972" lon="17.862801284219">
        <ele>34.8</ele>
        <time>2013-08-17T11:33:06Z</time>
      </trkpt>
      <trkpt lat="59.526214819006" lon="17.862718387228">
        <ele>35.2</ele>
        <time>2013-08-17T11:33:08Z</time>
      </trkpt>
      <trkpt lat="59.526191265867" lon="17.862671113312">
        <ele>35.6</ele>
        <time>2013-08-17T11:33:09Z</time>
      </trkpt>
      <trkpt lat="59.526165365796" lon="17.862628952355">
        <ele>36</ele>
        <time>2013-08-17T11:33:10Z</time>
      </trkpt>
      <trkpt lat="59.526139381906" lon="17.86258662376">
        <ele>36.4</ele>
        <time>2013-08-17T11:33:11Z</time>
      </trkpt>
      <trkpt lat="59.526117421328" lon="17.862542954061">
        <ele>36.8</ele>
        <time>2013-08-17T11:33:12Z</time>
      </trkpt>
      <trkpt lat="59.5260828879" lon="17.862440359605">
        <ele>36.8</ele>
        <time>2013-08-17T11:33:14Z</time>
      </trkpt>
      <trkpt lat="59.526009378637" lon="17.862062084458">
        <ele>36.8</ele>
        <time>2013-08-17T11:33:20Z</time>
      </trkpt>
      <trkpt lat="59.525942826351" lon="17.861423299859">
        <ele>36.8</ele>
        <time>2013-08-17T11:33:27Z</time>
      </trkpt>
      <trkpt lat="59.525944418912" lon="17.86133017695">
        <ele>36.8</ele>
        <time>2013-08-17T11:33:28Z</time>
      </trkpt>
      <trkpt lat="59.525974007019" lon="17.861061704693">
        <ele>36.8</ele>
        <time>2013-08-17T11:33:31Z</time>
      </trkpt>
      <trkpt lat="59.525989178258" lon="17.860967073042">
        <ele>36.8</ele>
        <time>2013-08-17T11:33:32Z</time>
      </trkpt>
      <trkpt lat="59.526017173804" lon="17.860755094791">
        <ele>36.8</ele>
        <time>2013-08-17T11:33:34Z</time>
      </trkpt>
      <trkpt lat="59.526045839902" lon="17.860520233953">
        <ele>36.8</ele>
        <time>2013-08-17T11:33:36Z</time>
      </trkpt>
      <trkpt lat="59.526052126327" lon="17.860278835233">
        <ele>36.8</ele>
        <time>2013-08-17T11:33:38Z</time>
      </trkpt>
      <trkpt lat="59.526041481314" lon="17.860169199981">
        <ele>36.8</ele>
        <time>2013-08-17T11:33:39Z</time>
      </trkpt>
      <trkpt lat="59.526021951487" lon="17.860073813959">
        <ele>36.8</ele>
        <time>2013-08-17T11:33:40Z</time>
      </trkpt>
      <trkpt lat="59.525896474444" lon="17.859730156059">
        <ele>36.8</ele>
        <time>2013-08-17T11:33:44Z</time>
      </trkpt>
      <trkpt lat="59.525674102637" lon="17.859249118818">
        <ele>36.8</ele>
        <time>2013-08-17T11:33:50Z</time>
      </trkpt>
      <trkpt lat="59.525452233744" lon="17.858691890106">
        <ele>36.8</ele>
        <time>2013-08-17T11:33:56Z</time>
      </trkpt>
      <trkpt lat="59.525390626779" lon="17.858500112234">
        <ele>36.8</ele>
        <time>2013-08-17T11:33:58Z</time>
      </trkpt>
      <trkpt lat="59.525362212138" lon="17.858311687122">
        <ele>36.8</ele>
        <time>2013-08-17T11:34:00Z</time>
      </trkpt>
      <trkpt lat="59.525406887665" lon="17.857940620409">
        <ele>36.8</ele>
        <time>2013-08-17T11:34:04Z</time>
      </trkpt>
      <trkpt lat="59.525426082216" lon="17.857854454477">
        <ele>36.8</ele>
        <time>2013-08-17T11:34:05Z</time>
      </trkpt>
      <trkpt lat="59.525456508513" lon="17.857684804821">
        <ele>36.8</ele>
        <time>2013-08-17T11:34:07Z</time>
      </trkpt>
      <trkpt lat="59.525486683353" lon="17.857384481344">
        <ele>36.8</ele>
        <time>2013-08-17T11:34:10Z</time>
      </trkpt>
      <trkpt lat="59.525554492924" lon="17.856789953177">
        <ele>36.8</ele>
        <time>2013-08-17T11:34:16Z</time>
      </trkpt>
      <trkpt lat="59.52557829752" lon="17.856588619939">
        <ele>36.8</ele>
        <time>2013-08-17T11:34:18Z</time>
      </trkpt>
      <trkpt lat="59.525688687143" lon="17.855926617477">
        <ele>36.8</ele>
        <time>2013-08-17T11:34:25Z</time>
      </trkpt>
      <trkpt lat="59.52564451453" lon="17.855441305467">
        <ele>36.8</ele>
        <time>2013-08-17T11:34:30Z</time>
      </trkpt>
      <trkpt lat="59.5256218834" lon="17.85523988841">
        <ele>36.8</ele>
        <time>2013-08-17T11:34:32Z</time>
      </trkpt>
      <trkpt lat="59.52564451453" lon="17.85495825657">
        <ele>36.8</ele>
        <time>2013-08-17T11:34:35Z</time>
      </trkpt>
      <trkpt lat="59.525654991905" lon="17.854867061498">
        <ele>36.8</ele>
        <time>2013-08-17T11:34:36Z</time>
      </trkpt>
      <trkpt lat="59.525696147034" lon="17.854509070549">
        <ele>37.2</ele>
        <time>2013-08-17T11:34:40Z</time>
      </trkpt>
      <trkpt lat="59.525701762907" lon="17.854416450554">
        <ele>37.8</ele>
        <time>2013-08-17T11:34:41Z</time>
      </trkpt>
      <trkpt lat="59.525709977169" lon="17.854320477799">
        <ele>38.6</ele>
        <time>2013-08-17T11:34:42Z</time>
      </trkpt>
      <trkpt lat="59.525712324101" lon="17.854218721533">
        <ele>39</ele>
        <time>2013-08-17T11:34:43Z</time>
      </trkpt>
      <trkpt lat="59.525702852554" lon="17.853816809428">
        <ele>39</ele>
        <time>2013-08-17T11:34:47Z</time>
      </trkpt>
      <trkpt lat="59.525693800102" lon="17.853191519688">
        <ele>39</ele>
        <time>2013-08-17T11:34:53Z</time>
      </trkpt>
      <trkpt lat="59.525749958832" lon="17.852482494767">
        <ele>39</ele>
        <time>2013-08-17T11:35:00Z</time>
      </trkpt>
      <trkpt lat="59.525738810905" lon="17.852080666481">
        <ele>39.4</ele>
        <time>2013-08-17T11:35:05Z</time>
      </trkpt>
      <trkpt lat="59.525719197259" lon="17.852001708983">
        <ele>40.2</ele>
        <time>2013-08-17T11:35:06Z</time>
      </trkpt>
      <trkpt lat="59.525698493966" lon="17.851920488372">
        <ele>40.6</ele>
        <time>2013-08-17T11:35:07Z</time>
      </trkpt>
      <trkpt lat="59.525670749877" lon="17.851857707941">
        <ele>41</ele>
        <time>2013-08-17T11:35:08Z</time>
      </trkpt>
      <trkpt lat="59.525609645826" lon="17.851710773234">
        <ele>41</ele>
        <time>2013-08-17T11:35:10Z</time>
      </trkpt>
      <trkpt lat="59.525549044689" lon="17.851579093585">
        <ele>41</ele>
        <time>2013-08-17T11:35:12Z</time>
      </trkpt>
      <trkpt lat="59.525394901548" lon="17.851316069563">
        <ele>41</ele>
        <time>2013-08-17T11:35:16Z</time>
      </trkpt>
      <trkpt lat="59.525314016213" lon="17.851200566981">
        <ele>41</ele>
        <time>2013-08-17T11:35:18Z</time>
      </trkpt>
      <trkpt lat="59.525228017919" lon="17.851098056344">
        <ele>41</ele>
        <time>2013-08-17T11:35:20Z</time>
      </trkpt>
      <trkpt lat="59.525133134811" lon="17.851040137415">
        <ele>41</ele>
        <time>2013-08-17T11:35:22Z</time>
      </trkpt>
      <trkpt lat="59.52503934135" lon="17.851035359732">
        <ele>41</ele>
        <time>2013-08-17T11:35:24Z</time>
      </trkpt>
      <trkpt lat="59.524888131874" lon="17.851047094392">
        <ele>41</ele>
        <time>2013-08-17T11:35:27Z</time>
      </trkpt>
      <trkpt lat="59.524778831898" lon="17.851039131587">
        <ele>41</ele>
        <time>2013-08-17T11:35:29Z</time>
      </trkpt>
      <trkpt lat="59.524658048719" lon="17.85107156954">
        <ele>40.6</ele>
        <time>2013-08-17T11:35:31Z</time>
      </trkpt>
      <trkpt lat="59.52458923332" lon="17.851094703584">
        <ele>40.2</ele>
        <time>2013-08-17T11:35:32Z</time>
      </trkpt>
      <trkpt lat="59.524521759025" lon="17.851112389393">
        <ele>39.6</ele>
        <time>2013-08-17T11:35:33Z</time>
      </trkpt>
      <trkpt lat="59.524456966938" lon="17.851113227583">
        <ele>39.2</ele>
        <time>2013-08-17T11:35:34Z</time>
      </trkpt>
      <trkpt lat="59.52439225867" lon="17.851108533719">
        <ele>38.6</ele>
        <time>2013-08-17T11:35:35Z</time>
      </trkpt>
      <trkpt lat="59.524250688379" lon="17.851055979206">
        <ele>38.6</ele>
        <time>2013-08-17T11:35:37Z</time>
      </trkpt>
      <trkpt lat="59.524180783333" lon="17.851018595932">
        <ele>38.6</ele>
        <time>2013-08-17T11:35:38Z</time>
      </trkpt>
      <trkpt lat="59.5241131414" lon="17.850986409436">
        <ele>38.2</ele>
        <time>2013-08-17T11:35:39Z</time>
      </trkpt>
      <trkpt lat="59.524048097856" lon="17.85095087018">
        <ele>37.8</ele>
        <time>2013-08-17T11:35:40Z</time>
      </trkpt>
      <trkpt lat="59.523983641045" lon="17.850909044499">
        <ele>37.4</ele>
        <time>2013-08-17T11:35:41Z</time>
      </trkpt>
      <trkpt lat="59.52392454865" lon="17.85087040394">
        <ele>37</ele>
        <time>2013-08-17T11:35:42Z</time>
      </trkpt>
      <trkpt lat="59.52386671354" lon="17.850809970441">
        <ele>36.6</ele>
        <time>2013-08-17T11:35:43Z</time>
      </trkpt>
      <trkpt lat="59.52380887843" lon="17.850754398444">
        <ele>36.6</ele>
        <time>2013-08-17T11:35:44Z</time>
      </trkpt>
      <trkpt lat="59.52348198433" lon="17.850517777407">
        <ele>36.6</ele>
        <time>2013-08-17T11:35:50Z</time>
      </trkpt>
      <trkpt lat="59.523376959123" lon="17.850483830712">
        <ele>36.6</ele>
        <time>2013-08-17T11:35:52Z</time>
      </trkpt>
      <trkpt lat="59.523272688287" lon="17.850470335853">
        <ele>36.6</ele>
        <time>2013-08-17T11:35:54Z</time>
      </trkpt>
      <trkpt lat="59.523213176797" lon="17.85048232197">
        <ele>36.6</ele>
        <time>2013-08-17T11:35:55Z</time>
      </trkpt>
      <trkpt lat="59.522825094827" lon="17.850609810669">
        <ele>36.6</ele>
        <time>2013-08-17T11:36:01Z</time>
      </trkpt>
      <trkpt lat="59.522524268436" lon="17.850774431185">
        <ele>36.2</ele>
        <time>2013-08-17T11:36:06Z</time>
      </trkpt>
      <trkpt lat="59.522472133018" lon="17.850798571057">
        <ele>35.6</ele>
        <time>2013-08-17T11:36:07Z</time>
      </trkpt>
      <trkpt lat="59.5224283795" lon="17.850806450043">
        <ele>35.2</ele>
        <time>2013-08-17T11:36:08Z</time>
      </trkpt>
      <trkpt lat="59.522382111412" lon="17.8507815558">
        <ele>34.6</ele>
        <time>2013-08-17T11:36:09Z</time>
      </trkpt>
      <trkpt lat="59.522344728138" lon="17.850732270228">
        <ele>33.8</ele>
        <time>2013-08-17T11:36:10Z</time>
      </trkpt>
      <trkpt lat="59.522310362348" lon="17.850664795933">
        <ele>33.2</ele>
        <time>2013-08-17T11:36:11Z</time>
      </trkpt>
      <trkpt lat="59.52228085806" lon="17.850594974706">
        <ele>32.6</ele>
        <time>2013-08-17T11:36:12Z</time>
      </trkpt>
      <trkpt lat="59.522249928849" lon="17.850505623652">
        <ele>31.8</ele>
        <time>2013-08-17T11:36:13Z</time>
      </trkpt>
      <trkpt lat="59.522222017122" lon="17.850417362245">
        <ele>31.8</ele>
        <time>2013-08-17T11:36:14Z</time>
      </trkpt>
      <trkpt lat="59.522194273033" lon="17.850329519933">
        <ele>31.8</ele>
        <time>2013-08-17T11:36:15Z</time>
      </trkpt>
      <trkpt lat="59.522106598359" lon="17.84994252761">
        <ele>31.4</ele>
        <time>2013-08-17T11:36:19Z</time>
      </trkpt>
      <trkpt lat="59.522086984713" lon="17.849826438295">
        <ele>30.4</ele>
        <time>2013-08-17T11:36:20Z</time>
      </trkpt>
      <trkpt lat="59.522068712171" lon="17.849729124436">
        <ele>30</ele>
        <time>2013-08-17T11:36:21Z</time>
      </trkpt>
      <trkpt lat="59.522052954199" lon="17.849627116713">
        <ele>29.6</ele>
        <time>2013-08-17T11:36:22Z</time>
      </trkpt>
      <trkpt lat="59.522018756047" lon="17.849413462082">
        <ele>29</ele>
        <time>2013-08-17T11:36:24Z</time>
      </trkpt>
      <trkpt lat="59.522000567324" lon="17.849302904821">
        <ele>28.4</ele>
        <time>2013-08-17T11:36:25Z</time>
      </trkpt>
      <trkpt lat="59.521990173768" lon="17.849187150782">
        <ele>28</ele>
        <time>2013-08-17T11:36:26Z</time>
      </trkpt>
      <trkpt lat="59.52198916794" lon="17.849071061467">
        <ele>27.2</ele>
        <time>2013-08-17T11:36:27Z</time>
      </trkpt>
      <trkpt lat="59.521988665026" lon="17.848957905817">
        <ele>26.4</ele>
        <time>2013-08-17T11:36:28Z</time>
      </trkpt>
      <trkpt lat="59.521992939795" lon="17.848842989968">
        <ele>25.6</ele>
        <time>2013-08-17T11:36:29Z</time>
      </trkpt>
      <trkpt lat="59.521999561496" lon="17.848732097431">
        <ele>25</ele>
        <time>2013-08-17T11:36:30Z</time>
      </trkpt>
      <trkpt lat="59.522012469622" lon="17.848623970921">
        <ele>24.2</ele>
        <time>2013-08-17T11:36:31Z</time>
      </trkpt>
      <trkpt lat="59.52201682821" lon="17.848504277389">
        <ele>23.4</ele>
        <time>2013-08-17T11:36:32Z</time>
      </trkpt>
      <trkpt lat="59.522020013332" lon="17.848365556944">
        <ele>22.8</ele>
        <time>2013-08-17T11:36:33Z</time>
      </trkpt>
      <trkpt lat="59.522022779359" lon="17.848232117096">
        <ele>22</ele>
        <time>2013-08-17T11:36:34Z</time>
      </trkpt>
      <trkpt lat="59.522026299757" lon="17.848099766895">
        <ele>21.4</ele>
        <time>2013-08-17T11:36:35Z</time>
      </trkpt>
      <trkpt lat="59.52203023925" lon="17.847970350359">
        <ele>20.6</ele>
        <time>2013-08-17T11:36:36Z</time>
      </trkpt>
      <trkpt lat="59.522032167087" lon="17.847846298239">
        <ele>19.6</ele>
        <time>2013-08-17T11:36:37Z</time>
      </trkpt>
      <trkpt lat="59.522033089096" lon="17.847732891132">
        <ele>18.8</ele>
        <time>2013-08-17T11:36:38Z</time>
      </trkpt>
      <trkpt lat="59.522035436028" lon="17.847630883409">
        <ele>18</ele>
        <time>2013-08-17T11:36:39Z</time>
      </trkpt>
      <trkpt lat="59.522040129892" lon="17.847531306437">
        <ele>17.2</ele>
        <time>2013-08-17T11:36:40Z</time>
      </trkpt>
      <trkpt lat="59.522040381349" lon="17.847450421102">
        <ele>16.2</ele>
        <time>2013-08-17T11:36:41Z</time>
      </trkpt>
      <trkpt lat="59.522038537331" lon="17.847378336762">
        <ele>15.4</ele>
        <time>2013-08-17T11:36:42Z</time>
      </trkpt>
      <trkpt lat="59.52203945934" lon="17.847316897435">
        <ele>14.4</ele>
        <time>2013-08-17T11:36:43Z</time>
      </trkpt>
      <trkpt lat="59.522043398833" lon="17.847254033185">
        <ele>13.6</ele>
        <time>2013-08-17T11:36:44Z</time>
      </trkpt>
      <trkpt lat="59.522042644462" lon="17.847193683505">
        <ele>12</ele>
        <time>2013-08-17T11:36:45Z</time>
      </trkpt>
      <trkpt lat="59.522032586182" lon="17.847143392105">
        <ele>11.2</ele>
        <time>2013-08-17T11:36:46Z</time>
      </trkpt>
      <trkpt lat="59.522015235649" lon="17.847084718805">
        <ele>10.4</ele>
        <time>2013-08-17T11:36:47Z</time>
      </trkpt>
      <trkpt lat="59.521998555668" lon="17.84703819926">
        <ele>9.8</ele>
        <time>2013-08-17T11:36:48Z</time>
      </trkpt>
      <trkpt lat="59.521983803524" lon="17.847003498194">
        <ele>9.2</ele>
        <time>2013-08-17T11:36:49Z</time>
      </trkpt>
      <trkpt lat="59.521968632285" lon="17.84698036415">
        <ele>8.6</ele>
        <time>2013-08-17T11:36:50Z</time>
      </trkpt>
      <trkpt lat="59.521950695019" lon="17.84697114406">
        <ele>8.2</ele>
        <time>2013-08-17T11:36:51Z</time>
      </trkpt>
      <trkpt lat="59.52192630369" lon="17.846960499047">
        <ele>7.6</ele>
        <time>2013-08-17T11:36:52Z</time>
      </trkpt>
      <trkpt lat="59.521893279004" lon="17.846973993906">
        <ele>7.6</ele>
        <time>2013-08-17T11:36:53Z</time>
      </trkpt>
      <trkpt lat="59.521764616839" lon="17.84703652288">
        <ele>7.6</ele>
        <time>2013-08-17T11:36:56Z</time>
      </trkpt>
      <trkpt lat="59.521729664316" lon="17.847079773484">
        <ele>7.6</ele>
        <time>2013-08-17T11:36:57Z</time>
      </trkpt>
      <trkpt lat="59.521620531978" lon="17.847325530792">
        <ele>7.6</ele>
        <time>2013-08-17T11:37:01Z</time>
      </trkpt>
      <trkpt lat="59.521586752921" lon="17.847393675639">
        <ele>7.6</ele>
        <time>2013-08-17T11:37:02Z</time>
      </trkpt>
      <trkpt lat="59.521514836219" lon="17.847542035269">
        <ele>7.6</ele>
        <time>2013-08-17T11:37:04Z</time>
      </trkpt>
      <trkpt lat="59.521361698906" lon="17.847840430909">
        <ele>7.2</ele>
        <time>2013-08-17T11:37:08Z</time>
      </trkpt>
      <trkpt lat="59.521325572917" lon="17.847913437258">
        <ele>6.4</ele>
        <time>2013-08-17T11:37:09Z</time>
      </trkpt>
      <trkpt lat="59.521289195471" lon="17.847985605417">
        <ele>5.8</ele>
        <time>2013-08-17T11:37:10Z</time>
      </trkpt>
      <trkpt lat="59.521254745862" lon="17.848063557087">
        <ele>5.4</ele>
        <time>2013-08-17T11:37:11Z</time>
      </trkpt>
      <trkpt lat="59.521058944678" lon="17.848456332921">
        <ele>5.4</ele>
        <time>2013-08-17T11:37:16Z</time>
      </trkpt>
      <trkpt lat="59.520798854321" lon="17.848938208352">
        <ele>5.4</ele>
        <time>2013-08-17T11:37:23Z</time>
      </trkpt>
      <trkpt lat="59.520560389266" lon="17.849354788782">
        <ele>5.4</ele>
        <time>2013-08-17T11:37:29Z</time>
      </trkpt>
      <trkpt lat="59.520269788793" lon="17.849795928179">
        <ele>5</ele>
        <time>2013-08-17T11:37:35Z</time>
      </trkpt>
      <trkpt lat="59.520216982823" lon="17.849871616736">
        <ele>4.6</ele>
        <time>2013-08-17T11:37:36Z</time>
      </trkpt>
      <trkpt lat="59.520165182681" lon="17.849947472931">
        <ele>4.2</ele>
        <time>2013-08-17T11:37:37Z</time>
      </trkpt>
      <trkpt lat="59.520114220729" lon="17.850016036873">
        <ele>3.6</ele>
        <time>2013-08-17T11:37:38Z</time>
      </trkpt>
      <trkpt lat="59.520064935157" lon="17.850073871983">
        <ele>3.2</ele>
        <time>2013-08-17T11:37:39Z</time>
      </trkpt>
      <trkpt lat="59.519936021535" lon="17.850201109225">
        <ele>3.2</ele>
        <time>2013-08-17T11:37:42Z</time>
      </trkpt>
      <trkpt lat="59.519663945061" lon="17.850428761629">
        <ele>3.2</ele>
        <time>2013-08-17T11:37:48Z</time>
      </trkpt>
      <trkpt lat="59.519274019073" lon="17.850695138411">
        <ele>3.2</ele>
        <time>2013-08-17T11:37:55Z</time>
      </trkpt>
      <trkpt lat="59.51899599145" lon="17.850771748977">
        <ele>3.2</ele>
        <time>2013-08-17T11:38:00Z</time>
      </trkpt>
      <trkpt lat="59.518694326869" lon="17.850854562149">
        <ele>3.2</ele>
        <time>2013-08-17T11:38:07Z</time>
      </trkpt>
      <trkpt lat="59.51848385736" lon="17.851016249">
        <ele>3.2</ele>
        <time>2013-08-17T11:38:13Z</time>
      </trkpt>
      <trkpt lat="59.518403726396" lon="17.85112353732">
        <ele>3.2</ele>
        <time>2013-08-17T11:38:18Z</time>
      </trkpt>
      <trkpt lat="59.518381095266" lon="17.851117167076">
        <ele>3.2</ele>
        <time>2013-08-17T11:38:20Z</time>
      </trkpt>
      <trkpt lat="59.518356620118" lon="17.851123956415">
        <ele>3.2</ele>
        <time>2013-08-17T11:38:22Z</time>
      </trkpt>
      <trkpt lat="59.518282021208" lon="17.851284302162">
        <ele>3.2</ele>
        <time>2013-08-17T11:38:30Z</time>
      </trkpt>
      <trkpt lat="59.518113880294" lon="17.851339119788">
        <ele>3.2</ele>
        <time>2013-08-17T11:38:35Z</time>
      </trkpt>
      <trkpt lat="59.518076329382" lon="17.851361834737">
        <ele>3.2</ele>
        <time>2013-08-17T11:38:36Z</time>
      </trkpt>
      <trkpt lat="59.517943140991" lon="17.85146132789">
        <ele>3.2</ele>
        <time>2013-08-17T11:38:39Z</time>
      </trkpt>
      <trkpt lat="59.517859824905" lon="17.851545565985">
        <ele>3.2</ele>
        <time>2013-08-17T11:38:41Z</time>
      </trkpt>
      <trkpt lat="59.517684810833" lon="17.851742037721">
        <ele>3.2</ele>
        <time>2013-08-17T11:38:45Z</time>
      </trkpt>
      <trkpt lat="59.51756603931" lon="17.851907496427">
        <ele>3.2</ele>
        <time>2013-08-17T11:38:48Z</time>
      </trkpt>
      <trkpt lat="59.517434024385" lon="17.852113691167">
        <ele>3.6</ele>
        <time>2013-08-17T11:38:52Z</time>
      </trkpt>
      <trkpt lat="59.517400412966" lon="17.852168927888">
        <ele>4.2</ele>
        <time>2013-08-17T11:38:53Z</time>
      </trkpt>
      <trkpt lat="59.517369399936" lon="17.852221314763">
        <ele>4.6</ele>
        <time>2013-08-17T11:38:54Z</time>
      </trkpt>
      <trkpt lat="59.517337632535" lon="17.852278395502">
        <ele>5</ele>
        <time>2013-08-17T11:38:55Z</time>
      </trkpt>
      <trkpt lat="59.517307792971" lon="17.85233723644">
        <ele>5.4</ele>
        <time>2013-08-17T11:38:56Z</time>
      </trkpt>
      <trkpt lat="59.517176700055" lon="17.852674440277">
        <ele>5.4</ele>
        <time>2013-08-17T11:39:01Z</time>
      </trkpt>
      <trkpt lat="59.517092126684" lon="17.852918605024">
        <ele>6</ele>
        <time>2013-08-17T11:39:05Z</time>
      </trkpt>
      <trkpt lat="59.517071842486" lon="17.852976691591">
        <ele>6.4</ele>
        <time>2013-08-17T11:39:06Z</time>
      </trkpt>
      <trkpt lat="59.517046277691" lon="17.853025474249">
        <ele>6.8</ele>
        <time>2013-08-17T11:39:07Z</time>
      </trkpt>
      <trkpt lat="59.51701953943" lon="17.853069479224">
        <ele>7.2</ele>
        <time>2013-08-17T11:39:08Z</time>
      </trkpt>
      <trkpt lat="59.516996321567" lon="17.853118764796">
        <ele>7.6</ele>
        <time>2013-08-17T11:39:09Z</time>
      </trkpt>
      <trkpt lat="59.516781409651" lon="17.853468290026">
        <ele>7.6</ele>
        <time>2013-08-17T11:39:16Z</time>
      </trkpt>
      <trkpt lat="59.516528863004" lon="17.853682699028">
        <ele>7.6</ele>
        <time>2013-08-17T11:39:22Z</time>
      </trkpt>
      <trkpt lat="59.51638335322" lon="17.85364984198">
        <ele>7.6</ele>
        <time>2013-08-17T11:39:26Z</time>
      </trkpt>
      <trkpt lat="59.516337671865" lon="17.853395199858">
        <ele>7.6</ele>
        <time>2013-08-17T11:39:29Z</time>
      </trkpt>
      <trkpt lat="59.516216888686" lon="17.853031173941">
        <ele>7.6</ele>
        <time>2013-08-17T11:39:33Z</time>
      </trkpt>
      <trkpt lat="59.516171710245" lon="17.852940649421">
        <ele>7.6</ele>
        <time>2013-08-17T11:39:34Z</time>
      </trkpt>
      <trkpt lat="59.516123095225" lon="17.852852388014">
        <ele>7.2</ele>
        <time>2013-08-17T11:39:35Z</time>
      </trkpt>
      <trkpt lat="59.516071211264" lon="17.85276303696">
        <ele>6.8</ele>
        <time>2013-08-17T11:39:36Z</time>
      </trkpt>
      <trkpt lat="59.516021422778" lon="17.852664465816">
        <ele>6.4</ele>
        <time>2013-08-17T11:39:37Z</time>
      </trkpt>
      <trkpt lat="59.515966437514" lon="17.852563128645">
        <ele>5.6</ele>
        <time>2013-08-17T11:39:38Z</time>
      </trkpt>
      <trkpt lat="59.515749346304" lon="17.852158953427">
        <ele>5.2</ele>
        <time>2013-08-17T11:39:42Z</time>
      </trkpt>
      <trkpt lat="59.515696121239" lon="17.852068428907">
        <ele>4.6</ele>
        <time>2013-08-17T11:39:43Z</time>
      </trkpt>
      <trkpt lat="59.515645662201" lon="17.851975222179">
        <ele>4</ele>
        <time>2013-08-17T11:39:44Z</time>
      </trkpt>
      <trkpt lat="59.515594700249" lon="17.851881847813">
        <ele>3.6</ele>
        <time>2013-08-17T11:39:45Z</time>
      </trkpt>
      <trkpt lat="59.515542816288" lon="17.851775146226">
        <ele>3</ele>
        <time>2013-08-17T11:39:46Z</time>
      </trkpt>
      <trkpt lat="59.515497218752" lon="17.851673976693">
        <ele>3</ele>
        <time>2013-08-17T11:39:47Z</time>
      </trkpt>
      <trkpt lat="59.515405520766" lon="17.851484126658">
        <ele>3</ele>
        <time>2013-08-17T11:39:49Z</time>
      </trkpt>
      <trkpt lat="59.515227656848" lon="17.851155639997">
        <ele>3</ele>
        <time>2013-08-17T11:39:53Z</time>
      </trkpt>
      <trkpt lat="59.515022551755" lon="17.850739730119">
        <ele>2.6</ele>
        <time>2013-08-17T11:39:58Z</time>
      </trkpt>
      <trkpt lat="59.514977960047" lon="17.850661946087">
        <ele>2.2</ele>
        <time>2013-08-17T11:39:59Z</time>
      </trkpt>
      <trkpt lat="59.514932949244" lon="17.850580557838">
        <ele>1.8</ele>
        <time>2013-08-17T11:40:00Z</time>
      </trkpt>
      <trkpt lat="59.514883244577" lon="17.850492464069">
        <ele>1.4</ele>
        <time>2013-08-17T11:40:01Z</time>
      </trkpt>
      <trkpt lat="59.514833875186" lon="17.850405627585">
        <ele>1</ele>
        <time>2013-08-17T11:40:02Z</time>
      </trkpt>
      <trkpt lat="59.514597086511" lon="17.849952250614">
        <ele>1</ele>
        <time>2013-08-17T11:40:07Z</time>
      </trkpt>
      <trkpt lat="59.514374966161" lon="17.849342718846">
        <ele>1</ele>
        <time>2013-08-17T11:40:13Z</time>
      </trkpt>
      <trkpt lat="59.514210848559" lon="17.848698905107">
        <ele>1</ele>
        <time>2013-08-17T11:40:19Z</time>
      </trkpt>
      <trkpt lat="59.514080510014" lon="17.84823094363">
        <ele>1</ele>
        <time>2013-08-17T11:40:24Z</time>
      </trkpt>
      <trkpt lat="59.514061483101" lon="17.848133629771">
        <ele>1</ele>
        <time>2013-08-17T11:40:25Z</time>
      </trkpt>
      <trkpt lat="59.514024099827" lon="17.847878652373">
        <ele>1</ele>
        <time>2013-08-17T11:40:28Z</time>
      </trkpt>
      <trkpt lat="59.51401379009" lon="17.847794833373">
        <ele>1</ele>
        <time>2013-08-17T11:40:29Z</time>
      </trkpt>
      <trkpt lat="59.514003480353" lon="17.847559888716">
        <ele>1</ele>
        <time>2013-08-17T11:40:32Z</time>
      </trkpt>
      <trkpt lat="59.514008174217" lon="17.847352017596">
        <ele>1</ele>
        <time>2013-08-17T11:40:34Z</time>
      </trkpt>
      <trkpt lat="59.51399954086" lon="17.846558586942">
        <ele>1</ele>
        <time>2013-08-17T11:40:41Z</time>
      </trkpt>
      <trkpt lat="59.514001049602" lon="17.846336215135">
        <ele>1</ele>
        <time>2013-08-17T11:40:43Z</time>
      </trkpt>
      <trkpt lat="59.514002558344" lon="17.846012422338">
        <ele>1</ele>
        <time>2013-08-17T11:40:46Z</time>
      </trkpt>
      <trkpt lat="59.514034158107" lon="17.845432813953">
        <ele>1</ele>
        <time>2013-08-17T11:40:51Z</time>
      </trkpt>
      <trkpt lat="59.514060141997" lon="17.84532745347">
        <ele>1</ele>
        <time>2013-08-17T11:40:52Z</time>
      </trkpt>
      <trkpt lat="59.514163407005" lon="17.845038194101">
        <ele>1</ele>
        <time>2013-08-17T11:40:55Z</time>
      </trkpt>
      <trkpt lat="59.514204813591" lon="17.84494020969">
        <ele>1</ele>
        <time>2013-08-17T11:40:56Z</time>
      </trkpt>
      <trkpt lat="59.514512177864" lon="17.84419673516">
        <ele>1</ele>
        <time>2013-08-17T11:41:04Z</time>
      </trkpt>
      <trkpt lat="59.514535311908" lon="17.844084585338">
        <ele>1</ele>
        <time>2013-08-17T11:41:05Z</time>
      </trkpt>
      <trkpt lat="59.514539083763" lon="17.843861375341">
        <ele>1</ele>
        <time>2013-08-17T11:41:07Z</time>
      </trkpt>
      <trkpt lat="59.514479320816" lon="17.843521489296">
        <ele>1</ele>
        <time>2013-08-17T11:41:11Z</time>
      </trkpt>
      <trkpt lat="59.514453672202" lon="17.843362400834">
        <ele>1.4</ele>
        <time>2013-08-17T11:41:13Z</time>
      </trkpt>
      <trkpt lat="59.514450738537" lon="17.843294591263">
        <ele>1.8</ele>
        <time>2013-08-17T11:41:14Z</time>
      </trkpt>
      <trkpt lat="59.514456605867" lon="17.843230218271">
        <ele>2.6</ele>
        <time>2013-08-17T11:41:15Z</time>
      </trkpt>
      <trkpt lat="59.514467502337" lon="17.843177244663">
        <ele>3</ele>
        <time>2013-08-17T11:41:16Z</time>
      </trkpt>
      <trkpt lat="59.514519134841" lon="17.843003236419">
        <ele>3.4</ele>
        <time>2013-08-17T11:41:20Z</time>
      </trkpt>
      <trkpt lat="59.514539251401" lon="17.842954789037">
        <ele>3.8</ele>
        <time>2013-08-17T11:41:21Z</time>
      </trkpt>
      <trkpt lat="59.514557691581" lon="17.842893182072">
        <ele>4.4</ele>
        <time>2013-08-17T11:41:22Z</time>
      </trkpt>
      <trkpt lat="59.514578227236" lon="17.84283467641">
        <ele>4.8</ele>
        <time>2013-08-17T11:41:23Z</time>
      </trkpt>
      <trkpt lat="59.514595074855" lon="17.842782540992">
        <ele>5.2</ele>
        <time>2013-08-17T11:41:24Z</time>
      </trkpt>
      <trkpt lat="59.514643941332" lon="17.842612136965">
        <ele>5.2</ele>
        <time>2013-08-17T11:41:27Z</time>
      </trkpt>
      <trkpt lat="59.514679899683" lon="17.842517672952">
        <ele>5.6</ele>
        <time>2013-08-17T11:41:29Z</time>
      </trkpt>
      <trkpt lat="59.514694819465" lon="17.842466040448">
        <ele>6</ele>
        <time>2013-08-17T11:41:30Z</time>
      </trkpt>
      <trkpt lat="59.514714097835" lon="17.842413150659">
        <ele>6.4</ele>
        <time>2013-08-17T11:41:31Z</time>
      </trkpt>
      <trkpt lat="59.51472457521" lon="17.842362440164">
        <ele>6.8</ele>
        <time>2013-08-17T11:41:32Z</time>
      </trkpt>
      <trkpt lat="59.514743769761" lon="17.842302509579">
        <ele>7.2</ele>
        <time>2013-08-17T11:41:33Z</time>
      </trkpt>
      <trkpt lat="59.514811327875" lon="17.842091704794">
        <ele>7.2</ele>
        <time>2013-08-17T11:41:37Z</time>
      </trkpt>
      <trkpt lat="59.514901768576" lon="17.841822897261">
        <ele>7.6</ele>
        <time>2013-08-17T11:41:42Z</time>
      </trkpt>
      <trkpt lat="59.514912078313" lon="17.841769085463">
        <ele>8</ele>
        <time>2013-08-17T11:41:43Z</time>
      </trkpt>
      <trkpt lat="59.514923310059" lon="17.841718374968">
        <ele>8.4</ele>
        <time>2013-08-17T11:41:44Z</time>
      </trkpt>
      <trkpt lat="59.514934541805" lon="17.841662635333">
        <ele>8.8</ele>
        <time>2013-08-17T11:41:45Z</time>
      </trkpt>
      <trkpt lat="59.514945941189" lon="17.841604464947">
        <ele>9.2</ele>
        <time>2013-08-17T11:41:46Z</time>
      </trkpt>
      <trkpt lat="59.514979636427" lon="17.841408496125">
        <ele>9.2</ele>
        <time>2013-08-17T11:41:50Z</time>
      </trkpt>
      <trkpt lat="59.514988856517" lon="17.841339177812">
        <ele>9.6</ele>
        <time>2013-08-17T11:41:51Z</time>
      </trkpt>
      <trkpt lat="59.51499614877" lon="17.841274301906">
        <ele>10.2</ele>
        <time>2013-08-17T11:41:52Z</time>
      </trkpt>
      <trkpt lat="59.515004363032" lon="17.841201379376">
        <ele>10.6</ele>
        <time>2013-08-17T11:41:53Z</time>
      </trkpt>
      <trkpt lat="59.51501710352" lon="17.841129965588">
        <ele>11</ele>
        <time>2013-08-17T11:41:54Z</time>
      </trkpt>
      <trkpt lat="59.515028419085" lon="17.841050840452">
        <ele>11.4</ele>
        <time>2013-08-17T11:41:55Z</time>
      </trkpt>
      <trkpt lat="59.515040153745" lon="17.840970206574">
        <ele>11.4</ele>
        <time>2013-08-17T11:41:56Z</time>
      </trkpt>
      <trkpt lat="59.515124475659" lon="17.840366374498">
        <ele>11.4</ele>
        <time>2013-08-17T11:42:03Z</time>
      </trkpt>
      <trkpt lat="59.515222208613" lon="17.839701270733">
        <ele>11.4</ele>
        <time>2013-08-17T11:42:10Z</time>
      </trkpt>
      <trkpt lat="59.515247270494" lon="17.839481497315">
        <ele>11.8</ele>
        <time>2013-08-17T11:42:13Z</time>
      </trkpt>
      <trkpt lat="59.515259759525" lon="17.839402791274">
        <ele>12.2</ele>
        <time>2013-08-17T11:42:14Z</time>
      </trkpt>
      <trkpt lat="59.515274763126" lon="17.839323247043">
        <ele>12.6</ele>
        <time>2013-08-17T11:42:15Z</time>
      </trkpt>
      <trkpt lat="59.515286078691" lon="17.839238673672">
        <ele>13</ele>
        <time>2013-08-17T11:42:16Z</time>
      </trkpt>
      <trkpt lat="59.515298148627" lon="17.83915502231">
        <ele>13.4</ele>
        <time>2013-08-17T11:42:17Z</time>
      </trkpt>
      <trkpt lat="59.515372663718" lon="17.838722180994">
        <ele>13.4</ele>
        <time>2013-08-17T11:42:22Z</time>
      </trkpt>
      <trkpt lat="59.515440305651" lon="17.838391263582">
        <ele>13.4</ele>
        <time>2013-08-17T11:42:26Z</time>
      </trkpt>
      <trkpt lat="59.515510378335" lon="17.838033356452">
        <ele>13.4</ele>
        <time>2013-08-17T11:42:30Z</time>
      </trkpt>
      <trkpt lat="59.51556108883" lon="17.837661200092">
        <ele>14</ele>
        <time>2013-08-17T11:42:34Z</time>
      </trkpt>
      <trkpt lat="59.515572739671" lon="17.837569669744">
        <ele>14.4</ele>
        <time>2013-08-17T11:42:35Z</time>
      </trkpt>
      <trkpt lat="59.515583636141" lon="17.837480821604">
        <ele>14.8</ele>
        <time>2013-08-17T11:42:36Z</time>
      </trkpt>
      <trkpt lat="59.515594784068" lon="17.837385351763">
        <ele>15.2</ele>
        <time>2013-08-17T11:42:37Z</time>
      </trkpt>
      <trkpt lat="59.515606602547" lon="17.837291809759">
        <ele>15.6</ele>
        <time>2013-08-17T11:42:38Z</time>
      </trkpt>
      <trkpt lat="59.515672484281" lon="17.836631986591">
        <ele>15.6</ele>
        <time>2013-08-17T11:42:45Z</time>
      </trkpt>
      <trkpt lat="59.515722691862" lon="17.835882644731">
        <ele>15.6</ele>
        <time>2013-08-17T11:42:53Z</time>
      </trkpt>
      <trkpt lat="59.515706682433" lon="17.835373863401">
        <ele>15.6</ele>
        <time>2013-08-17T11:42:59Z</time>
      </trkpt>
      <trkpt lat="59.515692265565" lon="17.835287026917">
        <ele>15.6</ele>
        <time>2013-08-17T11:43:00Z</time>
      </trkpt>
      <trkpt lat="59.515620097406" lon="17.834951918555">
        <ele>16</ele>
        <time>2013-08-17T11:43:04Z</time>
      </trkpt>
      <trkpt lat="59.515594281154" lon="17.834874050704">
        <ele>16.4</ele>
        <time>2013-08-17T11:43:05Z</time>
      </trkpt>
      <trkpt lat="59.515568967816" lon="17.834797188681">
        <ele>16.8</ele>
        <time>2013-08-17T11:43:06Z</time>
      </trkpt>
      <trkpt lat="59.515541223727" lon="17.83472434997">
        <ele>17.2</ele>
        <time>2013-08-17T11:43:07Z</time>
      </trkpt>
      <trkpt lat="59.515512138534" lon="17.834642123531">
        <ele>17.8</ele>
        <time>2013-08-17T11:43:08Z</time>
      </trkpt>
      <trkpt lat="59.515479113848" lon="17.834580432747">
        <ele>17.8</ele>
        <time>2013-08-17T11:43:09Z</time>
      </trkpt>
      <trkpt lat="59.515378447229" lon="17.834428049805">
        <ele>17.8</ele>
        <time>2013-08-17T11:43:12Z</time>
      </trkpt>
      <trkpt lat="59.515307452536" lon="17.83433710619">
        <ele>18.2</ele>
        <time>2013-08-17T11:43:14Z</time>
      </trkpt>
      <trkpt lat="59.515267135597" lon="17.834300393468">
        <ele>18.6</ele>
        <time>2013-08-17T11:43:15Z</time>
      </trkpt>
      <trkpt lat="59.515227656848" lon="17.834266782049">
        <ele>19</ele>
        <time>2013-08-17T11:43:16Z</time>
      </trkpt>
      <trkpt lat="59.515196979094" lon="17.834240881978">
        <ele>19.4</ele>
        <time>2013-08-17T11:43:17Z</time>
      </trkpt>
      <trkpt lat="59.515166217521" lon="17.834199810668">
        <ele>19.8</ele>
        <time>2013-08-17T11:43:18Z</time>
      </trkpt>
      <trkpt lat="59.515000591177" lon="17.834041728034">
        <ele>20.2</ele>
        <time>2013-08-17T11:43:24Z</time>
      </trkpt>
      <trkpt lat="59.514968572319" lon="17.834018761628">
        <ele>20.6</ele>
        <time>2013-08-17T11:43:25Z</time>
      </trkpt>
      <trkpt lat="59.514945605913" lon="17.833996214317">
        <ele>21</ele>
        <time>2013-08-17T11:43:26Z</time>
      </trkpt>
      <trkpt lat="59.514919957299" lon="17.83395992069">
        <ele>21.4</ele>
        <time>2013-08-17T11:43:27Z</time>
      </trkpt>
      <trkpt lat="59.514889447183" lon="17.833924381434">
        <ele>21.8</ele>
        <time>2013-08-17T11:43:28Z</time>
      </trkpt>
      <trkpt lat="59.51484276" lon="17.83386604341">
        <ele>21.8</ele>
        <time>2013-08-17T11:43:30Z</time>
      </trkpt>
      <trkpt lat="59.514822140526" lon="17.833838718416">
        <ele>22.4</ele>
        <time>2013-08-17T11:43:31Z</time>
      </trkpt>
      <trkpt lat="59.514805376726" lon="17.833811477241">
        <ele>22.8</ele>
        <time>2013-08-17T11:43:32Z</time>
      </trkpt>
      <trkpt lat="59.514786936546" lon="17.833790354853">
        <ele>23.4</ele>
        <time>2013-08-17T11:43:33Z</time>
      </trkpt>
      <trkpt lat="59.514765897977" lon="17.833769567741">
        <ele>23.8</ele>
        <time>2013-08-17T11:43:34Z</time>
      </trkpt>
      <trkpt lat="59.514742428657" lon="17.833741488376">
        <ele>24.2</ele>
        <time>2013-08-17T11:43:35Z</time>
      </trkpt>
      <trkpt lat="59.514685683194" lon="17.83367493609">
        <ele>24.2</ele>
        <time>2013-08-17T11:43:37Z</time>
      </trkpt>
      <trkpt lat="59.514569174784" lon="17.833516685818">
        <ele>24.6</ele>
        <time>2013-08-17T11:43:40Z</time>
      </trkpt>
      <trkpt lat="59.514529612216" lon="17.833467316427">
        <ele>25</ele>
        <time>2013-08-17T11:43:41Z</time>
      </trkpt>
      <trkpt lat="59.514493067132" lon="17.833418114674">
        <ele>25.6</ele>
        <time>2013-08-17T11:43:42Z</time>
      </trkpt>
      <trkpt lat="59.514453672202" lon="17.833381653409">
        <ele>26</ele>
        <time>2013-08-17T11:43:43Z</time>
      </trkpt>
      <trkpt lat="59.514424838466" lon="17.833328679801">
        <ele>26.4</ele>
        <time>2013-08-17T11:43:44Z</time>
      </trkpt>
      <trkpt lat="59.514373457419" lon="17.83323404815">
        <ele>26.4</ele>
        <time>2013-08-17T11:43:46Z</time>
      </trkpt>
      <trkpt lat="59.514303384735" lon="17.83304377902">
        <ele>26.4</ele>
        <time>2013-08-17T11:43:49Z</time>
      </trkpt>
      <trkpt lat="59.514248567109" lon="17.832865076912">
        <ele>26.4</ele>
        <time>2013-08-17T11:43:51Z</time>
      </trkpt>
      <trkpt lat="59.514209758912" lon="17.832784610672">
        <ele>26.4</ele>
        <time>2013-08-17T11:43:52Z</time>
      </trkpt>
      <trkpt lat="59.514045725129" lon="17.832438186745">
        <ele>26.4</ele>
        <time>2013-08-17T11:43:56Z</time>
      </trkpt>
      <trkpt lat="59.513802230934" lon="17.831917838393">
        <ele>26.4</ele>
        <time>2013-08-17T11:44:02Z</time>
      </trkpt>
      <trkpt lat="59.513715897364" lon="17.831623968979">
        <ele>26.4</ele>
        <time>2013-08-17T11:44:05Z</time>
      </trkpt>
      <trkpt lat="59.513698295374" lon="17.831359603853">
        <ele>26.4</ele>
        <time>2013-08-17T11:44:07Z</time>
      </trkpt>
      <trkpt lat="59.513690584026" lon="17.831067746095">
        <ele>26</ele>
        <time>2013-08-17T11:44:09Z</time>
      </trkpt>
      <trkpt lat="59.513692344225" lon="17.830916871895">
        <ele>25.4</ele>
        <time>2013-08-17T11:44:10Z</time>
      </trkpt>
      <trkpt lat="59.513693014777" lon="17.830775972156">
        <ele>25</ele>
        <time>2013-08-17T11:44:11Z</time>
      </trkpt>
      <trkpt lat="59.513686728352" lon="17.830646052706">
        <ele>24.6</ele>
        <time>2013-08-17T11:44:12Z</time>
      </trkpt>
      <trkpt lat="59.513672311484" lon="17.830509763012">
        <ele>24.2</ele>
        <time>2013-08-17T11:44:13Z</time>
      </trkpt>
      <trkpt lat="59.513549600468" lon="17.82984273141">
        <ele>24.2</ele>
        <time>2013-08-17T11:44:18Z</time>
      </trkpt>
      <trkpt lat="59.513340136787" lon="17.829110320988">
        <ele>24.2</ele>
        <time>2013-08-17T11:44:25Z</time>
      </trkpt>
      <trkpt lat="59.513324881729" lon="17.829004960505">
        <ele>24.2</ele>
        <time>2013-08-17T11:44:26Z</time>
      </trkpt>
      <trkpt lat="59.513318343847" lon="17.828665745012">
        <ele>24.2</ele>
        <time>2013-08-17T11:44:29Z</time>
      </trkpt>
      <trkpt lat="59.513277607813" lon="17.828081358944">
        <ele>24.2</ele>
        <time>2013-08-17T11:44:35Z</time>
      </trkpt>
      <trkpt lat="59.513246678602" lon="17.827877594955">
        <ele>24.6</ele>
        <time>2013-08-17T11:44:38Z</time>
      </trkpt>
      <trkpt lat="59.513239973082" lon="17.827816658542">
        <ele>25.2</ele>
        <time>2013-08-17T11:44:39Z</time>
      </trkpt>
      <trkpt lat="59.513234357209" lon="17.827761589459">
        <ele>25.6</ele>
        <time>2013-08-17T11:44:40Z</time>
      </trkpt>
      <trkpt lat="59.513228908974" lon="17.827707107109">
        <ele>26</ele>
        <time>2013-08-17T11:44:41Z</time>
      </trkpt>
      <trkpt lat="59.513220610893" lon="17.827649774913">
        <ele>26.4</ele>
        <time>2013-08-17T11:44:42Z</time>
      </trkpt>
      <trkpt lat="59.513196135745" lon="17.827481801637">
        <ele>26.8</ele>
        <time>2013-08-17T11:44:45Z</time>
      </trkpt>
      <trkpt lat="59.513191022786" lon="17.827424720898">
        <ele>27.2</ele>
        <time>2013-08-17T11:44:46Z</time>
      </trkpt>
      <trkpt lat="59.513175264814" lon="17.827370322367">
        <ele>27.6</ele>
        <time>2013-08-17T11:44:47Z</time>
      </trkpt>
      <trkpt lat="59.513159758299" lon="17.827309218316">
        <ele>28</ele>
        <time>2013-08-17T11:44:48Z</time>
      </trkpt>
      <trkpt lat="59.513150789666" lon="17.827257501993">
        <ele>28.4</ele>
        <time>2013-08-17T11:44:49Z</time>
      </trkpt>
      <trkpt lat="59.513109466899" lon="17.827067149044">
        <ele>29</ele>
        <time>2013-08-17T11:44:52Z</time>
      </trkpt>
      <trkpt lat="59.513102007008" lon="17.82699456179">
        <ele>29.4</ele>
        <time>2013-08-17T11:44:53Z</time>
      </trkpt>
      <trkpt lat="59.51309764842" lon="17.826936391404">
        <ele>30</ele>
        <time>2013-08-17T11:44:54Z</time>
      </trkpt>
      <trkpt lat="59.513097061687" lon="17.826873108059">
        <ele>30.4</ele>
        <time>2013-08-17T11:44:55Z</time>
      </trkpt>
      <trkpt lat="59.513099576257" lon="17.826809405619">
        <ele>31</ele>
        <time>2013-08-17T11:44:56Z</time>
      </trkpt>
      <trkpt lat="59.513090439986" lon="17.826734890528">
        <ele>31</ele>
        <time>2013-08-17T11:44:58Z</time>
      </trkpt>
      <trkpt lat="59.513058002033" lon="17.826715109244">
        <ele>31</ele>
        <time>2013-08-17T11:44:59Z</time>
      </trkpt>
      <trkpt lat="59.512979044535" lon="17.826707481715">
        <ele>31</ele>
        <time>2013-08-17T11:45:01Z</time>
      </trkpt>
      <trkpt lat="59.512881563038" lon="17.826665823672">
        <ele>31</ele>
        <time>2013-08-17T11:45:03Z</time>
      </trkpt>
      <trkpt lat="59.512776454012" lon="17.826620058498">
        <ele>31</ele>
        <time>2013-08-17T11:45:05Z</time>
      </trkpt>
      <trkpt lat="59.512519045863" lon="17.826522409363">
        <ele>31</ele>
        <time>2013-08-17T11:45:10Z</time>
      </trkpt>
      <trkpt lat="59.512407482774" lon="17.826493994722">
        <ele>31</ele>
        <time>2013-08-17T11:45:12Z</time>
      </trkpt>
      <trkpt lat="59.512193073772" lon="17.826501286975">
        <ele>31</ele>
        <time>2013-08-17T11:45:16Z</time>
      </trkpt>
      <trkpt lat="59.512091568963" lon="17.826519559517">
        <ele>31</ele>
        <time>2013-08-17T11:45:18Z</time>
      </trkpt>
      <trkpt lat="59.511829215493" lon="17.826532300005">
        <ele>31</ele>
        <time>2013-08-17T11:45:23Z</time>
      </trkpt>
      <trkpt lat="59.511725028476" lon="17.826557110429">
        <ele>31.4</ele>
        <time>2013-08-17T11:45:25Z</time>
      </trkpt>
      <trkpt lat="59.511668450651" lon="17.826561385198">
        <ele>31.8</ele>
        <time>2013-08-17T11:45:26Z</time>
      </trkpt>
      <trkpt lat="59.51161908126" lon="17.826567503985">
        <ele>32.2</ele>
        <time>2013-08-17T11:45:27Z</time>
      </trkpt>
      <trkpt lat="59.511580608339" lon="17.826562810121">
        <ele>32.8</ele>
        <time>2013-08-17T11:45:28Z</time>
      </trkpt>
      <trkpt lat="59.511534507889" lon="17.826553422393">
        <ele>33.2</ele>
        <time>2013-08-17T11:45:29Z</time>
      </trkpt>
      <trkpt lat="59.511485725231" lon="17.826533641109">
        <ele>33.2</ele>
        <time>2013-08-17T11:45:30Z</time>
      </trkpt>
      <trkpt lat="59.511336946506" lon="17.826508160133">
        <ele>33.2</ele>
        <time>2013-08-17T11:45:33Z</time>
      </trkpt>
      <trkpt lat="59.511236279887" lon="17.82652768996">
        <ele>33.2</ele>
        <time>2013-08-17T11:45:35Z</time>
      </trkpt>
      <trkpt lat="59.511187245772" lon="17.826544537579">
        <ele>33.2</ele>
        <time>2013-08-17T11:45:36Z</time>
      </trkpt>
      <trkpt lat="59.511089177542" lon="17.82654361557">
        <ele>33.2</ele>
        <time>2013-08-17T11:45:40Z</time>
      </trkpt>
      <trkpt lat="59.511076101778" lon="17.826581166482">
        <ele>33.2</ele>
        <time>2013-08-17T11:45:42Z</time>
      </trkpt>
      <trkpt lat="59.511033270269" lon="17.826655430116">
        <ele>33.2</ele>
        <time>2013-08-17T11:45:45Z</time>
      </trkpt>
      <trkpt lat="59.5109619403" lon="17.826716450348">
        <ele>33.2</ele>
        <time>2013-08-17T11:45:48Z</time>
      </trkpt>
      <trkpt lat="59.5108948851" lon="17.826750564681">
        <ele>33.2</ele>
        <time>2013-08-17T11:45:50Z</time>
      </trkpt>
      <trkpt lat="59.510708304006" lon="17.826658950514">
        <ele>33.2</ele>
        <time>2013-08-17T11:45:54Z</time>
      </trkpt>
      <trkpt lat="59.510606463921" lon="17.826595750988">
        <ele>33.2</ele>
        <time>2013-08-17T11:45:56Z</time>
      </trkpt>
      <trkpt lat="59.510439915568" lon="17.82653355729">
        <ele>33.2</ele>
        <time>2013-08-17T11:46:00Z</time>
      </trkpt>
      <trkpt lat="59.510292729404" lon="17.826533641109">
        <ele>33.2</ele>
        <time>2013-08-17T11:46:04Z</time>
      </trkpt>
      <trkpt lat="59.510248556791" lon="17.82654277738">
        <ele>33.2</ele>
        <time>2013-08-17T11:46:05Z</time>
      </trkpt>
      <trkpt lat="59.510030459753" lon="17.82663497828">
        <ele>33.2</ele>
        <time>2013-08-17T11:46:09Z</time>
      </trkpt>
      <trkpt lat="59.509935073731" lon="17.826685856413">
        <ele>33.2</ele>
        <time>2013-08-17T11:46:11Z</time>
      </trkpt>
      <trkpt lat="59.509726867335" lon="17.826729442293">
        <ele>33.2</ele>
        <time>2013-08-17T11:46:15Z</time>
      </trkpt>
      <trkpt lat="59.509617986454" lon="17.826706392068">
        <ele>33.2</ele>
        <time>2013-08-17T11:46:17Z</time>
      </trkpt>
      <trkpt lat="59.509442134192" lon="17.826707146439">
        <ele>33.2</ele>
        <time>2013-08-17T11:46:20Z</time>
      </trkpt>
      <trkpt lat="59.509378683209" lon="17.826703458403">
        <ele>33.6</ele>
        <time>2013-08-17T11:46:21Z</time>
      </trkpt>
      <trkpt lat="59.509326463972" lon="17.826692729571">
        <ele>34</ele>
        <time>2013-08-17T11:46:22Z</time>
      </trkpt>
      <trkpt lat="59.50926628193" lon="17.826673032106">
        <ele>34.4</ele>
        <time>2013-08-17T11:46:23Z</time>
      </trkpt>
      <trkpt lat="59.50917408103" lon="17.826606898915">
        <ele>34.8</ele>
        <time>2013-08-17T11:46:24Z</time>
      </trkpt>
      <trkpt lat="59.509091770772" lon="17.826535988041">
        <ele>35.2</ele>
        <time>2013-08-17T11:46:25Z</time>
      </trkpt>
      <trkpt lat="59.509017758595" lon="17.826478152931">
        <ele>35.2</ele>
        <time>2013-08-17T11:46:26Z</time>
      </trkpt>
      <trkpt lat="59.508891778638" lon="17.82634747911">
        <ele>35.2</ele>
        <time>2013-08-17T11:46:28Z</time>
      </trkpt>
      <trkpt lat="59.508758674066" lon="17.826240023152">
        <ele>35.2</ele>
        <time>2013-08-17T11:46:30Z</time>
      </trkpt>
      <trkpt lat="59.508696480368" lon="17.826166932984">
        <ele>35.2</ele>
        <time>2013-08-17T11:46:31Z</time>
      </trkpt>
      <trkpt lat="59.508509563998" lon="17.825789076932">
        <ele>35.2</ele>
        <time>2013-08-17T11:46:35Z</time>
      </trkpt>
      <trkpt lat="59.50845072306" lon="17.825539547769">
        <ele>35.2</ele>
        <time>2013-08-17T11:46:37Z</time>
      </trkpt>
      <trkpt lat="59.508366484965" lon="17.825241822681">
        <ele>35.2</ele>
        <time>2013-08-17T11:46:40Z</time>
      </trkpt>
      <trkpt lat="59.508195829481" lon="17.82472055232">
        <ele>35.2</ele>
        <time>2013-08-17T11:46:45Z</time>
      </trkpt>
      <trkpt lat="59.508077560872" lon="17.824416540807">
        <ele>34.8</ele>
        <time>2013-08-17T11:46:48Z</time>
      </trkpt>
      <trkpt lat="59.508036154286" lon="17.824318724034">
        <ele>34.4</ele>
        <time>2013-08-17T11:46:49Z</time>
      </trkpt>
      <trkpt lat="59.50798720399" lon="17.824223421831">
        <ele>34</ele>
        <time>2013-08-17T11:46:50Z</time>
      </trkpt>
      <trkpt lat="59.50793858897" lon="17.82412459923">
        <ele>33.6</ele>
        <time>2013-08-17T11:46:51Z</time>
      </trkpt>
      <trkpt lat="59.507884274258" lon="17.824040361135">
        <ele>33.2</ele>
        <time>2013-08-17T11:46:52Z</time>
      </trkpt>
      <trkpt lat="59.507823337845" lon="17.823971126641">
        <ele>33.2</ele>
        <time>2013-08-17T11:46:53Z</time>
      </trkpt>
      <trkpt lat="59.507690065635" lon="17.823849086177">
        <ele>33.2</ele>
        <time>2013-08-17T11:46:55Z</time>
      </trkpt>
      <trkpt lat="59.507623010435" lon="17.823794939103">
        <ele>33.2</ele>
        <time>2013-08-17T11:46:56Z</time>
      </trkpt>
      <trkpt lat="59.507155132777" lon="17.823458321999">
        <ele>33.2</ele>
        <time>2013-08-17T11:47:03Z</time>
      </trkpt>
      <trkpt lat="59.507104757558" lon="17.823392188808">
        <ele>33.2</ele>
        <time>2013-08-17T11:47:04Z</time>
      </trkpt>
      <trkpt lat="59.50695287753" lon="17.823145425672">
        <ele>33.2</ele>
        <time>2013-08-17T11:47:07Z</time>
      </trkpt>
      <trkpt lat="59.506745257867" lon="17.8227021908">
        <ele>33.2</ele>
        <time>2013-08-17T11:47:12Z</time>
      </trkpt>
      <trkpt lat="59.50662095429" lon="17.82260747533">
        <ele>33.2</ele>
        <time>2013-08-17T11:47:15Z</time>
      </trkpt>
      <trkpt lat="59.506563538275" lon="17.822569672961">
        <ele>33.2</ele>
        <time>2013-08-17T11:47:16Z</time>
      </trkpt>
      <trkpt lat="59.506321888098" lon="17.822432042163">
        <ele>33.2</ele>
        <time>2013-08-17T11:47:20Z</time>
      </trkpt>
      <trkpt lat="59.506264472083" lon="17.822406142092">
        <ele>33.2</ele>
        <time>2013-08-17T11:47:21Z</time>
      </trkpt>
      <trkpt lat="59.506201356376" lon="17.822351911199">
        <ele>33.2</ele>
        <time>2013-08-17T11:47:22Z</time>
      </trkpt>
      <trkpt lat="59.50602081025" lon="17.822208832166">
        <ele>33.2</ele>
        <time>2013-08-17T11:47:25Z</time>
      </trkpt>
      <trkpt lat="59.505957443086" lon="17.822152254341">
        <ele>33.2</ele>
        <time>2013-08-17T11:47:26Z</time>
      </trkpt>
      <trkpt lat="59.505487889048" lon="17.821656464956">
        <ele>33.2</ele>
        <time>2013-08-17T11:47:34Z</time>
      </trkpt>
      <trkpt lat="59.505133502316" lon="17.821082891539">
        <ele>33.2</ele>
        <time>2013-08-17T11:47:41Z</time>
      </trkpt>
      <trkpt lat="59.504937952589" lon="17.820790111772">
        <ele>33.2</ele>
        <time>2013-08-17T11:47:45Z</time>
      </trkpt>
      <trkpt lat="59.504820354532" lon="17.820683410185">
        <ele>33.2</ele>
        <time>2013-08-17T11:47:47Z</time>
      </trkpt>
      <trkpt lat="59.504610723213" lon="17.82046506169">
        <ele>32.8</ele>
        <time>2013-08-17T11:47:51Z</time>
      </trkpt>
      <trkpt lat="59.50456990336" lon="17.820406304571">
        <ele>32.2</ele>
        <time>2013-08-17T11:47:52Z</time>
      </trkpt>
      <trkpt lat="59.504538722692" lon="17.820347379814">
        <ele>31.8</ele>
        <time>2013-08-17T11:47:53Z</time>
      </trkpt>
      <trkpt lat="59.504505195092" lon="17.820277893863">
        <ele>31.4</ele>
        <time>2013-08-17T11:47:54Z</time>
      </trkpt>
      <trkpt lat="59.504477618641" lon="17.820199606917">
        <ele>30.8</ele>
        <time>2013-08-17T11:47:55Z</time>
      </trkpt>
      <trkpt lat="59.504450628923" lon="17.820125762378">
        <ele>30.8</ele>
        <time>2013-08-17T11:47:56Z</time>
      </trkpt>
      <trkpt lat="59.504401762446" lon="17.819956699455">
        <ele>30.8</ele>
        <time>2013-08-17T11:47:58Z</time>
      </trkpt>
      <trkpt lat="59.504318530179" lon="17.819562750155">
        <ele>30.8</ele>
        <time>2013-08-17T11:48:02Z</time>
      </trkpt>
      <trkpt lat="59.50423546555" lon="17.819046592753">
        <ele>30.4</ele>
        <time>2013-08-17T11:48:07Z</time>
      </trkpt>
      <trkpt lat="59.504212247687" lon="17.818944920306">
        <ele>30</ele>
        <time>2013-08-17T11:48:08Z</time>
      </trkpt>
      <trkpt lat="59.504180815562" lon="17.818836961434">
        <ele>29.6</ele>
        <time>2013-08-17T11:48:09Z</time>
      </trkpt>
      <trkpt lat="59.504152065645" lon="17.818753729167">
        <ele>29.2</ele>
        <time>2013-08-17T11:48:10Z</time>
      </trkpt>
      <trkpt lat="59.504122477538" lon="17.818664210475">
        <ele>28.8</ele>
        <time>2013-08-17T11:48:11Z</time>
      </trkpt>
      <trkpt lat="59.504088195567" lon="17.818547534427">
        <ele>28.2</ele>
        <time>2013-08-17T11:48:12Z</time>
      </trkpt>
      <trkpt lat="59.504055338519" lon="17.818433205311">
        <ele>27.8</ele>
        <time>2013-08-17T11:48:13Z</time>
      </trkpt>
      <trkpt lat="59.504024157851" lon="17.818318708557">
        <ele>27.2</ele>
        <time>2013-08-17T11:48:14Z</time>
      </trkpt>
      <trkpt lat="59.503994569744" lon="17.818221562336">
        <ele>26.8</ele>
        <time>2013-08-17T11:48:15Z</time>
      </trkpt>
      <trkpt lat="59.503940506489" lon="17.818037831088">
        <ele>26.4</ele>
        <time>2013-08-17T11:48:17Z</time>
      </trkpt>
      <trkpt lat="59.503909828735" lon="17.817947474206">
        <ele>25.8</ele>
        <time>2013-08-17T11:48:18Z</time>
      </trkpt>
      <trkpt lat="59.503881162637" lon="17.817857787876">
        <ele>25.4</ele>
        <time>2013-08-17T11:48:19Z</time>
      </trkpt>
      <trkpt lat="59.503850903978" lon="17.817765754614">
        <ele>25</ele>
        <time>2013-08-17T11:48:20Z</time>
      </trkpt>
      <trkpt lat="59.503823662803" lon="17.817676152103">
        <ele>24.4</ele>
        <time>2013-08-17T11:48:21Z</time>
      </trkpt>
      <trkpt lat="59.503774712507" lon="17.817411954615">
        <ele>24.4</ele>
        <time>2013-08-17T11:48:25Z</time>
      </trkpt>
      <trkpt lat="59.503765827693" lon="17.817342552483">
        <ele>24</ele>
        <time>2013-08-17T11:48:27Z</time>
      </trkpt>
      <trkpt lat="59.50375769725" lon="17.817301816449">
        <ele>23.6</ele>
        <time>2013-08-17T11:48:28Z</time>
      </trkpt>
      <trkpt lat="59.503736826319" lon="17.817250770678">
        <ele>23.2</ele>
        <time>2013-08-17T11:48:29Z</time>
      </trkpt>
      <trkpt lat="59.503715452474" lon="17.81721120811">
        <ele>22.8</ele>
        <time>2013-08-17T11:48:30Z</time>
      </trkpt>
      <trkpt lat="59.503693910991" lon="17.817168125144">
        <ele>22.4</ele>
        <time>2013-08-17T11:48:31Z</time>
      </trkpt>
      <trkpt lat="59.503586957947" lon="17.816882302354">
        <ele>22.4</ele>
        <time>2013-08-17T11:48:36Z</time>
      </trkpt>
      <trkpt lat="59.503453518099" lon="17.816521545378">
        <ele>22.4</ele>
        <time>2013-08-17T11:48:42Z</time>
      </trkpt>
      <trkpt lat="59.50338051175" lon="17.816430266487">
        <ele>22.4</ele>
        <time>2013-08-17T11:48:46Z</time>
      </trkpt>
      <trkpt lat="59.503250005567" lon="17.816264304867">
        <ele>22.4</ele>
        <time>2013-08-17T11:48:53Z</time>
      </trkpt>
      <trkpt lat="59.503124360886" lon="17.816052326616">
        <ele>22.4</ele>
        <time>2013-08-17T11:48:59Z</time>
      </trkpt>
      <trkpt lat="59.503098293177" lon="17.816014021333">
        <ele>21.8</ele>
        <time>2013-08-17T11:49:00Z</time>
      </trkpt>
      <trkpt lat="59.503066106681" lon="17.815973536756">
        <ele>21.4</ele>
        <time>2013-08-17T11:49:01Z</time>
      </trkpt>
      <trkpt lat="59.503028974864" lon="17.815923245356">
        <ele>21</ele>
        <time>2013-08-17T11:49:02Z</time>
      </trkpt>
      <trkpt lat="59.502977426179" lon="17.81587597144">
        <ele>20.4</ele>
        <time>2013-08-17T11:49:03Z</time>
      </trkpt>
      <trkpt lat="59.502914645748" lon="17.815825763859">
        <ele>20</ele>
        <time>2013-08-17T11:49:04Z</time>
      </trkpt>
      <trkpt lat="59.502851110946" lon="17.815786871843">
        <ele>20</ele>
        <time>2013-08-17T11:49:05Z</time>
      </trkpt>
      <trkpt lat="59.502378539424" lon="17.81549962413">
        <ele>19.6</ele>
        <time>2013-08-17T11:49:12Z</time>
      </trkpt>
      <trkpt lat="59.502302180315" lon="17.815437765708">
        <ele>19.2</ele>
        <time>2013-08-17T11:49:13Z</time>
      </trkpt>
      <trkpt lat="59.50223135326" lon="17.815353862889">
        <ele>18.8</ele>
        <time>2013-08-17T11:49:14Z</time>
      </trkpt>
      <trkpt lat="59.502171590313" lon="17.815270127708">
        <ele>18.4</ele>
        <time>2013-08-17T11:49:15Z</time>
      </trkpt>
      <trkpt lat="59.502120879818" lon="17.815188068907">
        <ele>18</ele>
        <time>2013-08-17T11:49:16Z</time>
      </trkpt>
      <trkpt lat="59.502078635042" lon="17.815111290703">
        <ele>18</ele>
        <time>2013-08-17T11:49:17Z</time>
      </trkpt>
      <trkpt lat="59.501843522747" lon="17.814571831619">
        <ele>18</ele>
        <time>2013-08-17T11:49:23Z</time>
      </trkpt>
      <trkpt lat="59.501640596948" lon="17.81423144266">
        <ele>18</ele>
        <time>2013-08-17T11:49:28Z</time>
      </trkpt>
      <trkpt lat="59.501488800739" lon="17.814020637875">
        <ele>18</ele>
        <time>2013-08-17T11:49:33Z</time>
      </trkpt>
      <trkpt lat="59.501430378896" lon="17.813695252517">
        <ele>18</ele>
        <time>2013-08-17T11:49:38Z</time>
      </trkpt>
      <trkpt lat="59.501373633433" lon="17.813380595991">
        <ele>18</ele>
        <time>2013-08-17T11:49:41Z</time>
      </trkpt>
      <trkpt lat="59.50136969394" lon="17.813139029633">
        <ele>18</ele>
        <time>2013-08-17T11:49:43Z</time>
      </trkpt>
      <trkpt lat="59.501389056129" lon="17.812912550695">
        <ele>18</ele>
        <time>2013-08-17T11:49:45Z</time>
      </trkpt>
      <trkpt lat="59.501415291476" lon="17.812665871378">
        <ele>18</ele>
        <time>2013-08-17T11:49:47Z</time>
      </trkpt>
      <trkpt lat="59.501437252054" lon="17.812544501466">
        <ele>17.6</ele>
        <time>2013-08-17T11:49:48Z</time>
      </trkpt>
      <trkpt lat="59.501451333646" lon="17.812430339988">
        <ele>17</ele>
        <time>2013-08-17T11:49:49Z</time>
      </trkpt>
      <trkpt lat="59.501470779654" lon="17.812299833805">
        <ele>16.6</ele>
        <time>2013-08-17T11:49:50Z</time>
      </trkpt>
      <trkpt lat="59.501483352504" lon="17.812196484978">
        <ele>16.2</ele>
        <time>2013-08-17T11:49:51Z</time>
      </trkpt>
      <trkpt lat="59.501494248974" lon="17.812085257165">
        <ele>15.8</ele>
        <time>2013-08-17T11:49:52Z</time>
      </trkpt>
      <trkpt lat="59.501498188467" lon="17.811975202818">
        <ele>15.8</ele>
        <time>2013-08-17T11:49:53Z</time>
      </trkpt>
      <trkpt lat="59.501508414385" lon="17.811857604761">
        <ele>15.8</ele>
        <time>2013-08-17T11:49:54Z</time>
      </trkpt>
      <trkpt lat="59.501538673044" lon="17.811182442716">
        <ele>15.8</ele>
        <time>2013-08-17T11:50:00Z</time>
      </trkpt>
      <trkpt lat="59.501525848737" lon="17.810987814998">
        <ele>15.8</ele>
        <time>2013-08-17T11:50:02Z</time>
      </trkpt>
      <trkpt lat="59.501511180412" lon="17.810904750369">
        <ele>15.8</ele>
        <time>2013-08-17T11:50:03Z</time>
      </trkpt>
      <trkpt lat="59.501472456034" lon="17.810750104314">
        <ele>15.8</ele>
        <time>2013-08-17T11:50:05Z</time>
      </trkpt>
      <trkpt lat="59.501439515167" lon="17.810677768517">
        <ele>15.8</ele>
        <time>2013-08-17T11:50:06Z</time>
      </trkpt>
      <trkpt lat="59.501417219313" lon="17.810611048593">
        <ele>15.8</ele>
        <time>2013-08-17T11:50:07Z</time>
      </trkpt>
      <trkpt lat="59.501332226847" lon="17.810456653995">
        <ele>15.8</ele>
        <time>2013-08-17T11:50:09Z</time>
      </trkpt>
      <trkpt lat="59.501234577712" lon="17.810312150039">
        <ele>16.2</ele>
        <time>2013-08-17T11:50:11Z</time>
      </trkpt>
      <trkpt lat="59.501183280484" lon="17.810235036559">
        <ele>16.6</ele>
        <time>2013-08-17T11:50:12Z</time>
      </trkpt>
      <trkpt lat="59.50111823694" lon="17.810143254754">
        <ele>17.2</ele>
        <time>2013-08-17T11:50:13Z</time>
      </trkpt>
      <trkpt lat="59.501079428743" lon="17.81006647655">
        <ele>17.6</ele>
        <time>2013-08-17T11:50:14Z</time>
      </trkpt>
      <trkpt lat="59.501027963877" lon="17.809998415522">
        <ele>18</ele>
        <time>2013-08-17T11:50:15Z</time>
      </trkpt>
      <trkpt lat="59.500846579561" lon="17.809730278541">
        <ele>18</ele>
        <time>2013-08-17T11:50:19Z</time>
      </trkpt>
      <trkpt lat="59.500541478401" lon="17.809448646701">
        <ele>18</ele>
        <time>2013-08-17T11:50:25Z</time>
      </trkpt>
      <trkpt lat="59.500258086362" lon="17.809346387521">
        <ele>18</ele>
        <time>2013-08-17T11:50:30Z</time>
      </trkpt>
      <trkpt lat="59.500136045898" lon="17.809292156628">
        <ele>18</ele>
        <time>2013-08-17T11:50:32Z</time>
      </trkpt>
      <trkpt lat="59.499934042108" lon="17.809111107588">
        <ele>18</ele>
        <time>2013-08-17T11:50:35Z</time>
      </trkpt>
      <trkpt lat="59.499767493755" lon="17.808782956203">
        <ele>18</ele>
        <time>2013-08-17T11:50:38Z</time>
      </trkpt>
      <trkpt lat="59.499718794916" lon="17.80866418468">
        <ele>17.6</ele>
        <time>2013-08-17T11:50:39Z</time>
      </trkpt>
      <trkpt lat="59.499665737489" lon="17.808537701809">
        <ele>17.2</ele>
        <time>2013-08-17T11:50:40Z</time>
      </trkpt>
      <trkpt lat="59.4996044658" lon="17.808419349381">
        <ele>16.8</ele>
        <time>2013-08-17T11:50:41Z</time>
      </trkpt>
      <trkpt lat="59.499533890202" lon="17.808314994726">
        <ele>16.2</ele>
        <time>2013-08-17T11:50:42Z</time>
      </trkpt>
      <trkpt lat="59.499471612685" lon="17.808206784397">
        <ele>15.8</ele>
        <time>2013-08-17T11:50:43Z</time>
      </trkpt>
      <trkpt lat="59.499398857793" lon="17.808109554357">
        <ele>15.8</ele>
        <time>2013-08-17T11:50:44Z</time>
      </trkpt>
      <trkpt lat="59.499327695462" lon="17.808014838887">
        <ele>15.4</ele>
        <time>2013-08-17T11:50:45Z</time>
      </trkpt>
      <trkpt lat="59.499259550615" lon="17.807927834765">
        <ele>15</ele>
        <time>2013-08-17T11:50:46Z</time>
      </trkpt>
      <trkpt lat="59.499181850402" lon="17.807840076272">
        <ele>14.4</ele>
        <time>2013-08-17T11:50:47Z</time>
      </trkpt>
      <trkpt lat="59.499106832397" lon="17.807761370231">
        <ele>14</ele>
        <time>2013-08-17T11:50:48Z</time>
      </trkpt>
      <trkpt lat="59.499020331189" lon="17.807670007521">
        <ele>13.4</ele>
        <time>2013-08-17T11:50:49Z</time>
      </trkpt>
      <trkpt lat="59.498925112805" lon="17.807577136069">
        <ele>13.4</ele>
        <time>2013-08-17T11:50:50Z</time>
      </trkpt>
      <trkpt lat="59.498822602168" lon="17.807484264617">
        <ele>13</ele>
        <time>2013-08-17T11:50:51Z</time>
      </trkpt>
      <trkpt lat="59.498708021595" lon="17.80737421027">
        <ele>12.6</ele>
        <time>2013-08-17T11:50:52Z</time>
      </trkpt>
      <trkpt lat="59.498610121003" lon="17.807273376013">
        <ele>12</ele>
        <time>2013-08-17T11:50:53Z</time>
      </trkpt>
      <trkpt lat="59.498511801316" lon="17.807173128489">
        <ele>11.6</ele>
        <time>2013-08-17T11:50:54Z</time>
      </trkpt>
      <trkpt lat="59.49842764704" lon="17.807077323372">
        <ele>11.2</ele>
        <time>2013-08-17T11:50:55Z</time>
      </trkpt>
      <trkpt lat="59.49833460795" lon="17.806961988428">
        <ele>10.8</ele>
        <time>2013-08-17T11:50:56Z</time>
      </trkpt>
      <trkpt lat="59.498242658507" lon="17.806843803638">
        <ele>10.2</ele>
        <time>2013-08-17T11:50:57Z</time>
      </trkpt>
      <trkpt lat="59.498148781227" lon="17.806729306884">
        <ele>9.8</ele>
        <time>2013-08-17T11:50:58Z</time>
      </trkpt>
      <trkpt lat="59.498046857323" lon="17.806606679687">
        <ele>9.4</ele>
        <time>2013-08-17T11:50:59Z</time>
      </trkpt>
      <trkpt lat="59.497966810178" lon="17.806486147965">
        <ele>9</ele>
        <time>2013-08-17T11:51:00Z</time>
      </trkpt>
      <trkpt lat="59.497818366729" lon="17.806267212737">
        <ele>9</ele>
        <time>2013-08-17T11:51:02Z</time>
      </trkpt>
      <trkpt lat="59.497742510534" lon="17.806175347113">
        <ele>9</ele>
        <time>2013-08-17T11:51:03Z</time>
      </trkpt>
      <trkpt lat="59.497581745692" lon="17.806027909492">
        <ele>9</ele>
        <time>2013-08-17T11:51:05Z</time>
      </trkpt>
      <trkpt lat="59.497494657751" lon="17.805952220935">
        <ele>9</ele>
        <time>2013-08-17T11:51:06Z</time>
      </trkpt>
      <trkpt lat="59.496934746831" lon="17.805496077937">
        <ele>9</ele>
        <time>2013-08-17T11:51:13Z</time>
      </trkpt>
      <trkpt lat="59.496788231219" lon="17.805448720202">
        <ele>9</ele>
        <time>2013-08-17T11:51:15Z</time>
      </trkpt>
      <trkpt lat="59.496635680639" lon="17.805506890588">
        <ele>9</ele>
        <time>2013-08-17T11:51:17Z</time>
      </trkpt>
      <trkpt lat="59.496383050173" lon="17.805764969289">
        <ele>9</ele>
        <time>2013-08-17T11:51:21Z</time>
      </trkpt>
      <trkpt lat="59.496178531813" lon="17.806068058793">
        <ele>9</ele>
        <time>2013-08-17T11:51:25Z</time>
      </trkpt>
      <trkpt lat="59.496125474386" lon="17.806115667985">
        <ele>9</ele>
        <time>2013-08-17T11:51:26Z</time>
      </trkpt>
      <trkpt lat="59.495953896893" lon="17.806197642967">
        <ele>9</ele>
        <time>2013-08-17T11:51:29Z</time>
      </trkpt>
      <trkpt lat="59.49582925804" lon="17.806234104232">
        <ele>9</ele>
        <time>2013-08-17T11:51:31Z</time>
      </trkpt>
      <trkpt lat="59.495421227148" lon="17.806265201081">
        <ele>9</ele>
        <time>2013-08-17T11:51:37Z</time>
      </trkpt>
      <trkpt lat="59.495093913953" lon="17.806193703474">
        <ele>8.6</ele>
        <time>2013-08-17T11:51:41Z</time>
      </trkpt>
      <trkpt lat="59.494995007533" lon="17.806139472581">
        <ele>8.2</ele>
        <time>2013-08-17T11:51:42Z</time>
      </trkpt>
      <trkpt lat="59.494895262923" lon="17.806077027426">
        <ele>7.6</ele>
        <time>2013-08-17T11:51:43Z</time>
      </trkpt>
      <trkpt lat="59.494803816394" lon="17.806010726597">
        <ele>7.2</ele>
        <time>2013-08-17T11:51:44Z</time>
      </trkpt>
      <trkpt lat="59.494720248851" lon="17.805951298926">
        <ele>6.8</ele>
        <time>2013-08-17T11:51:45Z</time>
      </trkpt>
      <trkpt lat="59.494558226724" lon="17.805834790516">
        <ele>6.4</ele>
        <time>2013-08-17T11:51:47Z</time>
      </trkpt>
      <trkpt lat="59.494472396068" lon="17.805775195207">
        <ele>6</ele>
        <time>2013-08-17T11:51:48Z</time>
      </trkpt>
      <trkpt lat="59.494385308127" lon="17.805720042305">
        <ele>5.6</ele>
        <time>2013-08-17T11:51:49Z</time>
      </trkpt>
      <trkpt lat="59.494294196874" lon="17.805666649602">
        <ele>5.2</ele>
        <time>2013-08-17T11:51:50Z</time>
      </trkpt>
      <trkpt lat="59.494206773657" lon="17.805615436193">
        <ele>4.8</ele>
        <time>2013-08-17T11:51:51Z</time>
      </trkpt>
      <trkpt lat="59.494029077377" lon="17.805502196724">
        <ele>4.8</ele>
        <time>2013-08-17T11:51:53Z</time>
      </trkpt>
      <trkpt lat="59.493552734" lon="17.805230623164">
        <ele>4.8</ele>
        <time>2013-08-17T11:51:59Z</time>
      </trkpt>
      <trkpt lat="59.493024758119" lon="17.804957624681">
        <ele>4.8</ele>
        <time>2013-08-17T11:52:06Z</time>
      </trkpt>
      <trkpt lat="59.49295258996" lon="17.804920492864">
        <ele>4.8</ele>
        <time>2013-08-17T11:52:07Z</time>
      </trkpt>
      <trkpt lat="59.492883439285" lon="17.804880427382">
        <ele>5.2</ele>
        <time>2013-08-17T11:52:08Z</time>
      </trkpt>
      <trkpt lat="59.4928151268" lon="17.804834829846">
        <ele>5.6</ele>
        <time>2013-08-17T11:52:09Z</time>
      </trkpt>
      <trkpt lat="59.492745976125" lon="17.804789148491">
        <ele>6</ele>
        <time>2013-08-17T11:52:10Z</time>
      </trkpt>
      <trkpt lat="59.492678250373" lon="17.804749669742">
        <ele>6.4</ele>
        <time>2013-08-17T11:52:11Z</time>
      </trkpt>
      <trkpt lat="59.492607423318" lon="17.804708933708">
        <ele>6.8</ele>
        <time>2013-08-17T11:52:12Z</time>
      </trkpt>
      <trkpt lat="59.492303747081" lon="17.804560993173">
        <ele>6.8</ele>
        <time>2013-08-17T11:52:16Z</time>
      </trkpt>
      <trkpt lat="59.492161003324" lon="17.80448999848">
        <ele>6.8</ele>
        <time>2013-08-17T11:52:18Z</time>
      </trkpt>
      <trkpt lat="59.491963777217" lon="17.804389667137">
        <ele>6.8</ele>
        <time>2013-08-17T11:52:21Z</time>
      </trkpt>
      <trkpt lat="59.491833690129" lon="17.804299142617">
        <ele>6.8</ele>
        <time>2013-08-17T11:52:23Z</time>
      </trkpt>
      <trkpt lat="59.491628082122" lon="17.804254131814">
        <ele>6.8</ele>
        <time>2013-08-17T11:52:26Z</time>
      </trkpt>
      <trkpt lat="59.491308312637" lon="17.804253209805">
        <ele>6.8</ele>
        <time>2013-08-17T11:52:31Z</time>
      </trkpt>
      <trkpt lat="59.490859378073" lon="17.804232255055">
        <ele>6.8</ele>
        <time>2013-08-17T11:52:38Z</time>
      </trkpt>
      <trkpt lat="59.490419076866" lon="17.804265698836">
        <ele>6.8</ele>
        <time>2013-08-17T11:52:44Z</time>
      </trkpt>
      <trkpt lat="59.490057062605" lon="17.804317834254">
        <ele>6.8</ele>
        <time>2013-08-17T11:52:50Z</time>
      </trkpt>
      <trkpt lat="59.489907613328" lon="17.804342896135">
        <ele>6.8</ele>
        <time>2013-08-17T11:52:53Z</time>
      </trkpt>
      <trkpt lat="59.489822034129" lon="17.804356977727">
        <ele>6.8</ele>
        <time>2013-08-17T11:52:55Z</time>
      </trkpt>
      <trkpt lat="59.489622377271" lon="17.804333843683">
        <ele>7.2</ele>
        <time>2013-08-17T11:53:00Z</time>
      </trkpt>
      <trkpt lat="59.489583569074" lon="17.804324455955">
        <ele>7.6</ele>
        <time>2013-08-17T11:53:01Z</time>
      </trkpt>
      <trkpt lat="59.489545179972" lon="17.804316828426">
        <ele>8</ele>
        <time>2013-08-17T11:53:02Z</time>
      </trkpt>
      <trkpt lat="59.48950259992" lon="17.8043123022">
        <ele>8.4</ele>
        <time>2013-08-17T11:53:03Z</time>
      </trkpt>
      <trkpt lat="59.489460941877" lon="17.804302663015">
        <ele>8.8</ele>
        <time>2013-08-17T11:53:04Z</time>
      </trkpt>
      <trkpt lat="59.489420708757" lon="17.804288329966">
        <ele>8.8</ele>
        <time>2013-08-17T11:53:05Z</time>
      </trkpt>
      <trkpt lat="59.489380391818" lon="17.804271566166">
        <ele>8.8</ele>
        <time>2013-08-17T11:53:06Z</time>
      </trkpt>
      <trkpt lat="59.489021143584" lon="17.804110130772">
        <ele>8.8</ele>
        <time>2013-08-17T11:53:14Z</time>
      </trkpt>
      <trkpt lat="59.488639767134" lon="17.803979792227">
        <ele>8.8</ele>
        <time>2013-08-17T11:53:21Z</time>
      </trkpt>
      <trkpt lat="59.488338940743" lon="17.803931428664">
        <ele>8.8</ele>
        <time>2013-08-17T11:53:26Z</time>
      </trkpt>
      <trkpt lat="59.488213212243" lon="17.803950539396">
        <ele>8.8</ele>
        <time>2013-08-17T11:53:28Z</time>
      </trkpt>
      <trkpt lat="59.487712058442" lon="17.803968057567">
        <ele>8.8</ele>
        <time>2013-08-17T11:53:36Z</time>
      </trkpt>
      <trkpt lat="59.487239989834" lon="17.803905696231">
        <ele>8.8</ele>
        <time>2013-08-17T11:53:44Z</time>
      </trkpt>
      <trkpt lat="59.487048714876" lon="17.803876862495">
        <ele>8.8</ele>
        <time>2013-08-17T11:53:47Z</time>
      </trkpt>
      <trkpt lat="59.48686230142" lon="17.803805951621">
        <ele>8.8</ele>
        <time>2013-08-17T11:53:50Z</time>
      </trkpt>
      <trkpt lat="59.486505903032" lon="17.803645522055">
        <ele>8.8</ele>
        <time>2013-08-17T11:53:56Z</time>
      </trkpt>
      <trkpt lat="59.486232988368" lon="17.803523313953">
        <ele>8.8</ele>
        <time>2013-08-17T11:54:01Z</time>
      </trkpt>
      <trkpt lat="59.486036600451" lon="17.8034824941">
        <ele>9.4</ele>
        <time>2013-08-17T11:54:05Z</time>
      </trkpt>
      <trkpt lat="59.485987985431" lon="17.803467155223">
        <ele>9.8</ele>
        <time>2013-08-17T11:54:06Z</time>
      </trkpt>
      <trkpt lat="59.485937694031" lon="17.803452151622">
        <ele>10.2</ele>
        <time>2013-08-17T11:54:07Z</time>
      </trkpt>
      <trkpt lat="59.485888073183" lon="17.803436058374">
        <ele>10.6</ele>
        <time>2013-08-17T11:54:08Z</time>
      </trkpt>
      <trkpt lat="59.485837446507" lon="17.803419713669">
        <ele>11.2</ele>
        <time>2013-08-17T11:54:09Z</time>
      </trkpt>
      <trkpt lat="59.485676597846" lon="17.80337939673">
        <ele>11.2</ele>
        <time>2013-08-17T11:54:12Z</time>
      </trkpt>
      <trkpt lat="59.485559167427" lon="17.803335140298">
        <ele>11.2</ele>
        <time>2013-08-17T11:54:14Z</time>
      </trkpt>
      <trkpt lat="59.485293712654" lon="17.803195497844">
        <ele>11.2</ele>
        <time>2013-08-17T11:54:18Z</time>
      </trkpt>
      <trkpt lat="59.485117022202" lon="17.803012437148">
        <ele>11.2</ele>
        <time>2013-08-17T11:54:21Z</time>
      </trkpt>
      <trkpt lat="59.485012667547" lon="17.802854857428">
        <ele>11.2</ele>
        <time>2013-08-17T11:54:23Z</time>
      </trkpt>
      <trkpt lat="59.484969081667" lon="17.802774139731">
        <ele>11.2</ele>
        <time>2013-08-17T11:54:24Z</time>
      </trkpt>
      <trkpt lat="59.484786691523" lon="17.802367366124">
        <ele>11.2</ele>
        <time>2013-08-17T11:54:29Z</time>
      </trkpt>
      <trkpt lat="59.484633218934" lon="17.802191094767">
        <ele>11.2</ele>
        <time>2013-08-17T11:54:33Z</time>
      </trkpt>
      <trkpt lat="59.484541018034" lon="17.802092272166">
        <ele>11.6</ele>
        <time>2013-08-17T11:54:36Z</time>
      </trkpt>
      <trkpt lat="59.48451201666" lon="17.802064025163">
        <ele>12</ele>
        <time>2013-08-17T11:54:37Z</time>
      </trkpt>
      <trkpt lat="59.484484188752" lon="17.80203326359">
        <ele>12.4</ele>
        <time>2013-08-17T11:54:38Z</time>
      </trkpt>
      <trkpt lat="59.484453846274" lon="17.802009123718">
        <ele>12.8</ele>
        <time>2013-08-17T11:54:39Z</time>
      </trkpt>
      <trkpt lat="59.484421408321" lon="17.801997472877">
        <ele>13.2</ele>
        <time>2013-08-17T11:54:40Z</time>
      </trkpt>
      <trkpt lat="59.484210938812" lon="17.801960676336">
        <ele>13.2</ele>
        <time>2013-08-17T11:54:46Z</time>
      </trkpt>
      <trkpt lat="59.484011281954" lon="17.801923963614">
        <ele>13.6</ele>
        <time>2013-08-17T11:54:51Z</time>
      </trkpt>
      <trkpt lat="59.483971970843" lon="17.801923712157">
        <ele>14</ele>
        <time>2013-08-17T11:54:52Z</time>
      </trkpt>
      <trkpt lat="59.483934168474" lon="17.801927735469">
        <ele>14.4</ele>
        <time>2013-08-17T11:54:53Z</time>
      </trkpt>
      <trkpt lat="59.48389762339" lon="17.801940056862">
        <ele>14.8</ele>
        <time>2013-08-17T11:54:54Z</time>
      </trkpt>
      <trkpt lat="59.483863006143" lon="17.801957491214">
        <ele>15.2</ele>
        <time>2013-08-17T11:54:55Z</time>
      </trkpt>
      <trkpt lat="59.483728057553" lon="17.802068719027">
        <ele>15.2</ele>
        <time>2013-08-17T11:54:59Z</time>
      </trkpt>
      <trkpt lat="59.483513313275" lon="17.802299388915">
        <ele>15.6</ele>
        <time>2013-08-17T11:55:06Z</time>
      </trkpt>
      <trkpt lat="59.483480623865" lon="17.802328474108">
        <ele>16</ele>
        <time>2013-08-17T11:55:07Z</time>
      </trkpt>
      <trkpt lat="59.483449443197" lon="17.802356888749">
        <ele>16.4</ele>
        <time>2013-08-17T11:55:08Z</time>
      </trkpt>
      <trkpt lat="59.483418681624" lon="17.8023844652">
        <ele>16.8</ele>
        <time>2013-08-17T11:55:09Z</time>
      </trkpt>
      <trkpt lat="59.483391021354" lon="17.802411035823">
        <ele>17.4</ele>
        <time>2013-08-17T11:55:10Z</time>
      </trkpt>
      <trkpt lat="59.483344501809" lon="17.802459483205">
        <ele>17.4</ele>
        <time>2013-08-17T11:55:12Z</time>
      </trkpt>
      <trkpt lat="59.483226987571" lon="17.802625109549">
        <ele>17.8</ele>
        <time>2013-08-17T11:55:17Z</time>
      </trkpt>
      <trkpt lat="59.483207709201" lon="17.802668276334">
        <ele>18.2</ele>
        <time>2013-08-17T11:55:18Z</time>
      </trkpt>
      <trkpt lat="59.483188430831" lon="17.802713957689">
        <ele>18.6</ele>
        <time>2013-08-17T11:55:19Z</time>
      </trkpt>
      <trkpt lat="59.483168314271" lon="17.802760728691">
        <ele>19</ele>
        <time>2013-08-17T11:55:20Z</time>
      </trkpt>
      <trkpt lat="59.483146688969" lon="17.802811606824">
        <ele>19.4</ele>
        <time>2013-08-17T11:55:21Z</time>
      </trkpt>
      <trkpt lat="59.48309882832" lon="17.802879751671">
        <ele>19.4</ele>
        <time>2013-08-17T11:55:23Z</time>
      </trkpt>
      <trkpt lat="59.482935884184" lon="17.80301897503">
        <ele>19.4</ele>
        <time>2013-08-17T11:55:29Z</time>
      </trkpt>
      <trkpt lat="59.482846700768" lon="17.803167669936">
        <ele>19.8</ele>
        <time>2013-08-17T11:55:33Z</time>
      </trkpt>
      <trkpt lat="59.482821890344" lon="17.803202371002">
        <ele>20.2</ele>
        <time>2013-08-17T11:55:34Z</time>
      </trkpt>
      <trkpt lat="59.482801941422" lon="17.803243861407">
        <ele>20.6</ele>
        <time>2013-08-17T11:55:35Z</time>
      </trkpt>
      <trkpt lat="59.482784674708" lon="17.803289458943">
        <ele>21</ele>
        <time>2013-08-17T11:55:36Z</time>
      </trkpt>
      <trkpt lat="59.482763300863" lon="17.803326674579">
        <ele>21.4</ele>
        <time>2013-08-17T11:55:37Z</time>
      </trkpt>
      <trkpt lat="59.482697838224" lon="17.803502359203">
        <ele>21.4</ele>
        <time>2013-08-17T11:55:41Z</time>
      </trkpt>
      <trkpt lat="59.482701861536" lon="17.803571761335">
        <ele>21.4</ele>
        <time>2013-08-17T11:55:42Z</time>
      </trkpt>
      <trkpt lat="59.482729857082" lon="17.80372892196">
        <ele>21.4</ele>
        <time>2013-08-17T11:55:44Z</time>
      </trkpt>
      <trkpt lat="59.48283144571" lon="17.804070819661">
        <ele>21.4</ele>
        <time>2013-08-17T11:55:50Z</time>
      </trkpt>
      <trkpt lat="59.482838402687" lon="17.804270560338">
        <ele>21.4</ele>
        <time>2013-08-17T11:55:54Z</time>
      </trkpt>
      <trkpt lat="59.482788530382" lon="17.804473737594">
        <ele>21.4</ele>
        <time>2013-08-17T11:55:58Z</time>
      </trkpt>
      <trkpt lat="59.482608235713" lon="17.804767774646">
        <ele>21.4</ele>
        <time>2013-08-17T11:56:04Z</time>
      </trkpt>
      <trkpt lat="59.482426348483" lon="17.805074300729">
        <ele>21.8</ele>
        <time>2013-08-17T11:56:10Z</time>
      </trkpt>
      <trkpt lat="59.482397933842" lon="17.805121658464">
        <ele>22.2</ele>
        <time>2013-08-17T11:56:11Z</time>
      </trkpt>
      <trkpt lat="59.482370357391" lon="17.805168178009">
        <ele>22.6</ele>
        <time>2013-08-17T11:56:12Z</time>
      </trkpt>
      <trkpt lat="59.48234110456" lon="17.805215116649">
        <ele>23</ele>
        <time>2013-08-17T11:56:13Z</time>
      </trkpt>
      <trkpt lat="59.482310762082" lon="17.805262977298">
        <ele>23.6</ele>
        <time>2013-08-17T11:56:14Z</time>
      </trkpt>
      <trkpt lat="59.482177573691" lon="17.805421814303">
        <ele>23.6</ele>
        <time>2013-08-17T11:56:19Z</time>
      </trkpt>
      <trkpt lat="59.482123091341" lon="17.80545140241">
        <ele>24</ele>
        <time>2013-08-17T11:56:21Z</time>
      </trkpt>
      <trkpt lat="59.482095347252" lon="17.805458359387">
        <ele>24.4</ele>
        <time>2013-08-17T11:56:22Z</time>
      </trkpt>
      <trkpt lat="59.482064753317" lon="17.805457856473">
        <ele>24.8</ele>
        <time>2013-08-17T11:56:23Z</time>
      </trkpt>
      <trkpt lat="59.482032231545" lon="17.805457772654">
        <ele>25.2</ele>
        <time>2013-08-17T11:56:24Z</time>
      </trkpt>
      <trkpt lat="59.481998871583" lon="17.805456012455">
        <ele>25.6</ele>
        <time>2013-08-17T11:56:25Z</time>
      </trkpt>
      <trkpt lat="59.481728303851" lon="17.805418545362">
        <ele>25.6</ele>
        <time>2013-08-17T11:56:31Z</time>
      </trkpt>
      <trkpt lat="59.481342652632" lon="17.80545307879">
        <ele>25.6</ele>
        <time>2013-08-17T11:56:39Z</time>
      </trkpt>
      <trkpt lat="59.481284398427" lon="17.805463220889">
        <ele>25.6</ele>
        <time>2013-08-17T11:56:40Z</time>
      </trkpt>
      <trkpt lat="59.481123801223" lon="17.805522229465">
        <ele>25.6</ele>
        <time>2013-08-17T11:56:43Z</time>
      </trkpt>
      <trkpt lat="59.481078371325" lon="17.805537149247">
        <ele>25.6</ele>
        <time>2013-08-17T11:56:44Z</time>
      </trkpt>
      <trkpt lat="59.48077285107" lon="17.805657178055">
        <ele>26</ele>
        <time>2013-08-17T11:56:51Z</time>
      </trkpt>
      <trkpt lat="59.480723230222" lon="17.80567268457">
        <ele>26.4</ele>
        <time>2013-08-17T11:56:52Z</time>
      </trkpt>
      <trkpt lat="59.480667071492" lon="17.805684000135">
        <ele>26.8</ele>
        <time>2013-08-17T11:56:53Z</time>
      </trkpt>
      <trkpt lat="59.480611499495" lon="17.805693555501">
        <ele>27.2</ele>
        <time>2013-08-17T11:56:54Z</time>
      </trkpt>
      <trkpt lat="59.480560872819" lon="17.805708475283">
        <ele>27.6</ele>
        <time>2013-08-17T11:56:55Z</time>
      </trkpt>
      <trkpt lat="59.480464229512" lon="17.80575566538">
        <ele>27.6</ele>
        <time>2013-08-17T11:56:57Z</time>
      </trkpt>
      <trkpt lat="59.480204893526" lon="17.805959597007">
        <ele>27.6</ele>
        <time>2013-08-17T11:57:03Z</time>
      </trkpt>
      <trkpt lat="59.479885878412" lon="17.806215161138">
        <ele>27.6</ele>
        <time>2013-08-17T11:57:10Z</time>
      </trkpt>
      <trkpt lat="59.479838855953" lon="17.80627199042">
        <ele>27.6</ele>
        <time>2013-08-17T11:57:11Z</time>
      </trkpt>
      <trkpt lat="59.479721257896" lon="17.80649662534">
        <ele>27.6</ele>
        <time>2013-08-17T11:57:14Z</time>
      </trkpt>
      <trkpt lat="59.479589997342" lon="17.806956121098">
        <ele>27.6</ele>
        <time>2013-08-17T11:57:19Z</time>
      </trkpt>
      <trkpt lat="59.479531072585" lon="17.807112862628">
        <ele>27.6</ele>
        <time>2013-08-17T11:57:21Z</time>
      </trkpt>
      <trkpt lat="59.479438284952" lon="17.807222162604">
        <ele>27.6</ele>
        <time>2013-08-17T11:57:23Z</time>
      </trkpt>
      <trkpt lat="59.479311382986" lon="17.807290223632">
        <ele>27.6</ele>
        <time>2013-08-17T11:57:25Z</time>
      </trkpt>
      <trkpt lat="59.479172159627" lon="17.807346214724">
        <ele>27.6</ele>
        <time>2013-08-17T11:57:27Z</time>
      </trkpt>
      <trkpt lat="59.478840655482" lon="17.807618039741">
        <ele>27.6</ele>
        <time>2013-08-17T11:57:32Z</time>
      </trkpt>
      <trkpt lat="59.478413178582" lon="17.808186248742">
        <ele>27.6</ele>
        <time>2013-08-17T11:57:40Z</time>
      </trkpt>
      <trkpt lat="59.478311841411" lon="17.808272917588">
        <ele>27.6</ele>
        <time>2013-08-17T11:57:42Z</time>
      </trkpt>
      <trkpt lat="59.478258113432" lon="17.808259087453">
        <ele>27.6</ele>
        <time>2013-08-17T11:57:43Z</time>
      </trkpt>
      <trkpt lat="59.478146717981" lon="17.808153140237">
        <ele>28.4</ele>
        <time>2013-08-17T11:57:45Z</time>
      </trkpt>
      <trkpt lat="59.478090810708" lon="17.808084408657">
        <ele>28.8</ele>
        <time>2013-08-17T11:57:46Z</time>
      </trkpt>
      <trkpt lat="59.47803196977" lon="17.808009390652">
        <ele>29.2</ele>
        <time>2013-08-17T11:57:47Z</time>
      </trkpt>
      <trkpt lat="59.477966674769" lon="17.807925236376">
        <ele>29.6</ele>
        <time>2013-08-17T11:57:48Z</time>
      </trkpt>
      <trkpt lat="59.47765394608" lon="17.807509661774">
        <ele>29.6</ele>
        <time>2013-08-17T11:57:53Z</time>
      </trkpt>
      <trkpt lat="59.477313724759" lon="17.807164076037">
        <ele>29.6</ele>
        <time>2013-08-17T11:57:58Z</time>
      </trkpt>
      <trkpt lat="59.476904268944" lon="17.806841456706">
        <ele>29.6</ele>
        <time>2013-08-17T11:58:04Z</time>
      </trkpt>
      <trkpt lat="59.476314099365" lon="17.806510371656">
        <ele>29.6</ele>
        <time>2013-08-17T11:58:12Z</time>
      </trkpt>
      <trkpt lat="59.475823925853" lon="17.806331669548">
        <ele>29.6</ele>
        <time>2013-08-17T11:58:19Z</time>
      </trkpt>
      <trkpt lat="59.475299554189" lon="17.806115500347">
        <ele>29.6</ele>
        <time>2013-08-17T11:58:27Z</time>
      </trkpt>
      <trkpt lat="59.475015659236" lon="17.806011900063">
        <ele>29.6</ele>
        <time>2013-08-17T11:58:32Z</time>
      </trkpt>
      <trkpt lat="59.474973498279" lon="17.805959513188">
        <ele>29.6</ele>
        <time>2013-08-17T11:58:33Z</time>
      </trkpt>
      <trkpt lat="59.474930163856" lon="17.805669080353">
        <ele>29.6</ele>
        <time>2013-08-17T11:58:36Z</time>
      </trkpt>
      <trkpt lat="59.474945335095" lon="17.80543296223">
        <ele>29.6</ele>
        <time>2013-08-17T11:58:38Z</time>
      </trkpt>
      <trkpt lat="59.474950531873" lon="17.805304802979">
        <ele>29.6</ele>
        <time>2013-08-17T11:58:39Z</time>
      </trkpt>
      <trkpt lat="59.474951286244" lon="17.805175470262">
        <ele>29.6</ele>
        <time>2013-08-17T11:58:40Z</time>
      </trkpt>
      <trkpt lat="59.474936869376" lon="17.804789148491">
        <ele>29.6</ele>
        <time>2013-08-17T11:58:43Z</time>
      </trkpt>
      <trkpt lat="59.47493234315" lon="17.804702312007">
        <ele>29.6</ele>
        <time>2013-08-17T11:58:44Z</time>
      </trkpt>
      <trkpt lat="59.474885823605" lon="17.804654451358">
        <ele>29.6</ele>
        <time>2013-08-17T11:58:46Z</time>
      </trkpt>
      <trkpt lat="59.474810051229" lon="17.804703485473">
        <ele>29.6</ele>
        <time>2013-08-17T11:58:48Z</time>
      </trkpt>
      <trkpt lat="59.474714497569" lon="17.804777665288">
        <ele>29.6</ele>
        <time>2013-08-17T11:58:50Z</time>
      </trkpt>
      <trkpt lat="59.474590193992" lon="17.804846313049">
        <ele>29.6</ele>
        <time>2013-08-17T11:58:52Z</time>
      </trkpt>
      <trkpt lat="59.474463375845" lon="17.804907165643">
        <ele>29.6</ele>
        <time>2013-08-17T11:58:54Z</time>
      </trkpt>
      <trkpt lat="59.474336557698" lon="17.804965168391">
        <ele>29.6</ele>
        <time>2013-08-17T11:58:56Z</time>
      </trkpt>
      <trkpt lat="59.474211415931" lon="17.804955277749">
        <ele>29.6</ele>
        <time>2013-08-17T11:58:58Z</time>
      </trkpt>
      <trkpt lat="59.474029361063" lon="17.804887049083">
        <ele>29.6</ele>
        <time>2013-08-17T11:59:01Z</time>
      </trkpt>
      <trkpt lat="59.47383263787" lon="17.804853856759">
        <ele>29.6</ele>
        <time>2013-08-17T11:59:04Z</time>
      </trkpt>
      <trkpt lat="59.473699281841" lon="17.804847402696">
        <ele>29.6</ele>
        <time>2013-08-17T11:59:06Z</time>
      </trkpt>
      <trkpt lat="59.473567350735" lon="17.80491412262">
        <ele>29.6</ele>
        <time>2013-08-17T11:59:08Z</time>
      </trkpt>
      <trkpt lat="59.473374902311" lon="17.804943291632">
        <ele>29.6</ele>
        <time>2013-08-17T11:59:11Z</time>
      </trkpt>
      <trkpt lat="59.473199552963" lon="17.805053513617">
        <ele>29.6</ele>
        <time>2013-08-17T11:59:14Z</time>
      </trkpt>
      <trkpt lat="59.473088828064" lon="17.805122412835">
        <ele>29.6</ele>
        <time>2013-08-17T11:59:16Z</time>
      </trkpt>
      <trkpt lat="59.472973074025" lon="17.80510774451">
        <ele>29.6</ele>
        <time>2013-08-17T11:59:18Z</time>
      </trkpt>
      <trkpt lat="59.472842819299" lon="17.804851593646">
        <ele>29.6</ele>
        <time>2013-08-17T11:59:21Z</time>
      </trkpt>
      <trkpt lat="59.472702003379" lon="17.804617654817">
        <ele>29.6</ele>
        <time>2013-08-17T11:59:24Z</time>
      </trkpt>
      <trkpt lat="59.472642575708" lon="17.804553281825">
        <ele>29.6</ele>
        <time>2013-08-17T11:59:25Z</time>
      </trkpt>
      <trkpt lat="59.472327919182" lon="17.804261004972">
        <ele>29.6</ele>
        <time>2013-08-17T11:59:30Z</time>
      </trkpt>
      <trkpt lat="59.471831543064" lon="17.803809974933">
        <ele>29.6</ele>
        <time>2013-08-17T11:59:38Z</time>
      </trkpt>
      <trkpt lat="59.471770606651" lon="17.803751050176">
        <ele>29.6</ele>
        <time>2013-08-17T11:59:39Z</time>
      </trkpt>
      <trkpt lat="59.471265094262" lon="17.803266492537">
        <ele>29.6</ele>
        <time>2013-08-17T11:59:47Z</time>
      </trkpt>
      <trkpt lat="59.470913473557" lon="17.802826442787">
        <ele>29.6</ele>
        <time>2013-08-17T11:59:53Z</time>
      </trkpt>
      <trkpt lat="59.470720941314" lon="17.80257221976">
        <ele>29.6</ele>
        <time>2013-08-17T11:59:57Z</time>
      </trkpt>
      <trkpt lat="59.470654556666" lon="17.802556880883">
        <ele>29.6</ele>
        <time>2013-08-17T11:59:59Z</time>
      </trkpt>
      <trkpt lat="59.470625639111" lon="17.802609351577">
        <ele>29.6</ele>
        <time>2013-08-17T12:00:00Z</time>
      </trkpt>
      <trkpt lat="59.470564451241" lon="17.802819066715">
        <ele>29.6</ele>
        <time>2013-08-17T12:00:03Z</time>
      </trkpt>
      <trkpt lat="59.470497982774" lon="17.803033810993">
        <ele>29.6</ele>
        <time>2013-08-17T12:00:06Z</time>
      </trkpt>
      <trkpt lat="59.470417684172" lon="17.803255512248">
        <ele>29.6</ele>
        <time>2013-08-17T12:00:09Z</time>
      </trkpt>
      <trkpt lat="59.47034576747" lon="17.803486433593">
        <ele>29.6</ele>
        <time>2013-08-17T12:00:12Z</time>
      </trkpt>
      <trkpt lat="59.470314670621" lon="17.803564888177">
        <ele>29.6</ele>
        <time>2013-08-17T12:00:13Z</time>
      </trkpt>
      <trkpt lat="59.470141081472" lon="17.803815423168">
        <ele>29.6</ele>
        <time>2013-08-17T12:00:17Z</time>
      </trkpt>
      <trkpt lat="59.470046785097" lon="17.803895889408">
        <ele>29.6</ele>
        <time>2013-08-17T12:00:19Z</time>
      </trkpt>
      <trkpt lat="59.469906304453" lon="17.804000076425">
        <ele>29.6</ele>
        <time>2013-08-17T12:00:22Z</time>
      </trkpt>
      <trkpt lat="59.469858108528" lon="17.804021534089">
        <ele>29.6</ele>
        <time>2013-08-17T12:00:23Z</time>
      </trkpt>
      <trkpt lat="59.46980848768" lon="17.804033101111">
        <ele>29.6</ele>
        <time>2013-08-17T12:00:24Z</time>
      </trkpt>
      <trkpt lat="59.469664905733" lon="17.804079788294">
        <ele>29.6</ele>
        <time>2013-08-17T12:00:27Z</time>
      </trkpt>
      <trkpt lat="59.469550744255" lon="17.804090265669">
        <ele>29.6</ele>
        <time>2013-08-17T12:00:30Z</time>
      </trkpt>
      <trkpt lat="59.469519395949" lon="17.804048691445">
        <ele>29.6</ele>
        <time>2013-08-17T12:00:31Z</time>
      </trkpt>
      <trkpt lat="59.469469356006" lon="17.80386973788">
        <ele>29.6</ele>
        <time>2013-08-17T12:00:34Z</time>
      </trkpt>
      <trkpt lat="59.469459884459" lon="17.803823888887">
        <ele>29.6</ele>
        <time>2013-08-17T12:00:35Z</time>
      </trkpt>
      <trkpt lat="59.469455442052" lon="17.803660106561">
        <ele>29.6</ele>
        <time>2013-08-17T12:00:39Z</time>
      </trkpt>
      <trkpt lat="59.469472457309" lon="17.803609731342">
        <ele>29.6</ele>
        <time>2013-08-17T12:00:40Z</time>
      </trkpt>
      <trkpt lat="59.469499027932" lon="17.803548040558">
        <ele>29.6</ele>
        <time>2013-08-17T12:00:41Z</time>
      </trkpt>
      <trkpt lat="59.46961989493" lon="17.803306977114">
        <ele>29.6</ele>
        <time>2013-08-17T12:00:45Z</time>
      </trkpt>
      <trkpt lat="59.469736151883" lon="17.803012437148">
        <ele>29.6</ele>
        <time>2013-08-17T12:00:49Z</time>
      </trkpt>
      <trkpt lat="59.469742103032" lon="17.802915961479">
        <ele>29.6</ele>
        <time>2013-08-17T12:00:50Z</time>
      </trkpt>
      <trkpt lat="59.469679071144" lon="17.802649081783">
        <ele>29.6</ele>
        <time>2013-08-17T12:00:53Z</time>
      </trkpt>
      <trkpt lat="59.469551330988" lon="17.80249426809">
        <ele>29.6</ele>
        <time>2013-08-17T12:00:56Z</time>
      </trkpt>
      <trkpt lat="59.469508331841" lon="17.802456046626">
        <ele>29.6</ele>
        <time>2013-08-17T12:00:57Z</time>
      </trkpt>
      <trkpt lat="59.46935251232" lon="17.802305507702">
        <ele>29.6</ele>
        <time>2013-08-17T12:01:01Z</time>
      </trkpt>
      <trkpt lat="59.469272968089" lon="17.802252953189">
        <ele>29.6</ele>
        <time>2013-08-17T12:01:03Z</time>
      </trkpt>
      <trkpt lat="59.46893174094" lon="17.802185646532">
        <ele>29.6</ele>
        <time>2013-08-17T12:01:11Z</time>
      </trkpt>
      <trkpt lat="59.468641140467" lon="17.802125296852">
        <ele>29.6</ele>
        <time>2013-08-17T12:01:18Z</time>
      </trkpt>
      <trkpt lat="59.468495798321" lon="17.802181120306">
        <ele>29.6</ele>
        <time>2013-08-17T12:01:22Z</time>
      </trkpt>
      <trkpt lat="59.468340230257" lon="17.802525029663">
        <ele>29.6</ele>
        <time>2013-08-17T12:01:27Z</time>
      </trkpt>
      <trkpt lat="59.46811534388" lon="17.803037247572">
        <ele>29.6</ele>
        <time>2013-08-17T12:01:33Z</time>
      </trkpt>
      <trkpt lat="59.467887440019" lon="17.80349171419">
        <ele>29.6</ele>
        <time>2013-08-17T12:01:38Z</time>
      </trkpt>
      <trkpt lat="59.467837483895" lon="17.803539239563">
        <ele>29.6</ele>
        <time>2013-08-17T12:01:39Z</time>
      </trkpt>
      <trkpt lat="59.46767026499" lon="17.803522056668">
        <ele>29.6</ele>
        <time>2013-08-17T12:01:42Z</time>
      </trkpt>
      <trkpt lat="59.467562222299" lon="17.803449217957">
        <ele>29.6</ele>
        <time>2013-08-17T12:01:44Z</time>
      </trkpt>
      <trkpt lat="59.467397937059" lon="17.803349640985">
        <ele>29.6</ele>
        <time>2013-08-17T12:01:47Z</time>
      </trkpt>
      <trkpt lat="59.467049920571" lon="17.803170268325">
        <ele>29.6</ele>
        <time>2013-08-17T12:01:53Z</time>
      </trkpt>
      <trkpt lat="59.466903153502" lon="17.803309575503">
        <ele>29.6</ele>
        <time>2013-08-17T12:01:56Z</time>
      </trkpt>
      <trkpt lat="59.466800139951" lon="17.803583328357">
        <ele>29.6</ele>
        <time>2013-08-17T12:01:59Z</time>
      </trkpt>
      <trkpt lat="59.466766193256" lon="17.803641917838">
        <ele>29.6</ele>
        <time>2013-08-17T12:02:00Z</time>
      </trkpt>
      <trkpt lat="59.466687654853" lon="17.803635379956">
        <ele>29.2</ele>
        <time>2013-08-17T12:02:02Z</time>
      </trkpt>
      <trkpt lat="59.466645829172" lon="17.803591877895">
        <ele>28.8</ele>
        <time>2013-08-17T12:02:03Z</time>
      </trkpt>
      <trkpt lat="59.466605512233" lon="17.803543933427">
        <ele>28.4</ele>
        <time>2013-08-17T12:02:04Z</time>
      </trkpt>
      <trkpt lat="59.466562596905" lon="17.803493139113">
        <ele>28</ele>
        <time>2013-08-17T12:02:05Z</time>
      </trkpt>
      <trkpt lat="59.46651859193" lon="17.803446871025">
        <ele>27.6</ele>
        <time>2013-08-17T12:02:06Z</time>
      </trkpt>
      <trkpt lat="59.466476430973" lon="17.803413008149">
        <ele>27.6</ele>
        <time>2013-08-17T12:02:07Z</time>
      </trkpt>
      <trkpt lat="59.466436700767" lon="17.803395825254">
        <ele>27.6</ele>
        <time>2013-08-17T12:02:08Z</time>
      </trkpt>
      <trkpt lat="59.466316671959" lon="17.803503700307">
        <ele>27.6</ele>
        <time>2013-08-17T12:02:11Z</time>
      </trkpt>
      <trkpt lat="59.466058677077" lon="17.80384459218">
        <ele>27.6</ele>
        <time>2013-08-17T12:02:18Z</time>
      </trkpt>
      <trkpt lat="59.465834042157" lon="17.804116501016">
        <ele>27.6</ele>
        <time>2013-08-17T12:02:25Z</time>
      </trkpt>
      <trkpt lat="59.465551488308" lon="17.804420931624">
        <ele>27.6</ele>
        <time>2013-08-17T12:02:33Z</time>
      </trkpt>
      <trkpt lat="59.465376558055" lon="17.804548839418">
        <ele>27.6</ele>
        <time>2013-08-17T12:02:38Z</time>
      </trkpt>
      <trkpt lat="59.465338001315" lon="17.804535679835">
        <ele>27.6</ele>
        <time>2013-08-17T12:02:39Z</time>
      </trkpt>
      <trkpt lat="59.465149240927" lon="17.804545402839">
        <ele>27.6</ele>
        <time>2013-08-17T12:02:44Z</time>
      </trkpt>
      <trkpt lat="59.464913290442" lon="17.804644644535">
        <ele>27.6</ele>
        <time>2013-08-17T12:02:50Z</time>
      </trkpt>
      <trkpt lat="59.464766271916" lon="17.804734833779">
        <ele>27.6</ele>
        <time>2013-08-17T12:02:56Z</time>
      </trkpt>
      <trkpt lat="59.464620007761" lon="17.80480851068">
        <ele>27.6</ele>
        <time>2013-08-17T12:03:03Z</time>
      </trkpt>
      <trkpt lat="59.464475000891" lon="17.804902052684">
        <ele>27.6</ele>
        <time>2013-08-17T12:03:09Z</time>
      </trkpt>
      <trkpt lat="59.464313733135" lon="17.804971370997">
        <ele>27.6</ele>
        <time>2013-08-17T12:03:15Z</time>
      </trkpt>
      <trkpt lat="59.46417752726" lon="17.805102044818">
        <ele>27.6</ele>
        <time>2013-08-17T12:03:21Z</time>
      </trkpt>
      <trkpt lat="59.463980887886" lon="17.80532232115">
        <ele>27.6</ele>
        <time>2013-08-17T12:03:28Z</time>
      </trkpt>
      <trkpt lat="59.463864966209" lon="17.805616274383">
        <ele>27.6</ele>
        <time>2013-08-17T12:03:33Z</time>
      </trkpt>
      <trkpt lat="59.463708811412" lon="17.805699087555">
        <ele>27.6</ele>
        <time>2013-08-17T12:03:37Z</time>
      </trkpt>
      <trkpt lat="59.463591129536" lon="17.805630104518">
        <ele>27.6</ele>
        <time>2013-08-17T12:03:40Z</time>
      </trkpt>
      <trkpt lat="59.463561876705" lon="17.805604036809">
        <ele>27.6</ele>
        <time>2013-08-17T12:03:41Z</time>
      </trkpt>
      <trkpt lat="59.463389963936" lon="17.805479817051">
        <ele>27.6</ele>
        <time>2013-08-17T12:03:48Z</time>
      </trkpt>
      <trkpt lat="59.463179745884" lon="17.80546146069">
        <ele>27.6</ele>
        <time>2013-08-17T12:03:54Z</time>
      </trkpt>
      <trkpt lat="59.463018813404" lon="17.805488031313">
        <ele>28</ele>
        <time>2013-08-17T12:03:58Z</time>
      </trkpt>
      <trkpt lat="59.462977658275" lon="17.805488115132">
        <ele>28.4</ele>
        <time>2013-08-17T12:03:59Z</time>
      </trkpt>
      <trkpt lat="59.462935748775" lon="17.805482750716">
        <ele>28.8</ele>
        <time>2013-08-17T12:04:00Z</time>
      </trkpt>
      <trkpt lat="59.462894426008" lon="17.805466238373">
        <ele>29.2</ele>
        <time>2013-08-17T12:04:01Z</time>
      </trkpt>
      <trkpt lat="59.462850085757" lon="17.805449474573">
        <ele>29.6</ele>
        <time>2013-08-17T12:04:02Z</time>
      </trkpt>
      <trkpt lat="59.46276014797" lon="17.805422820131">
        <ele>29.6</ele>
        <time>2013-08-17T12:04:04Z</time>
      </trkpt>
      <trkpt lat="59.462673982038" lon="17.805403038847">
        <ele>29.6</ele>
        <time>2013-08-17T12:04:06Z</time>
      </trkpt>
      <trkpt lat="59.462438618286" lon="17.805421059932">
        <ele>29.6</ele>
        <time>2013-08-17T12:04:11Z</time>
      </trkpt>
      <trkpt lat="59.46239134437" lon="17.805451067134">
        <ele>29.6</ele>
        <time>2013-08-17T12:04:12Z</time>
      </trkpt>
      <trkpt lat="59.462239548161" lon="17.805596241642">
        <ele>29.6</ele>
        <time>2013-08-17T12:04:15Z</time>
      </trkpt>
      <trkpt lat="59.461975853587" lon="17.805876113283">
        <ele>29.6</ele>
        <time>2013-08-17T12:04:20Z</time>
      </trkpt>
      <trkpt lat="59.461853394028" lon="17.80585540999">
        <ele>29.6</ele>
        <time>2013-08-17T12:04:23Z</time>
      </trkpt>
      <trkpt lat="59.46177862748" lon="17.80556288168">
        <ele>29.6</ele>
        <time>2013-08-17T12:04:26Z</time>
      </trkpt>
      <trkpt lat="59.461739148731" lon="17.805330283955">
        <ele>29.6</ele>
        <time>2013-08-17T12:04:28Z</time>
      </trkpt>
      <trkpt lat="59.461695981946" lon="17.804988050978">
        <ele>29.6</ele>
        <time>2013-08-17T12:04:31Z</time>
      </trkpt>
      <trkpt lat="59.461674524282" lon="17.804209707744">
        <ele>29.6</ele>
        <time>2013-08-17T12:04:37Z</time>
      </trkpt>
      <trkpt lat="59.461624065244" lon="17.803489786353">
        <ele>29.6</ele>
        <time>2013-08-17T12:04:42Z</time>
      </trkpt>
      <trkpt lat="59.461632866239" lon="17.803272359867">
        <ele>29.6</ele>
        <time>2013-08-17T12:04:45Z</time>
      </trkpt>
      <trkpt lat="59.461562961193" lon="17.803140009666">
        <ele>29.6</ele>
        <time>2013-08-17T12:04:48Z</time>
      </trkpt>
      <trkpt lat="59.461489116654" lon="17.802970862924">
        <ele>29.6</ele>
        <time>2013-08-17T12:04:51Z</time>
      </trkpt>
      <trkpt lat="59.461471766121" lon="17.802902382801">
        <ele>29.6</ele>
        <time>2013-08-17T12:04:52Z</time>
      </trkpt>
      <trkpt lat="59.461376799194" lon="17.802396618955">
        <ele>29.6</ele>
        <time>2013-08-17T12:04:58Z</time>
      </trkpt>
      <trkpt lat="59.46136120886" lon="17.802261754184">
        <ele>29.6</ele>
        <time>2013-08-17T12:05:01Z</time>
      </trkpt>
      <trkpt lat="59.461349138924" lon="17.80224616385">
        <ele>29.6</ele>
        <time>2013-08-17T12:05:02Z</time>
      </trkpt>
      <trkpt lat="59.461241934423" lon="17.802255635397">
        <ele>29.6</ele>
        <time>2013-08-17T12:05:06Z</time>
      </trkpt>
      <trkpt lat="59.461121570339" lon="17.802321768588">
        <ele>29.6</ele>
        <time>2013-08-17T12:05:09Z</time>
      </trkpt>
      <trkpt lat="59.46102341829" lon="17.802378933146">
        <ele>29.6</ele>
        <time>2013-08-17T12:05:11Z</time>
      </trkpt>
      <trkpt lat="59.460772631842" lon="17.802596862546">
        <ele>29.6</ele>
        <time>2013-08-17T12:05:16Z</time>
      </trkpt>
      <trkpt lat="59.460725609383" lon="17.802679340442">
        <ele>29.6</ele>
        <time>2013-08-17T12:05:17Z</time>
      </trkpt>
      <trkpt lat="59.460522767403" lon="17.802985782706">
        <ele>29.6</ele>
        <time>2013-08-17T12:05:21Z</time>
      </trkpt>
      <trkpt lat="59.460465686664" lon="17.803049736603">
        <ele>29.6</ele>
        <time>2013-08-17T12:05:22Z</time>
      </trkpt>
      <trkpt lat="59.460289834402" lon="17.803189630514">
        <ele>29.6</ele>
        <time>2013-08-17T12:05:25Z</time>
      </trkpt>
      <trkpt lat="59.460242728124" lon="17.803230618005">
        <ele>29.6</ele>
        <time>2013-08-17T12:05:26Z</time>
      </trkpt>
      <trkpt lat="59.460121442031" lon="17.803296332101">
        <ele>29.6</ele>
        <time>2013-08-17T12:05:29Z</time>
      </trkpt>
      <trkpt lat="59.460078359065" lon="17.803338493058">
        <ele>29.6</ele>
        <time>2013-08-17T12:05:30Z</time>
      </trkpt>
      <trkpt lat="59.459952462927" lon="17.803507472162">
        <ele>29.6</ele>
        <time>2013-08-17T12:05:33Z</time>
      </trkpt>
      <trkpt lat="59.459742580151" lon="17.803815842263">
        <ele>29.6</ele>
        <time>2013-08-17T12:05:38Z</time>
      </trkpt>
      <trkpt lat="59.459588604648" lon="17.804040561002">
        <ele>29.6</ele>
        <time>2013-08-17T12:05:42Z</time>
      </trkpt>
      <trkpt lat="59.459528003511" lon="17.804144328924">
        <ele>29.6</ele>
        <time>2013-08-17T12:05:44Z</time>
      </trkpt>
      <trkpt lat="59.459429432367" lon="17.804281205351">
        <ele>29.6</ele>
        <time>2013-08-17T12:05:48Z</time>
      </trkpt>
      <trkpt lat="59.459257268141" lon="17.804397210847">
        <ele>29.6</ele>
        <time>2013-08-17T12:05:53Z</time>
      </trkpt>
      <trkpt lat="59.459074794178" lon="17.80428967107">
        <ele>29.6</ele>
        <time>2013-08-17T12:05:57Z</time>
      </trkpt>
      <trkpt lat="59.458991142816" lon="17.804186657519">
        <ele>29.6</ele>
        <time>2013-08-17T12:06:00Z</time>
      </trkpt>
      <trkpt lat="59.458978569966" lon="17.804160338353">
        <ele>29.6</ele>
        <time>2013-08-17T12:06:01Z</time>
      </trkpt>
      <trkpt lat="59.458975217206" lon="17.804123793269">
        <ele>29.6</ele>
        <time>2013-08-17T12:06:05Z</time>
      </trkpt>
      <trkpt lat="59.458972702636" lon="17.804123457993">
        <ele>29.6</ele>
        <time>2013-08-17T12:06:06Z</time>
      </trkpt>
    </trkseg>
  </trk>
</gpx>